Provisional Data: Lackawanna River near Forest City, PA


Please select a monitoring station.
Please select start date.
Please select start date.

Toggle Unit: C/F Toggle Unit: C/F
Sample Time Temperature (C) Temperature (F) Specific Conductivity (mS/cm) pH   Turbidity (NTU+) DO (mg/L)
1/12/2021 12:00:00 AM 0.6 33.08 0.071 6.45 1444.86 12.74
1/12/2021 12:15:00 AM 0.59 33.062 0.071 6.5 1686.9 12.72
1/12/2021 12:30:00 AM 0.57 33.026 0.071 6.5 1526.72 12.7
1/12/2021 12:45:00 AM 0.55 32.99 0.071 6.51 1643.01 12.62
1/12/2021 1:00:00 AM 0.53 32.954 0.071 6.46 1937.78 12.53
1/12/2021 1:15:00 AM 0.52 32.936 0.072 6.44 1640.32 12.53
1/12/2021 1:30:00 AM 0.5 32.9 0.072 6.5 931.73 12.54
1/12/2021 1:45:00 AM 0.49 32.882 0.072 6.49 711.29 12.56
1/12/2021 2:00:00 AM 0.48 32.864 0.072 6.49 740.45 12.58
1/12/2021 2:15:00 AM 0.48 32.864 0.072 6.51 471.65 12.6
1/12/2021 2:30:00 AM 0.47 32.846 0.072 6.5 357.1 12.67
1/12/2021 2:45:00 AM 0.46 32.828 0.072 6.5 290.03 12.74
1/12/2021 3:00:00 AM 0.46 32.828 0.072 6.5 303.55 12.81
1/12/2021 3:15:00 AM 0.46 32.828 0.072 6.5 257.14 12.78
1/12/2021 3:30:00 AM 0.46 32.828 0.072 6.5 196.22 12.75
1/12/2021 3:45:00 AM 0.45 32.81 0.072 6.5 193.23 12.76
1/12/2021 4:00:00 AM 0.45 32.81 0.072 6.5 151.1 12.78
1/12/2021 4:15:00 AM 0.45 32.81 0.072 6.5 116.76 12.79
1/12/2021 4:30:00 AM 0.45 32.81 0.073 6.5 75.09 12.79
1/12/2021 4:45:00 AM 0.45 32.81 0.073 6.36 46.71 12.67
1/12/2021 5:00:00 AM 0.45 32.81 0.073 6.41 41.65 12.66
1/12/2021 5:15:00 AM 0.45 32.81 0.073 6.41 37.21 12.68
1/12/2021 5:30:00 AM 0.44 32.792 0.073 6.41 36.72 12.67
1/12/2021 5:45:00 AM 0.44 32.792 0.073 6.48 36.41 12.64
1/12/2021 6:00:00 AM 0.44 32.792 0.073 6.38 34.65 12.65
1/12/2021 6:15:00 AM 0.44 32.792 0.073 6.41 36.59 12.65
1/12/2021 6:30:00 AM 0.44 32.792 0.073 6.43 34.42 12.63
1/12/2021 6:45:00 AM 0.44 32.792 0.074 6.45 32.27 12.65
1/12/2021 7:00:00 AM 0.43 32.774 0.074 6.57 33.99 12.67
1/12/2021 7:15:00 AM 0.43 32.774 0.074 6.48 32.04 12.68
1/12/2021 7:30:00 AM 0.43 32.774 0.074 6.48 32.97 12.7
1/12/2021 7:45:00 AM 0.42 32.756 0.074 6.49 31.86 12.7
1/12/2021 8:00:00 AM 0.42 32.756 0.074 6.39 30.96 12.71
1/12/2021 8:15:00 AM 0.41 32.738 0.073 6.41 31.15 12.73
1/12/2021 8:30:00 AM 0.41 32.738 0.073 6.5 31.97 12.74
1/12/2021 8:45:00 AM 0.41 32.738 0.073 6.38 32.31 12.71
1/12/2021 9:00:00 AM 0.41 32.738 0.073 6.49 33.17 12.69
1/12/2021 9:15:00 AM 0.4 32.72 0.073 6.49 32.96 12.71
1/12/2021 9:30:00 AM 0.41 32.738 0.073 6.48 33.21 12.74
1/12/2021 9:45:00 AM 0.41 32.738 0.073 6.4 34.34 12.74
1/12/2021 10:00:00 AM 0.42 32.756 0.074 6.47 33.35 12.75
1/12/2021 10:15:00 AM 0.43 32.774 0.074 6.49 33.61 12.73
1/12/2021 10:30:00 AM 0.44 32.792 0.073 6.5 35.25 12.73
1/12/2021 10:45:00 AM 0.46 32.828 0.074 6.46 34.67 12.71
1/12/2021 11:00:00 AM 0.48 32.864 0.074 6.39 39.7 12.74
1/12/2021 11:15:00 AM 0.49 32.882 0.074 6.42 36.71 12.72
1/12/2021 11:30:00 AM 0.52 32.936 0.074 6.48 35.13 12.77
1/12/2021 11:45:00 AM 0.54 32.972 0.074 6.49 37.19 12.76
1/12/2021 12:00:00 PM 0.57 33.026 0.074 6.49 33.69 12.78
1/12/2021 12:15:00 PM 0.6 33.08 0.074 6.49 33.74 12.86
1/12/2021 12:30:00 PM 0.62 33.116 0.074 6.51 35.73 12.88
1/12/2021 12:45:00 PM 0.65 33.17 0.074 6.51 34.72 12.89
1/12/2021 1:00:00 PM 0.69 33.242 0.073 6.51 33.8 12.91
1/12/2021 1:15:00 PM 0.72 33.296 0.074 6.52 34.38 12.89
1/12/2021 1:30:00 PM 0.75 33.35 0.074 6.52 31.98 12.98
1/12/2021 1:45:00 PM 0.79 33.422 0.074 6.52 30.43 12.97
1/12/2021 2:00:00 PM 0.82 33.476 0.073 6.51 30.06 12.9
1/12/2021 2:15:00 PM 0.86 33.548 0.074 6.42 29.2 12.91
1/12/2021 2:30:00 PM 0.9 33.62 0.074 6.47 27.72 12.96
1/12/2021 2:45:00 PM 0.93 33.674 0.074 6.53 27.71 12.99
1/12/2021 3:00:00 PM 0.96 33.728 0.075 6.52 28.38 13.08
1/12/2021 3:15:00 PM 0.99 33.782 0.075 6.53 26.75 13.07
1/12/2021 3:30:00 PM 1.02 33.836 0.074 6.53 28.49 13.02
1/12/2021 3:45:00 PM 1.05 33.89 0.074 6.54 27.77 13.02
1/12/2021 4:00:00 PM 1.08 33.944 0.074 6.55 26.9 13.11
1/12/2021 4:15:00 PM 1.1 33.98 0.074 6.55 26.46 13.08
1/12/2021 4:30:00 PM 1.12 34.016 0.074 6.53 25.88 13.08
1/12/2021 4:45:00 PM 1.14 34.052 0.075 6.55 24.7 13.18
1/12/2021 5:00:00 PM 1.16 34.088 0.075 6.55 24.59 13.12
1/12/2021 5:15:00 PM 1.17 34.106 0.075 6.54 24.13 13.18
1/12/2021 5:30:00 PM 1.17 34.106 0.075 6.46 22.28 13.16
1/12/2021 5:45:00 PM 1.18 34.124 0.075 6.53 21.03 13.25
1/12/2021 6:00:00 PM 1.18 34.124 0.075 6.54 20.99 13.31
1/12/2021 6:15:00 PM 1.18 34.124 0.074 6.51 20.61 13.24
1/12/2021 6:30:00 PM 1.18 34.124 0.074 6.54 20.14 13.19
1/12/2021 6:45:00 PM 1.17 34.106 0.074 6.53 20.53 13.03
1/12/2021 7:00:00 PM 1.16 34.088 0.074 6.53 20.55 13.07
1/12/2021 7:15:00 PM 1.15 34.07 0.074 6.45 19.63 13.15
1/12/2021 7:30:00 PM 1.14 34.052 0.074 6.54 20.9 13.1
1/12/2021 7:45:00 PM 1.13 34.034 0.074 6.52 20.73 12.91
1/12/2021 8:00:00 PM 1.12 34.016 0.074 6.53 21.37 13.07
1/12/2021 8:15:00 PM 1.11 33.998 0.074 6.49 21.08 13.14
1/12/2021 8:30:00 PM 1.1 33.98 0.075 6.53 20.13 13.09
1/12/2021 8:45:00 PM 1.09 33.962 0.074 6.5 19.87 13.07
1/12/2021 9:00:00 PM 1.08 33.944 0.075 6.49 20.16 12.84
1/12/2021 9:15:00 PM 1.07 33.926 0.075 6.32 20.21 12.09
1/12/2021 9:30:00 PM 1.05 33.89 0.075 6.49 20.73 11.63
1/12/2021 9:45:00 PM 1.04 33.872 0.075 6.41 20.34 12.61
1/12/2021 10:00:00 PM 1.02 33.836 0.075 6.41 20.33 12.76
1/12/2021 10:15:00 PM 1.01 33.818 0.075 6.49 20.69 12.72
1/12/2021 10:30:00 PM 1 33.8 0.075 6.49 20.49 12.77
1/12/2021 10:45:00 PM 0.98 33.764 0.076 6.52 20.75 12.78
1/12/2021 11:00:00 PM 0.96 33.728 0.076 6.42 20.36 12.8
1/12/2021 11:15:00 PM 0.95 33.71 0.076 6.51 20.47 12.82
1/12/2021 11:30:00 PM 0.93 33.674 0.076 6.51 19.92 12.87
1/12/2021 11:45:00 PM 0.92 33.656 0.076 6.51 19.7 12.89
1/13/2021 12:00:00 AM 0.9 33.62 0.076 6.5 19.97 12.75
1/13/2021 12:15:00 AM 0.88 33.584 0.077 6.51 19.75 12.85
1/13/2021 12:30:00 AM 0.87 33.566 0.076 6.5 19.87 12.67
1/13/2021 12:45:00 AM 0.85 33.53 0.076 6.5 19.99 12.09
1/13/2021 1:00:00 AM 0.84 33.512 0.076 6.49 19.79 10.67
1/13/2021 1:15:00 AM 0.82 33.476 0.076 6.49 19.42 10.11
1/13/2021 1:30:00 AM 0.81 33.458 0.076 6.5 19.79 10.3
1/13/2021 1:45:00 AM 0.79 33.422 0.077 6.48 19.76 10.89
1/13/2021 2:00:00 AM 0.78 33.404 0.077 6.48 19.86 10.5
1/13/2021 2:15:00 AM 0.77 33.386 0.076 6.49 19.77 9.91
1/13/2021 2:30:00 AM 0.75 33.35 0.077 6.5 19.6 9.99
1/13/2021 2:45:00 AM 0.74 33.332 0.077 6.51 19.41 10.37
1/13/2021 3:00:00 AM 0.73 33.314 0.077 6.5 19.69 11.46
1/13/2021 3:15:00 AM 0.73 33.314 0.077 6.49 19.93 11.82
1/13/2021 3:30:00 AM 0.72 33.296 0.077 6.5 19.98 11.9
1/13/2021 3:45:00 AM 0.71 33.278 0.077 6.5 20.29 12.04
1/13/2021 4:00:00 AM 0.7 33.26 0.077 6.5 20.09 12.13
1/13/2021 4:15:00 AM 0.69 33.242 0.077 6.51 20.49 12
1/13/2021 4:30:00 AM 0.68 33.224 0.077 6.36 21.56 12.18
1/13/2021 4:45:00 AM 0.68 33.224 0.077 6.5 21.23 12.21
1/13/2021 5:00:00 AM 0.67 33.206 0.077 6.49 21.33 12.21
1/13/2021 5:15:00 AM 0.66 33.188 0.076 6.4 21.37 12
1/13/2021 5:30:00 AM 0.66 33.188 0.077 6.49 20.93 12.2
1/13/2021 5:45:00 AM 0.65 33.17 0.077 6.47 21.11 12.17
1/13/2021 6:00:00 AM 0.65 33.17 0.077 6.49 21.4 12.18
1/13/2021 6:15:00 AM 0.64 33.152 0.078 6.38 21.4 12.22
1/13/2021 6:30:00 AM 0.64 33.152 0.077 6.48 21.98 11.95
1/13/2021 6:45:00 AM 0.63 33.134 0.077 6.49 22.05 11.91
1/13/2021 7:00:00 AM 0.63 33.134 0.077 6.49 21.94 11.96
1/13/2021 7:15:00 AM 0.62 33.116 0.078 6.49 22.31 12.05
1/13/2021 7:30:00 AM 0.62 33.116 0.077 6.36 22.57 12.21
1/13/2021 7:45:00 AM 0.62 33.116 0.077 6.5 22.14 12.28
1/13/2021 8:00:00 AM 0.62 33.116 0.076 6.46 21.97 11.83
1/13/2021 8:15:00 AM 0.62 33.116 0.077 6.49 22.59 11.99
1/13/2021 8:30:00 AM 0.62 33.116 0.077 6.47 22.24 12.26
1/13/2021 8:45:00 AM 0.61 33.098 0.078 6.48 21.9 12.36
1/13/2021 9:00:00 AM 0.61 33.098 0.083 6.49 22.18 12.35
1/13/2021 9:15:00 AM 0.61 33.098 0.083 6.49 22.39 12.41
1/13/2021 9:30:00 AM 0.62 33.116 0.083 6.49 22.09 12.5
1/13/2021 9:45:00 AM 0.62 33.116 0.081 6.46 22.01 12.52
1/13/2021 10:00:00 AM 0.63 33.134 0.079 6.39 21.88 12.42
1/13/2021 10:15:00 AM 0.63 33.134 0.079 6.42 21.86 12.46
1/13/2021 10:30:00 AM 0.64 33.152 0.079 6.4 21.7 12.43
1/13/2021 10:45:00 AM 0.65 33.17 0.079 6.43 21.66 12.44
1/13/2021 11:00:00 AM 0.66 33.188 0.08 6.43 21.3 12.45
1/13/2021 11:15:00 AM 0.68 33.224 0.081 6.48 21.56 12.42
1/13/2021 11:30:00 AM 0.69 33.242 0.081 6.5 21.4 12.39
1/13/2021 11:45:00 AM 0.71 33.278 0.081 6.5 21.34 12.41
1/13/2021 12:00:00 PM 0.73 33.314 0.08 6.46 21.01 12.44
1/13/2021 12:15:00 PM 0.74 33.332 0.08 6.43 20.92 12.46
1/13/2021 12:30:00 PM 0.76 33.368 0.08 6.49 20.8 12.37
1/13/2021 12:45:00 PM 0.77 33.386 0.08 6.38 20.55 12.36
1/13/2021 1:00:00 PM 0.79 33.422 0.08 6.45 20.82 12.44
1/13/2021 1:15:00 PM 0.81 33.458 0.08 6.46 20.85 12.54
1/13/2021 1:30:00 PM 0.83 33.494 0.081 6.44 20.72 12.79
1/13/2021 1:45:00 PM 0.85 33.53 0.081 6.46 20.53 13.08
1/13/2021 2:00:00 PM 0.87 33.566 0.081 6.47 20.23 13.31
1/13/2021 2:15:00 PM 0.89 33.602 0.081 6.46 20.28 13.4
1/13/2021 2:30:00 PM 0.91 33.638 0.081 6.45 20.57 13.46
1/13/2021 2:45:00 PM 0.93 33.674 0.081 6.46 20.71 13.48
1/13/2021 3:00:00 PM 0.94 33.692 0.081 6.46 20.82 13.46
1/13/2021 3:15:00 PM 0.96 33.728 0.081 6.46 20.72 13.48
1/13/2021 3:30:00 PM 0.97 33.746 0.081 6.46 20.8 13.5
1/13/2021 3:45:00 PM 0.99 33.782 0.081 6.47 20.64 13.52
1/13/2021 4:00:00 PM 0.99 33.782 0.081 6.51 21.08 13.54
1/13/2021 4:15:00 PM 1 33.8 0.081 6.56 20.87 13.54
1/13/2021 4:30:00 PM 1.01 33.818 0.081 6.48 21.05 13.53
1/13/2021 4:45:00 PM 1.01 33.818 0.081 6.49 21 13.53
1/13/2021 5:00:00 PM 1.02 33.836 0.081 6.49 21.11 13.55
1/13/2021 5:15:00 PM 1.02 33.836 0.081 6.49 21.58 13.58
1/13/2021 5:30:00 PM 1.03 33.854 0.081 6.49 21.8 13.57
1/13/2021 5:45:00 PM 1.03 33.854 0.081 6.54 20.75 13.57
1/13/2021 6:00:00 PM 1.03 33.854 0.081 6.55 20.87 13.56
1/13/2021 6:15:00 PM 1.03 33.854 0.081 6.49 20.39 13.55
1/13/2021 6:30:00 PM 1.02 33.836 0.081 6.52 21.07 13.51
1/13/2021 6:45:00 PM 1.01 33.818 0.08 6.53 20.96 13.48
1/13/2021 7:00:00 PM 1 33.8 0.08 6.52 21.41 13.48
1/13/2021 7:15:00 PM 0.99 33.782 0.08 6.5 21.85 13.47
1/13/2021 7:30:00 PM 0.98 33.764 0.08 6.55 22.16 13.44
1/13/2021 7:45:00 PM 0.97 33.746 0.08 6.55 23.18 13.43
1/13/2021 8:00:00 PM 0.95 33.71 0.08 6.44 22.94 13.41
1/13/2021 8:15:00 PM 0.94 33.692 0.08 6.53 23.29 13.41
1/13/2021 8:30:00 PM 0.93 33.674 0.08 6.55 23.17 13.41
1/13/2021 8:45:00 PM 0.91 33.638 0.079 6.46 23.39 13.41
1/13/2021 9:00:00 PM 0.9 33.62 0.079 6.54 23.26 13.39
1/13/2021 9:15:00 PM 0.88 33.584 0.079 6.52 23.38 13.37
1/13/2021 9:30:00 PM 0.87 33.566 0.079 6.53 23.54 13.38
1/13/2021 9:45:00 PM 0.85 33.53 0.079 6.54 23.99 13.43
1/13/2021 10:00:00 PM 0.84 33.512 0.079 6.46 24.46 13.47
1/13/2021 10:15:00 PM 0.82 33.476 0.079 6.53 24.87 13.49
1/13/2021 10:30:00 PM 0.81 33.458 0.079 6.53 24.31 13.51
1/13/2021 10:45:00 PM 0.79 33.422 0.079 6.54 24.96 13.5
1/13/2021 11:00:00 PM 0.78 33.404 0.079 6.54 24.55 13.5
1/13/2021 11:15:00 PM 0.76 33.368 0.079 6.54 25.27 13.49
1/13/2021 11:30:00 PM 0.75 33.35 0.079 6.53 26.67 13.5
1/13/2021 11:45:00 PM 0.73 33.314 0.079 6.54 25.88 13.5
1/14/2021 12:00:00 AM 0.71 33.278 0.079 6.53 26.62 13.49
1/14/2021 12:15:00 AM 0.7 33.26 0.079 6.53 26.47 13.47
1/14/2021 12:30:00 AM 0.69 33.242 0.079 6.54 35.06 13.47
1/14/2021 12:45:00 AM 0.68 33.224 0.079 6.53 31.75 13.45
1/14/2021 1:00:00 AM 0.66 33.188 0.079 6.53 30 13.45
1/14/2021 1:15:00 AM 0.65 33.17 0.079 6.53 28.79 13.43
1/14/2021 1:30:00 AM 0.64 33.152 0.079 6.53 28.37 13.42
1/14/2021 1:45:00 AM 0.63 33.134 0.079 6.52 27.84 13.41
1/14/2021 2:00:00 AM 0.62 33.116 0.079 6.4 27.56 13.4
1/14/2021 2:15:00 AM 0.61 33.098 0.079 6.52 27.9 13.38
1/14/2021 2:30:00 AM 0.6 33.08 0.079 6.52 27.75 13.38
1/14/2021 2:45:00 AM 0.59 33.062 0.08 6.53 26.24 13.37
1/14/2021 3:00:00 AM 0.58 33.044 0.079 6.52 27.11 13.36
1/14/2021 3:15:00 AM 0.57 33.026 0.079 6.52 27.54 13.36
1/14/2021 3:30:00 AM 0.57 33.026 0.079 6.51 26.07 13.35
1/14/2021 3:45:00 AM 0.56 33.008 0.079 6.52 27.11 13.34
1/14/2021 4:00:00 AM 0.56 33.008 0.079 6.52 27.07 13.34
1/14/2021 4:15:00 AM 0.56 33.008 0.079 6.51 26.7 13.33
1/14/2021 4:30:00 AM 0.56 33.008 0.079 6.52 26.29 13.33
1/14/2021 4:45:00 AM 0.56 33.008 0.079 6.51 26.41 13.32
1/14/2021 5:00:00 AM 0.56 33.008 0.079 6.52 27.19 13.31
1/14/2021 5:15:00 AM 0.57 33.026 0.079 6.51 25.87 13.3
1/14/2021 5:30:00 AM 0.57 33.026 0.078 6.52 25.7 13.3
1/14/2021 5:45:00 AM 0.57 33.026 0.078 6.52 26.28 13.29
1/14/2021 6:00:00 AM 0.57 33.026 0.078 6.51 25.8 13.3
1/14/2021 6:15:00 AM 0.58 33.044 0.078 6.51 26.69 13.29
1/14/2021 6:30:00 AM 0.58 33.044 0.078 6.51 26.96 13.25
1/14/2021 6:45:00 AM 0.58 33.044 0.079 6.51 27.66 13.25
1/14/2021 7:00:00 AM 0.59 33.062 0.079 6.51 27.21 13.27
1/14/2021 7:15:00 AM 0.59 33.062 0.079 6.51 27.37 13.26
1/14/2021 7:30:00 AM 0.59 33.062 0.079 6.51 27.12 13.26
1/14/2021 7:45:00 AM 0.59 33.062 0.079 6.51 26.86 13.25
1/14/2021 8:00:00 AM 0.59 33.062 0.079 6.51 26.68 13.24
1/14/2021 8:15:00 AM 0.59 33.062 0.079 6.51 26.92 13.25
1/14/2021 8:30:00 AM 0.6 33.08 0.079 6.51 27.27 13.25
1/14/2021 8:45:00 AM 0.6 33.08 0.079 6.51 28.1 13.26
1/14/2021 9:00:00 AM 0.6 33.08 0.079 6.51 27.1 13.26
1/14/2021 9:15:00 AM 0.61 33.098 0.079 6.51 30.54 13.26
1/14/2021 9:30:00 AM 0.61 33.098 0.079 6.5 26.64 13.25
1/14/2021 9:45:00 AM 0.61 33.098 0.079 6.5 27.16 13.24
1/14/2021 10:00:00 AM 0.62 33.116 0.079 6.51 26.24 13.25
1/14/2021 10:15:00 AM 0.62 33.116 0.079 6.51 24.33 13.25
1/14/2021 10:30:00 AM 0.63 33.134 0.078 6.51 27.75 13.26
1/14/2021 10:45:00 AM 0.64 33.152 0.078 6.51 26.97 13.27
1/14/2021 11:00:00 AM 0.64 33.152 0.079 6.51 25.55 13.28
1/14/2021 11:15:00 AM 0.65 33.17 0.079 6.51 24.12 13.29
1/14/2021 11:30:00 AM 0.66 33.188 0.078 6.52 24.52 13.31
1/14/2021 11:45:00 AM 0.68 33.224 0.078 6.52 24.21 13.32
1/14/2021 12:00:00 PM 0.69 33.242 0.078 6.52 25.44 13.34
1/14/2021 12:15:00 PM 0.71 33.278 0.079 6.52 24.46 13.36
1/14/2021 12:30:00 PM 0.73 33.314 0.079 6.53 28.69 13.4
1/14/2021 12:45:00 PM 0.75 33.35 0.078 6.53 26 13.43
1/14/2021 1:00:00 PM 0.77 33.386 0.079 6.53 28.1 13.43
1/14/2021 1:15:00 PM 0.79 33.422 0.079 6.53 32.18 13.46
1/14/2021 1:30:00 PM 0.81 33.458 0.078 6.54 30.13 13.49
1/14/2021 1:45:00 PM 0.83 33.494 0.078 6.54 28.71 13.5
1/14/2021 2:00:00 PM 0.85 33.53 0.078 6.55 28.73 13.52
1/14/2021 2:15:00 PM 0.87 33.566 0.079 6.55 28.74 13.54
1/14/2021 2:30:00 PM 0.89 33.602 0.079 6.55 37.81 13.55
1/14/2021 2:45:00 PM 0.91 33.638 0.079 6.55 36.5 13.56
1/14/2021 3:00:00 PM 0.93 33.674 0.078 6.56 35.54 13.58
1/14/2021 3:15:00 PM 0.95 33.71 0.078 6.56 37.96 13.59
1/14/2021 3:30:00 PM 0.98 33.764 0.079 6.56 33.99 13.61
1/14/2021 3:45:00 PM 1 33.8 0.079 6.56 37.33 13.62
1/14/2021 4:00:00 PM 1.01 33.818 0.078 6.56 33.36 13.63
1/14/2021 4:15:00 PM 1.02 33.836 0.078 6.56 32.27 13.63
1/14/2021 4:30:00 PM 1.04 33.872 0.079 6.57 28.64 13.64
1/14/2021 4:45:00 PM 1.05 33.89 0.079 6.57 25.49 13.64
1/14/2021 5:00:00 PM 1.06 33.908 0.078 6.57 24.97 13.64
1/14/2021 5:15:00 PM 1.07 33.926 0.078 6.57 24.27 13.65
1/14/2021 5:30:00 PM 1.07 33.926 0.078 6.56 23.07 13.64
1/14/2021 5:45:00 PM 1.08 33.944 0.078 6.56 21.28 13.65
1/14/2021 6:00:00 PM 1.08 33.944 0.078 6.56 21.19 13.65
1/14/2021 6:15:00 PM 1.09 33.962 0.078 6.57 21.55 13.63
1/14/2021 6:30:00 PM 1.09 33.962 0.078 6.56 21.43 13.62
1/14/2021 6:45:00 PM 1.09 33.962 0.078 6.56 22.72 13.62
1/14/2021 7:00:00 PM 1.09 33.962 0.078 6.56 22.32 13.62
1/14/2021 7:15:00 PM 1.09 33.962 0.078 6.56 22.64 13.6
1/14/2021 7:30:00 PM 1.09 33.962 0.078 6.57 22.67 13.59
1/14/2021 7:45:00 PM 1.09 33.962 0.078 6.55 23.12 13.57
1/14/2021 8:00:00 PM 1.09 33.962 0.078 6.56 23.15 13.55
1/14/2021 8:15:00 PM 1.09 33.962 0.078 6.55 23.14 13.53
1/14/2021 8:30:00 PM 1.08 33.944 0.078 6.55 23.25 13.51
1/14/2021 8:45:00 PM 1.08 33.944 0.078 6.55 22.96 13.5
1/14/2021 9:00:00 PM 1.07 33.926 0.078 6.55 23.88 13.49
1/14/2021 9:15:00 PM 1.07 33.926 0.078 6.54 24.21 13.46
1/14/2021 9:30:00 PM 1.07 33.926 0.078 6.56 24.36 13.46
1/14/2021 9:45:00 PM 1.06 33.908 0.078 6.54 24.7 13.44
1/14/2021 10:00:00 PM 1.06 33.908 0.078 6.54 25.15 13.43
1/14/2021 10:15:00 PM 1.06 33.908 0.078 6.54 26.53 13.41
1/14/2021 10:30:00 PM 1.05 33.89 0.078 6.53 25.92 13.39
1/14/2021 10:45:00 PM 1.05 33.89 0.078 6.53 25.84 13.38
1/14/2021 11:00:00 PM 1.04 33.872 0.078 6.53 25.84 13.37
1/14/2021 11:15:00 PM 1.04 33.872 0.079 6.53 25.63 13.36
1/14/2021 11:30:00 PM 1.04 33.872 0.078 6.53 25.81 13.35
1/14/2021 11:45:00 PM 1.03 33.854 0.079 6.52 25.78 13.34
1/15/2021 12:00:00 AM 1.02 33.836 0.079 6.52 25.16 13.32
1/15/2021 12:15:00 AM 1.02 33.836 0.078 6.52 25.15 13.31
1/15/2021 12:30:00 AM 1.01 33.818 0.078 6.5 25.39 13.29
1/15/2021 12:45:00 AM 1 33.8 0.079 6.52 26.09 13.29
1/15/2021 1:00:00 AM 1 33.8 0.079 6.52 26.18 13.27
1/15/2021 1:15:00 AM 0.99 33.782 0.079 6.52 26.59 13.27
1/15/2021 1:30:00 AM 0.98 33.764 0.079 6.52 27.31 13.26
1/15/2021 1:45:00 AM 0.97 33.746 0.079 6.5 27.24 13.23
1/15/2021 2:00:00 AM 0.95 33.71 0.079 6.49 27.4 13.22
1/15/2021 2:15:00 AM 0.94 33.692 0.079 6.5 27.46 13.22
1/15/2021 2:30:00 AM 0.93 33.674 0.079 6.52 27.59 13.21
1/15/2021 2:45:00 AM 0.91 33.638 0.078 6.51 27.81 13.21
1/15/2021 3:00:00 AM 0.9 33.62 0.079 6.51 27.9 13.19
1/15/2021 3:15:00 AM 0.86 33.548 0.08 6.5 28.87 13.2
1/15/2021 3:30:00 AM 0.83 33.494 0.08 6.5 28.58 13.21
1/15/2021 3:45:00 AM 0.81 33.458 0.079 6.49 28.6 13.2
1/15/2021 4:00:00 AM 0.79 33.422 0.079 6.5 29.1 13.2
1/15/2021 4:15:00 AM 0.78 33.404 0.079 6.51 28.97 13.2
1/15/2021 4:30:00 AM 0.75 33.35 0.078 6.5 29.09 13.2
1/15/2021 4:45:00 AM 0.73 33.314 0.078 6.5 29.27 13.2
1/15/2021 5:00:00 AM 0.71 33.278 0.078 6.49 28.82 13.19
1/15/2021 5:15:00 AM 0.69 33.242 0.078 6.51 29.14 13.17
1/15/2021 5:30:00 AM 0.67 33.206 0.078 6.5 28.67 13.18
1/15/2021 5:45:00 AM 0.65 33.17 0.078 6.51 28.83 13.18
1/15/2021 6:00:00 AM 0.64 33.152 0.078 6.5 28.78 13.17
1/15/2021 6:15:00 AM 0.62 33.116 0.078 6.5 28.86 13.17
1/15/2021 6:30:00 AM 0.6 33.08 0.077 6.5 28.94 13.16
1/15/2021 6:45:00 AM 0.59 33.062 0.077 6.5 28.96 13.17
1/15/2021 7:00:00 AM 0.57 33.026 0.077 6.5 29.19 13.17
1/15/2021 7:15:00 AM 0.56 33.008 0.077 6.5 29.09 13.16
1/15/2021 7:30:00 AM 0.55 32.99 0.077 6.5 28.99 13.15
1/15/2021 7:45:00 AM 0.53 32.954 0.077 6.5 29.33 13.15
1/15/2021 8:00:00 AM 0.52 32.936 0.078 6.5 28.97 13.14
1/15/2021 8:15:00 AM 0.51 32.918 0.077 6.5 29.09 13.14
1/15/2021 8:30:00 AM 0.51 32.918 0.078 6.51 29.42 13.14
1/15/2021 8:45:00 AM 0.5 32.9 0.078 6.51 29.44 13.15
1/15/2021 9:00:00 AM 0.51 32.918 0.078 6.51 29.9 13.15
1/15/2021 9:15:00 AM 0.5 32.9 0.078 6.51 30.17 13.15
1/15/2021 9:30:00 AM 0.51 32.918 0.078 6.5 30.35 13.15
1/15/2021 9:45:00 AM 0.52 32.936 0.078 6.51 30.18 13.15
1/15/2021 10:00:00 AM 0.52 32.936 0.078 6.51 30.39 13.16
1/15/2021 10:15:00 AM 0.53 32.954 0.078 6.51 30.46 13.18
1/15/2021 10:30:00 AM 0.54 32.972 0.078 6.52 29.95 13.2
1/15/2021 10:45:00 AM 0.55 32.99 0.078 6.52 30.11 13.22
1/15/2021 11:00:00 AM 0.57 33.026 0.078 6.53 29.91 13.25
1/15/2021 11:15:00 AM 0.59 33.062 0.078 6.53 29.88 13.27
1/15/2021 11:30:00 AM 0.61 33.098 0.079 6.53 29.51 13.31
1/15/2021 11:45:00 AM 0.63 33.134 0.078 6.53 29.77 13.34
1/15/2021 12:00:00 PM 0.66 33.188 0.079 6.54 29.49 13.37
1/15/2021 12:15:00 PM 0.68 33.224 0.078 6.54 29.6 13.4
1/15/2021 12:30:00 PM 0.7 33.26 0.078 6.55 29.52 13.42
1/15/2021 12:45:00 PM 0.72 33.296 0.078 6.55 29.48 13.46
1/15/2021 1:00:00 PM 0.74 33.332 0.078 6.56 29.75 13.47
1/15/2021 1:15:00 PM 0.76 33.368 0.078 6.57 29.57 13.51
1/15/2021 1:30:00 PM 0.78 33.404 0.078 6.57 29.51 13.52
1/15/2021 1:45:00 PM 0.79 33.422 0.078 6.56 29.73 13.52
1/15/2021 2:00:00 PM 0.81 33.458 0.078 6.58 29.75 13.56
1/15/2021 2:15:00 PM 0.82 33.476 0.078 6.59 29.7 13.57
1/15/2021 2:30:00 PM 0.84 33.512 0.078 6.59 29.99 13.58
1/15/2021 2:45:00 PM 0.85 33.53 0.078 6.59 30.01 13.59
1/15/2021 3:00:00 PM 0.86 33.548 0.078 6.6 29.98 13.61
1/15/2021 3:15:00 PM 0.86 33.548 0.078 6.6 30 13.61
1/15/2021 3:30:00 PM 0.87 33.566 0.078 6.6 29.99 13.61
1/15/2021 3:45:00 PM 0.87 33.566 0.078 6.61 30.69 13.63
1/15/2021 4:00:00 PM 0.88 33.584 0.078 6.61 30.55 13.64
1/15/2021 4:15:00 PM 0.88 33.584 0.078 6.61 30.48 13.64
1/15/2021 4:30:00 PM 0.89 33.602 0.078 6.61 30.31 13.62
1/15/2021 4:45:00 PM 0.9 33.62 0.078 6.61 30.45 13.6
1/15/2021 5:00:00 PM 0.9 33.62 0.078 6.61 30.41 13.6
1/15/2021 5:15:00 PM 0.91 33.638 0.078 6.61 30.44 13.61
1/15/2021 5:30:00 PM 0.91 33.638 0.078 6.6 30.51 13.59
1/15/2021 5:45:00 PM 0.92 33.656 0.078 6.61 30.52 13.61
1/15/2021 6:00:00 PM 0.92 33.656 0.078 6.61 30.51 13.59
1/15/2021 6:15:00 PM 0.93 33.674 0.078 6.61 30.81 13.59
1/15/2021 6:30:00 PM 0.93 33.674 0.078 6.61 30.32 13.58
1/15/2021 6:45:00 PM 0.93 33.674 0.078 6.61 30.84 13.57
1/15/2021 7:00:00 PM 0.93 33.674 0.078 6.62 30.77 13.56
1/15/2021 7:15:00 PM 0.93 33.674 0.078 6.61 30.67 13.56
1/15/2021 7:30:00 PM 0.94 33.692 0.078 6.61 30.7 13.54
1/15/2021 7:45:00 PM 0.93 33.674 0.078 6.62 31.29 13.52
1/15/2021 8:00:00 PM 0.93 33.674 0.078 6.61 31.38 13.5
1/15/2021 8:15:00 PM 0.94 33.692 0.078 6.61 31.56 13.49
1/15/2021 8:30:00 PM 0.94 33.692 0.078 6.61 31.59 13.48
1/15/2021 8:45:00 PM 0.94 33.692 0.078 6.61 31.51 13.48
1/15/2021 9:00:00 PM 0.94 33.692 0.078 6.62 31.51 13.48
1/15/2021 9:15:00 PM 0.95 33.71 0.078 6.61 31.97 13.46
1/15/2021 9:30:00 PM 0.95 33.71 0.078 6.6 32.26 13.44
1/15/2021 9:45:00 PM 0.96 33.728 0.078 6.61 31.57 13.43
1/15/2021 10:00:00 PM 0.96 33.728 0.078 6.6 32.09 13.42
1/15/2021 10:15:00 PM 0.96 33.728 0.078 6.6 31.98 13.4
1/15/2021 10:30:00 PM 0.96 33.728 0.078 6.6 31.99 13.39
1/15/2021 10:45:00 PM 0.96 33.728 0.078 6.6 31.38 13.37
1/15/2021 11:00:00 PM 0.96 33.728 0.078 6.6 31.73 13.35
1/15/2021 11:15:00 PM 0.95 33.71 0.078 6.59 32.04 13.34
1/15/2021 11:30:00 PM 0.95 33.71 0.078 6.6 32.24 13.33
1/15/2021 11:45:00 PM 0.95 33.71 0.078 6.6 32.27 13.31
1/16/2021 12:00:00 AM 0.94 33.692 0.078 6.59 33.18 13.29
1/16/2021 12:15:00 AM 0.94 33.692 0.078 6.59 32.66 13.29
1/16/2021 12:30:00 AM 0.94 33.692 0.078 6.59 33.16 13.29
1/16/2021 12:45:00 AM 0.93 33.674 0.078 6.6 33.69 13.28
1/16/2021 1:00:00 AM 0.91 33.638 0.078 6.58 33.73 13.26
1/16/2021 1:15:00 AM 0.9 33.62 0.078 6.59 34.07 13.25
1/16/2021 1:30:00 AM 0.9 33.62 0.078 6.59 33.73 13.24
1/16/2021 1:45:00 AM 0.89 33.602 0.078 6.59 33.64 13.23
1/16/2021 2:00:00 AM 0.88 33.584 0.078 6.58 34.33 13.22
1/16/2021 2:15:00 AM 0.86 33.548 0.078 6.58 34.57 13.21
1/16/2021 2:30:00 AM 0.85 33.53 0.078 6.58 34.29 13.19
1/16/2021 2:45:00 AM 0.82 33.476 0.078 6.57 35.28 13.17
1/16/2021 3:00:00 AM 0.8 33.44 0.078 6.57 36.44 13.16
1/16/2021 3:15:00 AM 0.79 33.422 0.078 6.57 36.45 13.16
1/16/2021 3:30:00 AM 0.78 33.404 0.078 6.57 36.89 13.16
1/16/2021 3:45:00 AM 0.76 33.368 0.078 6.57 36.53 13.15
1/16/2021 4:00:00 AM 0.74 33.332 0.078 6.57 36.42 13.13
1/16/2021 4:15:00 AM 0.72 33.296 0.078 6.57 37.2 13.12
1/16/2021 4:30:00 AM 0.69 33.242 0.078 6.57 37.17 13.13
1/16/2021 4:45:00 AM 0.67 33.206 0.078 6.56 37.63 13.12
1/16/2021 5:00:00 AM 0.66 33.188 0.078 6.56 37.62 13.12
1/16/2021 5:15:00 AM 0.63 33.134 0.078 6.56 37.44 13.1
1/16/2021 5:30:00 AM 0.62 33.116 0.078 6.56 37.54 13.08
1/16/2021 5:45:00 AM 0.6 33.08 0.078 6.55 37.83 13.06
1/16/2021 6:00:00 AM 0.58 33.044 0.079 6.55 38.75 13.04
1/16/2021 6:15:00 AM 0.57 33.026 0.078 6.54 37.94 13.03
1/16/2021 6:30:00 AM 0.55 32.99 0.078 6.54 38.06 13.03
1/16/2021 6:45:00 AM 0.53 32.954 0.078 6.55 37.75 13.03
1/16/2021 7:00:00 AM 0.52 32.936 0.078 6.55 37.63 13.02
1/16/2021 7:15:00 AM 0.51 32.918 0.078 6.54 37.86 13.01
1/16/2021 7:30:00 AM 0.49 32.882 0.078 6.54 37.91 13
1/16/2021 7:45:00 AM 0.47 32.846 0.079 6.54 39.32 12.99
1/16/2021 8:00:00 AM 0.46 32.828 0.079 6.54 38.9 12.99
1/16/2021 8:15:00 AM 0.45 32.81 0.079 6.54 38.26 13
1/16/2021 8:30:00 AM 0.45 32.81 0.079 6.54 38.84 12.99
1/16/2021 8:45:00 AM 0.44 32.792 0.079 6.54 38.22 13
1/16/2021 9:00:00 AM 0.44 32.792 0.079 6.53 38.6 13
1/16/2021 9:15:00 AM 0.44 32.792 0.079 6.53 38.23 13.01
1/16/2021 9:30:00 AM 0.44 32.792 0.079 6.53 38.08 13.02
1/16/2021 9:45:00 AM 0.45 32.81 0.079 6.54 37.76 13.03
1/16/2021 10:00:00 AM 0.46 32.828 0.079 6.54 37.72 13.05
1/16/2021 10:15:00 AM 0.48 32.864 0.079 6.54 37.68 13.06
1/16/2021 10:30:00 AM 0.5 32.9 0.079 6.54 37.85 13.06
1/16/2021 10:45:00 AM 0.53 32.954 0.079 6.54 37.91 13.08
1/16/2021 11:00:00 AM 0.56 33.008 0.079 6.54 36.88 13.07
1/16/2021 11:15:00 AM 0.58 33.044 0.079 6.54 36.83 13.1
1/16/2021 11:30:00 AM 0.63 33.134 0.079 6.55 37.28 13.13
1/16/2021 11:45:00 AM 0.66 33.188 0.079 6.55 37.48 13.15
1/16/2021 12:00:00 PM 0.7 33.26 0.079 6.56 37.41 13.18
1/16/2021 12:15:00 PM 0.76 33.368 0.079 6.57 37.57 13.22
1/16/2021 12:30:00 PM 0.81 33.458 0.079 6.57 37.99 13.22
1/16/2021 12:45:00 PM 0.85 33.53 0.079 6.57 38.12 13.23
1/16/2021 1:00:00 PM 0.89 33.602 0.079 6.57 38.16 13.25
1/16/2021 1:15:00 PM 0.92 33.656 0.079 6.57 38.25 13.26
1/16/2021 1:30:00 PM 0.96 33.728 0.079 6.58 38.65 13.27
1/16/2021 1:45:00 PM 0.99 33.782 0.079 6.59 38.26 13.3
1/16/2021 2:00:00 PM 1.02 33.836 0.079 6.59 37.91 13.31
1/16/2021 2:15:00 PM 1.05 33.89 0.079 6.59 38.18 13.32
1/16/2021 2:30:00 PM 1.08 33.944 0.079 6.59 38.17 13.34
1/16/2021 2:45:00 PM 1.11 33.998 0.079 6.59 38.21 13.34
1/16/2021 3:00:00 PM 1.13 34.034 0.079 6.6 38.2 13.33
1/16/2021 3:15:00 PM 1.14 34.052 0.079 6.6 38.67 13.35
1/16/2021 3:30:00 PM 1.17 34.106 0.079 6.6 38.02 13.37
1/16/2021 3:45:00 PM 1.19 34.142 0.079 6.61 38.82 13.38
1/16/2021 4:00:00 PM 1.2 34.16 0.079 6.6 38.68 13.37
1/16/2021 4:15:00 PM 1.2 34.16 0.079 6.61 39.17 13.37
1/16/2021 4:30:00 PM 1.21 34.178 0.079 6.61 38.8 13.37
1/16/2021 4:45:00 PM 1.21 34.178 0.079 6.51 38.7 13.38
1/16/2021 5:00:00 PM 1.23 34.214 0.079 6.6 38.36 13.39
1/16/2021 5:15:00 PM 1.23 34.214 0.079 6.6 38.66 13.38
1/16/2021 5:30:00 PM 1.23 34.214 0.08 6.61 38.23 13.38
1/16/2021 5:45:00 PM 1.22 34.196 0.08 6.61 38.33 13.38
1/16/2021 6:00:00 PM 1.22 34.196 0.079 6.61 37.89 13.38
1/16/2021 6:15:00 PM 1.21 34.178 0.08 6.6 37.66 13.37
1/16/2021 6:30:00 PM 1.21 34.178 0.08 6.6 37.71 13.36
1/16/2021 6:45:00 PM 1.2 34.16 0.079 6.6 37.62 13.37
1/16/2021 7:00:00 PM 1.19 34.142 0.08 6.6 38.26 13.34
1/16/2021 7:15:00 PM 1.17 34.106 0.08 6.6 38.16 13.34
1/16/2021 7:30:00 PM 1.16 34.088 0.08 6.6 38.97 13.34
1/16/2021 7:45:00 PM 1.16 34.088 0.08 6.6 37.78 13.33
1/16/2021 8:00:00 PM 1.14 34.052 0.08 6.6 37.16 13.31
1/16/2021 8:15:00 PM 1.13 34.034 0.08 6.59 37.89 13.31
1/16/2021 8:30:00 PM 1.11 33.998 0.08 6.59 37.83 13.29
1/16/2021 8:45:00 PM 1.09 33.962 0.08 6.59 37.44 13.27
1/16/2021 9:00:00 PM 1.07 33.926 0.08 6.58 36.98 13.25
1/16/2021 9:15:00 PM 1.04 33.872 0.08 6.58 36.82 13.23
1/16/2021 9:30:00 PM 1.02 33.836 0.08 6.58 36.65 13.22
1/16/2021 9:45:00 PM 1.01 33.818 0.08 6.58 36.84 13.21
1/16/2021 10:00:00 PM 0.99 33.782 0.08 6.58 36.66 13.21
1/16/2021 10:15:00 PM 0.97 33.746 0.08 6.58 36.36 13.2
1/16/2021 10:30:00 PM 0.95 33.71 0.081 6.58 36.58 13.18
1/16/2021 10:45:00 PM 0.92 33.656 0.08 6.57 37.07 13.16
1/16/2021 11:00:00 PM 0.9 33.62 0.08 6.57 37.49 13.15
1/16/2021 11:15:00 PM 0.88 33.584 0.081 6.58 36.85 13.14
1/16/2021 11:30:00 PM 0.85 33.53 0.081 6.58 36.6 13.14
1/16/2021 11:45:00 PM 0.83 33.494 0.081 6.57 36.98 13.14
1/17/2021 12:00:00 AM 0.81 33.458 0.081 6.58 36.46 13.14
1/17/2021 12:15:00 AM 0.8 33.44 0.081 6.57 36.37 13.14
1/17/2021 12:30:00 AM 0.78 33.404 0.081 6.57 37.46 13.13
1/17/2021 12:45:00 AM 0.78 33.404 0.081 6.57 36.58 13.12
1/17/2021 1:00:00 AM 0.76 33.368 0.081 6.57 36.68 13.12
1/17/2021 1:15:00 AM 0.75 33.35 0.081 6.56 36.73 13.12
1/17/2021 1:30:00 AM 0.74 33.332 0.081 6.57 54.54 13.12
1/17/2021 1:45:00 AM 0.72 33.296 0.081 6.57 36.04 13.11
1/17/2021 2:00:00 AM 0.7 33.26 0.081 6.57 36.32 13.11
1/17/2021 2:15:00 AM 0.69 33.242 0.081 6.58 36 13.11
1/17/2021 2:30:00 AM 0.68 33.224 0.08 6.57 35.75 13.11
1/17/2021 2:45:00 AM 0.66 33.188 0.081 6.56 36.01 13.11
1/17/2021 3:00:00 AM 0.65 33.17 0.08 6.57 35.82 13.11
1/17/2021 3:15:00 AM 0.64 33.152 0.081 6.57 35.73 13.11
1/17/2021 3:30:00 AM 0.63 33.134 0.081 6.57 35.28 13.1
1/17/2021 3:45:00 AM 0.62 33.116 0.081 6.57 35.62 13.1
1/17/2021 4:00:00 AM 0.61 33.098 0.081 6.57 35.71 13.1
1/17/2021 4:15:00 AM 0.6 33.08 0.081 6.57 35.99 13.09
1/17/2021 4:30:00 AM 0.59 33.062 0.081 6.57 35.89 13.09
1/17/2021 4:45:00 AM 0.59 33.062 0.081 6.57 36.23 13.08
1/17/2021 5:00:00 AM 0.58 33.044 0.081 6.58 35.68 13.09
1/17/2021 5:15:00 AM 0.58 33.044 0.081 6.57 36.67 13.08
1/17/2021 5:30:00 AM 0.57 33.026 0.081 6.56 36.5 13.08
1/17/2021 5:45:00 AM 0.56 33.008 0.081 6.56 37.23 13.07
1/17/2021 6:00:00 AM 0.56 33.008 0.081 6.57 37.69 13.06
1/17/2021 6:15:00 AM 0.56 33.008 0.081 6.57 37.21 13.07
1/17/2021 6:30:00 AM 0.55 32.99 0.081 6.56 38.17 13.06
1/17/2021 6:45:00 AM 0.54 32.972 0.081 6.57 38.11 13.06
1/17/2021 7:00:00 AM 0.55 32.99 0.08 6.56 37.77 13.06
1/17/2021 7:15:00 AM 0.54 32.972 0.08 6.57 38 13.05
1/17/2021 7:30:00 AM 0.54 32.972 0.08 6.56 38.02 13.04
1/17/2021 7:45:00 AM 0.54 32.972 0.08 6.56 37.83 13.04
1/17/2021 8:00:00 AM 0.54 32.972 0.081 6.56 37.91 13.05
1/17/2021 8:15:00 AM 0.54 32.972 0.081 6.55 37.94 13.05
1/17/2021 8:30:00 AM 0.55 32.99 0.081 6.56 37.44 13.04
1/17/2021 8:45:00 AM 0.55 32.99 0.081 6.55 37.88 13.04
1/17/2021 9:00:00 AM 0.56 33.008 0.081 6.56 37.75 13.06
1/17/2021 9:15:00 AM 0.57 33.026 0.081 6.56 37.26 13.06
1/17/2021 9:30:00 AM 0.58 33.044 0.081 6.55 37.59 13.06
1/17/2021 9:45:00 AM 0.59 33.062 0.081 6.56 37.72 13.07
1/17/2021 10:00:00 AM 0.6 33.08 0.08 6.55 39.04 13.09
1/17/2021 10:15:00 AM 0.61 33.098 0.08 6.56 38.94 13.1
1/17/2021 10:30:00 AM 0.62 33.116 0.081 6.57 39.26 13.11
1/17/2021 10:45:00 AM 0.64 33.152 0.08 6.56 39 13.12
1/17/2021 11:00:00 AM 0.66 33.188 0.08 6.57 38.23 13.15
1/17/2021 11:15:00 AM 0.68 33.224 0.08 6.58 37.86 13.18
1/17/2021 11:30:00 AM 0.7 33.26 0.08 6.58 37.78 13.2
1/17/2021 11:45:00 AM 0.73 33.314 0.08 6.58 37.51 13.22
1/17/2021 12:00:00 PM 0.75 33.35 0.08 6.58 37.54 13.22
1/17/2021 12:15:00 PM 0.76 33.368 0.08 6.58 37.63 13.23
1/17/2021 12:30:00 PM 0.79 33.422 0.079 6.59 38.26 13.26
1/17/2021 12:45:00 PM 0.82 33.476 0.079 6.59 37.76 13.3
1/17/2021 1:00:00 PM 0.85 33.53 0.079 6.59 38.08 13.32
1/17/2021 1:15:00 PM 0.88 33.584 0.079 6.6 38.33 13.33
1/17/2021 1:30:00 PM 0.9 33.62 0.08 6.6 38.19 13.34
1/17/2021 1:45:00 PM 0.92 33.656 0.08 6.6 37.87 13.36
1/17/2021 2:00:00 PM 0.94 33.692 0.08 6.6 38.48 13.36
1/17/2021 2:15:00 PM 0.97 33.746 0.079 6.61 38.92 13.38
1/17/2021 2:30:00 PM 0.99 33.782 0.08 6.61 38.03 13.4
1/17/2021 2:45:00 PM 1.02 33.836 0.079 6.61 37.81 13.42
1/17/2021 3:00:00 PM 1.05 33.89 0.079 6.62 37.96 13.43
1/17/2021 3:15:00 PM 1.07 33.926 0.079 6.62 38.05 13.46
1/17/2021 3:30:00 PM 1.1 33.98 0.079 6.62 38.27 13.47
1/17/2021 3:45:00 PM 1.13 34.034 0.079 6.62 37.65 13.48
1/17/2021 4:00:00 PM 1.15 34.07 0.079 6.63 38.18 13.5
1/17/2021 4:15:00 PM 1.17 34.106 0.079 6.63 37.9 13.5
1/17/2021 4:30:00 PM 1.18 34.124 0.079 6.63 37.89 13.51
1/17/2021 4:45:00 PM 1.19 34.142 0.079 6.62 38.05 13.5
1/17/2021 5:00:00 PM 1.2 34.16 0.079 6.62 37.82 13.51
1/17/2021 5:15:00 PM 1.2 34.16 0.079 6.63 38.14 13.5
1/17/2021 5:30:00 PM 1.21 34.178 0.079 6.62 38.25 13.51
1/17/2021 5:45:00 PM 1.21 34.178 0.079 6.63 38.42 13.51
1/17/2021 6:00:00 PM 1.21 34.178 0.079 6.63 38.72 13.5
1/17/2021 6:15:00 PM 1.21 34.178 0.079 6.62 39.02 13.49
1/17/2021 6:30:00 PM 1.2 34.16 0.079 6.62 39.18 13.48
1/17/2021 6:45:00 PM 1.2 34.16 0.079 6.62 39.18 13.47
1/17/2021 7:00:00 PM 1.2 34.16 0.079 6.62 39.12 13.46
1/17/2021 7:15:00 PM 1.19 34.142 0.079 6.62 39.63 13.45
1/17/2021 7:30:00 PM 1.18 34.124 0.079 6.61 39.88 13.43
1/17/2021 7:45:00 PM 1.17 34.106 0.079 6.61 40.05 13.42
1/17/2021 8:00:00 PM 1.16 34.088 0.079 6.61 39.71 13.4
1/17/2021 8:15:00 PM 1.16 34.088 0.079 6.6 39.51 13.39
1/17/2021 8:30:00 PM 1.16 34.088 0.079 6.6 39.46 13.38
1/17/2021 8:45:00 PM 1.15 34.07 0.079 6.6 39.86 13.37
1/17/2021 9:00:00 PM 1.14 34.052 0.08 6.6 39.66 13.36
1/17/2021 9:15:00 PM 1.14 34.052 0.079 6.59 39.74 13.34
1/17/2021 9:30:00 PM 1.14 34.052 0.079 6.59 39.61 13.33
1/17/2021 9:45:00 PM 1.13 34.034 0.079 6.59 39.49 13.32
1/17/2021 10:00:00 PM 1.13 34.034 0.08 6.58 39.64 13.31
1/17/2021 10:15:00 PM 1.12 34.016 0.079 6.58 39.37 13.3
1/17/2021 10:30:00 PM 1.12 34.016 0.079 6.58 39.71 13.28
1/17/2021 10:45:00 PM 1.11 33.998 0.08 6.58 39.19 13.27
1/17/2021 11:00:00 PM 1.1 33.98 0.08 6.58 39.71 13.26
1/17/2021 11:15:00 PM 1.1 33.98 0.08 6.58 39.54 13.24
1/17/2021 11:30:00 PM 1.08 33.944 0.08 6.57 39.66 13.23
1/17/2021 11:45:00 PM 1.07 33.926 0.08 6.57 39.82 13.22
1/18/2021 12:00:00 AM 1.06 33.908 0.08 6.56 39.8 13.21
1/18/2021 12:15:00 AM 1.05 33.89 0.08 6.56 39.92 13.19
1/18/2021 12:30:00 AM 1.04 33.872 0.08 6.56 40.06 13.18
1/18/2021 12:45:00 AM 1.03 33.854 0.08 6.56 40.71 13.17
1/18/2021 1:00:00 AM 1.02 33.836 0.08 6.56 40.61 13.15
1/18/2021 1:15:00 AM 1.01 33.818 0.08 6.55 40.44 13.13
1/18/2021 1:30:00 AM 1 33.8 0.08 6.55 40.13 13.13
1/18/2021 1:45:00 AM 0.99 33.782 0.08 6.55 40.41 13.12
1/18/2021 2:00:00 AM 0.98 33.764 0.08 6.55 40.26 13.11
1/18/2021 2:15:00 AM 0.97 33.746 0.08 6.55 39.94 13.1
1/18/2021 2:30:00 AM 0.96 33.728 0.08 6.55 40.46 13.09
1/18/2021 2:45:00 AM 0.96 33.728 0.08 6.55 41.33 13.08
1/18/2021 3:00:00 AM 0.95 33.71 0.08 6.54 41.3 13.07
1/18/2021 3:15:00 AM 0.94 33.692 0.08 6.54 41.14 13.06
1/18/2021 3:30:00 AM 0.94 33.692 0.08 6.54 41.46 13.05
1/18/2021 3:45:00 AM 0.93 33.674 0.08 6.54 41.14 13.04
1/18/2021 4:00:00 AM 0.93 33.674 0.08 6.54 41.4 13.04
1/18/2021 4:15:00 AM 0.92 33.656 0.08 6.54 41.12 13.04
1/18/2021 4:30:00 AM 0.92 33.656 0.08 6.54 41.28 13.03
1/18/2021 4:45:00 AM 0.92 33.656 0.079 6.54 41.24 13.03
1/18/2021 5:00:00 AM 0.92 33.656 0.08 6.54 41.12 13.02
1/18/2021 5:15:00 AM 0.92 33.656 0.08 6.54 41.37 13.01
1/18/2021 5:30:00 AM 0.92 33.656 0.08 6.54 41.08 13.02
1/18/2021 5:45:00 AM 0.92 33.656 0.08 6.54 41.14 13.01
1/18/2021 6:00:00 AM 0.91 33.638 0.08 6.54 41.09 13
1/18/2021 6:15:00 AM 0.91 33.638 0.08 6.53 40.92 13.01
1/18/2021 6:30:00 AM 0.91 33.638 0.08 6.54 40.87 13.01
1/18/2021 6:45:00 AM 0.9 33.62 0.08 6.54 41.04 13
1/18/2021 7:00:00 AM 0.89 33.602 0.08 6.54 40.58 13
1/18/2021 7:15:00 AM 0.89 33.602 0.08 6.53 40.75 13
1/18/2021 7:30:00 AM 0.89 33.602 0.08 6.53 40.49 13
1/18/2021 7:45:00 AM 0.88 33.584 0.079 6.53 40.39 13
1/18/2021 8:00:00 AM 0.88 33.584 0.08 6.53 40.38 13
1/18/2021 8:15:00 AM 0.88 33.584 0.08 6.53 40.92 13
1/18/2021 8:30:00 AM 0.88 33.584 0.079 6.54 41.17 12.99
1/18/2021 8:45:00 AM 0.88 33.584 0.08 6.53 41.15 13
1/18/2021 9:00:00 AM 0.89 33.602 0.079 6.54 40.92 13
1/18/2021 9:15:00 AM 0.88 33.584 0.08 6.53 40.79 12.98
1/18/2021 9:30:00 AM 0.88 33.584 0.08 6.53 40.86 12.99
1/18/2021 9:45:00 AM 0.89 33.602 0.08 6.53 41.03 12.99
1/18/2021 10:00:00 AM 0.89 33.602 0.08 6.57 40.78 13
1/18/2021 10:15:00 AM 0.91 33.638 0.08 6.53 41.03 13.01
1/18/2021 10:30:00 AM 0.92 33.656 0.08 6.51 40.71 13.03
1/18/2021 10:45:00 AM 0.92 33.656 0.08 6.5 41.05 13.04
1/18/2021 11:00:00 AM 0.94 33.692 0.08 6.5 40.86 13.05
1/18/2021 11:15:00 AM 0.95 33.71 0.08 6.49 40.66 13.06
1/18/2021 11:30:00 AM 0.96 33.728 0.08 6.5 40.76 13.09
1/18/2021 11:45:00 AM 0.98 33.764 0.079 6.51 40.48 13.11
1/18/2021 12:00:00 PM 1 33.8 0.079 6.51 40.91 13.16
1/18/2021 12:15:00 PM 1.03 33.854 0.079 6.53 40.73 13.18
1/18/2021 12:30:00 PM 1.06 33.908 0.079 6.53 40.64 13.2
1/18/2021 12:45:00 PM 1.08 33.944 0.08 6.53 40.51 13.22
1/18/2021 1:00:00 PM 1.11 33.998 0.079 6.53 40.41 13.25
1/18/2021 1:15:00 PM 1.14 34.052 0.079 6.54 40.6 13.26
1/18/2021 1:30:00 PM 1.17 34.106 0.079 6.54 40.67 13.28
1/18/2021 1:45:00 PM 1.19 34.142 0.08 6.54 40.75 13.29
1/18/2021 2:00:00 PM 1.21 34.178 0.079 6.55 41.29 13.32
1/18/2021 2:15:00 PM 1.24 34.232 0.079 6.56 41.49 13.33
1/18/2021 2:30:00 PM 1.26 34.268 0.079 6.57 41.35 13.35
1/18/2021 2:45:00 PM 1.29 34.322 0.079 6.57 41.45 13.38
1/18/2021 3:00:00 PM 1.32 34.376 0.08 6.57 41.68 13.4
1/18/2021 3:15:00 PM 1.35 34.43 0.08 6.56 41.89 13.41
1/18/2021 3:30:00 PM 1.36 34.448 0.08 6.57 41.66 13.43
1/18/2021 3:45:00 PM 1.38 34.484 0.08 6.58 41.63 13.45
1/18/2021 4:00:00 PM 1.39 34.502 0.08 6.58 41.8 13.45
1/18/2021 4:15:00 PM 1.4 34.52 0.08 6.58 41.96 13.46
1/18/2021 4:30:00 PM 1.4 34.52 0.08 6.58 41.82 13.47
1/18/2021 4:45:00 PM 1.41 34.538 0.08 6.6 41.57 13.48
1/18/2021 5:00:00 PM 1.41 34.538 0.08 6.59 41.66 13.5
1/18/2021 5:15:00 PM 1.42 34.556 0.08 6.59 41.43 13.5
1/18/2021 5:30:00 PM 1.43 34.574 0.08 6.59 41.53 13.51
1/18/2021 5:45:00 PM 1.42 34.556 0.079 6.58 41.67 13.49
1/18/2021 6:00:00 PM 1.4 34.52 0.08 6.59 41.8 13.49
1/18/2021 6:15:00 PM 1.38 34.484 0.08 6.58 41.72 13.48
1/18/2021 6:30:00 PM 1.35 34.43 0.08 6.57 41.5 13.47
1/18/2021 6:45:00 PM 1.33 34.394 0.079 6.57 41.28 13.46
1/18/2021 7:00:00 PM 1.3 34.34 0.08 6.57 41.65 13.45
1/18/2021 7:15:00 PM 1.29 34.322 0.08 6.58 42.03 13.45
1/18/2021 7:30:00 PM 1.27 34.286 0.08 6.57 41.48 13.44
1/18/2021 7:45:00 PM 1.26 34.268 0.079 6.57 41.61 13.42
1/18/2021 8:00:00 PM 1.25 34.25 0.08 6.57 41.68 13.41
1/18/2021 8:15:00 PM 1.24 34.232 0.08 6.57 41.63 13.39
1/18/2021 8:30:00 PM 1.23 34.214 0.08 6.57 41.86 13.39
1/18/2021 8:45:00 PM 1.23 34.214 0.08 6.57 41.76 13.37
1/18/2021 9:00:00 PM 1.21 34.178 0.08 6.56 41.56 13.37
1/18/2021 9:15:00 PM 1.2 34.16 0.08 6.57 41.3 13.36
1/18/2021 9:30:00 PM 1.19 34.142 0.08 6.57 41.44 13.35
1/18/2021 9:45:00 PM 1.18 34.124 0.08 6.56 41.68 13.34
1/18/2021 10:00:00 PM 1.17 34.106 0.08 6.57 41.74 13.32
1/18/2021 10:15:00 PM 1.15 34.07 0.08 6.55 41.73 13.31
1/18/2021 10:30:00 PM 1.14 34.052 0.08 6.55 41.85 13.3
1/18/2021 10:45:00 PM 1.12 34.016 0.08 6.56 42.08 13.3
1/18/2021 11:00:00 PM 1.11 33.998 0.08 6.56 42.16 13.29
1/18/2021 11:15:00 PM 1.09 33.962 0.08 6.57 42.1 13.28
1/18/2021 11:30:00 PM 1.07 33.926 0.08 6.55 41.96 13.27
1/18/2021 11:45:00 PM 1.05 33.89 0.08 6.55 41.89 13.26
1/19/2021 12:00:00 AM 1.03 33.854 0.08 6.55 41.78 13.25
1/19/2021 12:15:00 AM 1.01 33.818 0.08 6.55 41.65 13.22
1/19/2021 12:30:00 AM 0.99 33.782 0.08 6.55 41.79 13.22
1/19/2021 12:45:00 AM 0.97 33.746 0.08 6.55 41.71 13.22
1/19/2021 1:00:00 AM 0.95 33.71 0.081 6.55 41.35 13.21
1/19/2021 1:15:00 AM 0.93 33.674 0.081 6.55 41.4 13.21
1/19/2021 1:30:00 AM 0.91 33.638 0.081 6.55 41.57 13.21
1/19/2021 1:45:00 AM 0.9 33.62 0.081 6.55 41.46 13.2
1/19/2021 2:00:00 AM 0.88 33.584 0.081 6.55 41.4 13.19
1/19/2021 2:15:00 AM 0.87 33.566 0.081 6.55 41.43 13.19
1/19/2021 2:30:00 AM 0.85 33.53 0.081 6.55 41.31 13.19
1/19/2021 2:45:00 AM 0.85 33.53 0.081 6.55 41.46 13.18
1/19/2021 3:00:00 AM 0.83 33.494 0.081 6.55 41.31 13.18
1/19/2021 3:15:00 AM 0.83 33.494 0.081 6.55 41.42 13.17
1/19/2021 3:30:00 AM 0.81 33.458 0.08 6.55 41.42 13.18
1/19/2021 3:45:00 AM 0.8 33.44 0.08 6.54 41.86 13.17
1/19/2021 4:00:00 AM 0.79 33.422 0.081 6.53 41.87 13.16
1/19/2021 4:15:00 AM 0.79 33.422 0.081 6.54 42.26 13.14
1/19/2021 4:30:00 AM 0.79 33.422 0.081 6.54 42.06 13.14
1/19/2021 4:45:00 AM 0.78 33.404 0.081 6.54 41.9 13.14
1/19/2021 5:00:00 AM 0.78 33.404 0.081 6.54 41.78 13.15
1/19/2021 5:15:00 AM 0.77 33.386 0.081 6.54 41.9 13.15
1/19/2021 5:30:00 AM 0.78 33.404 0.081 6.54 42.01 13.14
1/19/2021 5:45:00 AM 0.77 33.386 0.081 6.53 42.09 13.13
1/19/2021 6:00:00 AM 0.78 33.404 0.081 6.53 42.26 13.13
1/19/2021 6:15:00 AM 0.77 33.386 0.081 6.53 41.73 13.12
1/19/2021 6:30:00 AM 0.78 33.404 0.081 6.53 41.76 13.12
1/19/2021 6:45:00 AM 0.78 33.404 0.081 6.53 41.25 13.12
1/19/2021 7:00:00 AM 0.78 33.404 0.081 6.52 41.77 13.11
1/19/2021 7:15:00 AM 0.78 33.404 0.081 6.53 41.46 13.1
1/19/2021 7:30:00 AM 0.78 33.404 0.081 6.52 41.17 13.09
1/19/2021 7:45:00 AM 0.78 33.404 0.081 6.52 41.27 13.09
1/19/2021 8:00:00 AM 0.78 33.404 0.081 6.52 41.51 13.09
1/19/2021 8:15:00 AM 0.78 33.404 0.08 6.52 41.4 13.09
1/19/2021 8:30:00 AM 0.79 33.422 0.08 6.52 41.22 13.1
1/19/2021 8:45:00 AM 0.79 33.422 0.08 6.52 41.21 13.1
1/19/2021 9:00:00 AM 0.8 33.44 0.08 6.52 41.53 13.11
1/19/2021 9:15:00 AM 0.8 33.44 0.08 6.53 41.82 13.12
1/19/2021 9:30:00 AM 0.81 33.458 0.08 6.52 41.5 13.12
1/19/2021 9:45:00 AM 0.82 33.476 0.08 6.53 41.46 13.13
1/19/2021 10:00:00 AM 0.83 33.494 0.08 6.53 41.6 13.14
1/19/2021 10:15:00 AM 0.84 33.512 0.08 6.53 41.26 13.15
1/19/2021 10:30:00 AM 0.86 33.548 0.08 6.55 41.53 13.17
1/19/2021 10:45:00 AM 0.89 33.602 0.08 6.54 41.46 13.19
1/19/2021 11:00:00 AM 0.91 33.638 0.08 6.54 41.56 13.21
1/19/2021 11:15:00 AM 0.93 33.674 0.08 6.54 41.42 13.23
1/19/2021 11:30:00 AM 0.95 33.71 0.08 6.55 41.58 13.25
1/19/2021 11:45:00 AM 0.98 33.764 0.08 6.55 41.81 13.28
1/19/2021 12:00:00 PM 1.01 33.818 0.08 6.56 41.65 13.31
1/19/2021 12:15:00 PM 1.04 33.872 0.08 6.56 41.83 13.35
1/19/2021 12:30:00 PM 1.08 33.944 0.08 6.57 42.13 13.39
1/19/2021 12:45:00 PM 1.11 33.998 0.08 6.57 41.82 13.4
1/19/2021 1:00:00 PM 1.14 34.052 0.08 6.58 42.27 13.42
1/19/2021 1:15:00 PM 1.17 34.106 0.079 6.58 42.02 13.45
1/19/2021 1:30:00 PM 1.2 34.16 0.079 6.59 41.99 13.48
1/19/2021 1:45:00 PM 1.23 34.214 0.079 6.59 42.68 13.51
1/19/2021 2:00:00 PM 1.26 34.268 0.079 6.6 42.72 13.51
1/19/2021 2:15:00 PM 1.3 34.34 0.079 6.61 42.56 13.54
1/19/2021 2:30:00 PM 1.33 34.394 0.079 6.61 42.59 13.57
1/19/2021 2:45:00 PM 1.36 34.448 0.079 6.61 42.17 13.57
1/19/2021 3:00:00 PM 1.38 34.484 0.079 6.61 42.08 13.58
1/19/2021 3:15:00 PM 1.4 34.52 0.079 6.61 42 13.6
1/19/2021 3:30:00 PM 1.41 34.538 0.079 6.62 42.04 13.6
1/19/2021 3:45:00 PM 1.42 34.556 0.079 6.62 41.73 13.61
1/19/2021 4:00:00 PM 1.43 34.574 0.079 6.62 42.42 13.62
1/19/2021 4:15:00 PM 1.43 34.574 0.079 6.62 42.45 13.63
1/19/2021 4:30:00 PM 1.42 34.556 0.079 6.63 42.86 13.64
1/19/2021 4:45:00 PM 1.42 34.556 0.079 6.62 42.3 13.65
1/19/2021 5:00:00 PM 1.42 34.556 0.079 6.63 42.69 13.65
1/19/2021 5:15:00 PM 1.41 34.538 0.079 6.63 42.14 13.65
1/19/2021 5:30:00 PM 1.4 34.52 0.079 6.63 42.55 13.66
1/19/2021 5:45:00 PM 1.39 34.502 0.079 6.63 41.95 13.66
1/19/2021 6:00:00 PM 1.38 34.484 0.079 6.63 42.63 13.66
1/19/2021 6:15:00 PM 1.36 34.448 0.079 6.63 42.63 13.67
1/19/2021 6:30:00 PM 1.34 34.412 0.079 6.63 42.57 13.66
1/19/2021 6:45:00 PM 1.32 34.376 0.079 6.63 43.11 13.65
1/19/2021 7:00:00 PM 1.3 34.34 0.079 6.63 42.34 13.65
1/19/2021 7:15:00 PM 1.27 34.286 0.079 6.62 42.37 13.64
1/19/2021 7:30:00 PM 1.24 34.232 0.079 6.62 41.89 13.62
1/19/2021 7:45:00 PM 1.21 34.178 0.079 6.62 42.07 13.6
1/19/2021 8:00:00 PM 1.18 34.124 0.079 6.6 42.77 13.59
1/19/2021 8:15:00 PM 1.16 34.088 0.079 6.61 43.35 13.57
1/19/2021 8:30:00 PM 1.14 34.052 0.079 6.61 43.1 13.55
1/19/2021 8:45:00 PM 1.12 34.016 0.079 6.6 43.03 13.53
1/19/2021 9:00:00 PM 1.1 33.98 0.08 6.6 43.05 13.51
1/19/2021 9:15:00 PM 1.08 33.944 0.08 6.61 43.03 13.51
1/19/2021 9:30:00 PM 1.06 33.908 0.08 6.6 43.42 13.5
1/19/2021 9:45:00 PM 1.04 33.872 0.08 6.6 43.42 13.49
1/19/2021 10:00:00 PM 1.02 33.836 0.08 6.6 43.53 13.47
1/19/2021 10:15:00 PM 1.01 33.818 0.08 6.6 43.96 13.46
1/19/2021 10:30:00 PM 1 33.8 0.08 6.59 43.31 13.45
1/19/2021 10:45:00 PM 0.98 33.764 0.08 6.59 43.21 13.44
1/19/2021 11:00:00 PM 0.97 33.746 0.08 6.6 43.41 13.43
1/19/2021 11:15:00 PM 0.96 33.728 0.08 6.59 43.91 13.41
1/19/2021 11:30:00 PM 0.94 33.692 0.08 6.58 44.24 13.4
1/19/2021 11:45:00 PM 0.93 33.674 0.08 6.58 44.4 13.38
1/20/2021 12:00:00 AM 0.91 33.638 0.08 6.58 44.69 13.37
1/20/2021 12:15:00 AM 0.9 33.62 0.08 6.58 44.96 13.37
1/20/2021 12:30:00 AM 0.88 33.584 0.08 6.58 45.43 13.36
1/20/2021 12:45:00 AM 0.87 33.566 0.08 6.58 45.67 13.35
1/20/2021 1:00:00 AM 0.86 33.548 0.08 6.58 46.04 13.33
1/20/2021 1:15:00 AM 0.84 33.512 0.08 6.57 47.18 13.32
1/20/2021 1:30:00 AM 0.83 33.494 0.08 6.57 46.55 13.3
1/20/2021 1:45:00 AM 0.82 33.476 0.08 6.56 47.16 13.29
1/20/2021 2:00:00 AM 0.81 33.458 0.08 6.56 47.5 13.28
1/20/2021 2:15:00 AM 0.81 33.458 0.081 6.57 47.22 13.26
1/20/2021 2:30:00 AM 0.8 33.44 0.08 6.56 47.61 13.25
1/20/2021 2:45:00 AM 0.79 33.422 0.08 6.56 47.47 13.24
1/20/2021 3:00:00 AM 0.78 33.404 0.08 6.55 46.93 13.23
1/20/2021 3:15:00 AM 0.77 33.386 0.08 6.55 46.78 13.22
1/20/2021 3:30:00 AM 0.77 33.386 0.08 6.55 46.24 13.22
1/20/2021 3:45:00 AM 0.77 33.386 0.08 6.54 46.56 13.21
1/20/2021 4:00:00 AM 0.76 33.368 0.08 6.54 47.07 13.2
1/20/2021 4:15:00 AM 0.76 33.368 0.08 6.54 47.8 13.19
1/20/2021 4:30:00 AM 0.76 33.368 0.08 6.54 47.49 13.18
1/20/2021 4:45:00 AM 0.75 33.35 0.08 6.54 47.1 13.18
1/20/2021 5:00:00 AM 0.75 33.35 0.08 6.54 47.55 13.17
1/20/2021 5:15:00 AM 0.74 33.332 0.08 6.54 53.87 13.16
1/20/2021 5:30:00 AM 0.74 33.332 0.08 6.55 47.76 13.15
1/20/2021 5:45:00 AM 0.73 33.314 0.08 6.54 50.83 13.14
1/20/2021 6:00:00 AM 0.72 33.296 0.08 6.55 49.49 13.14
1/20/2021 6:15:00 AM 0.7 33.26 0.08 6.53 48.8 13.14
1/20/2021 6:30:00 AM 0.7 33.26 0.082 6.54 60.16 13.13
1/20/2021 6:45:00 AM 0.69 33.242 0.08 6.54 47.96 13.13
1/20/2021 7:00:00 AM 0.69 33.242 0.081 6.53 47.58 13.12
1/20/2021 7:15:00 AM 0.68 33.224 0.081 6.53 59.7 13.12
1/20/2021 7:30:00 AM 0.68 33.224 0.081 6.54 49.54 13.13
1/20/2021 7:45:00 AM 0.67 33.206 0.081 6.54 48.29 13.13
1/20/2021 8:00:00 AM 0.66 33.188 0.081 6.54 47.2 13.13
1/20/2021 8:15:00 AM 0.66 33.188 0.081 6.55 47.16 13.13
1/20/2021 8:30:00 AM 0.65 33.17 0.081 6.54 47.01 13.13
1/20/2021 8:45:00 AM 0.64 33.152 0.081 6.55 51.08 13.15
1/20/2021 9:00:00 AM 0.63 33.134 0.081 6.55 46.7 13.16
1/20/2021 9:15:00 AM 0.63 33.134 0.082 6.55 49.3 13.17
1/20/2021 9:30:00 AM 0.62 33.116 0.081 6.56 62.27 13.17
1/20/2021 9:45:00 AM 0.63 33.134 0.081 6.56 61.37 13.19
1/20/2021 10:00:00 AM 0.63 33.134 0.081 6.55 46.35 13.19
1/20/2021 10:15:00 AM 0.64 33.152 0.081 6.57 47.06 13.2
1/20/2021 10:30:00 AM 0.64 33.152 0.081 6.57 59.03 13.22
1/20/2021 10:45:00 AM 0.64 33.152 0.081 6.58 63.01 13.25
1/20/2021 11:00:00 AM 0.65 33.17 0.081 6.58 55.63 13.28
1/20/2021 11:15:00 AM 0.67 33.206 0.08 6.58 65.41 13.31
1/20/2021 11:30:00 AM 0.68 33.224 0.08 6.59 47.81 13.35
1/20/2021 11:45:00 AM 0.7 33.26 0.08 6.6 68.09 13.38
1/20/2021 12:00:00 PM 0.72 33.296 0.08 6.6 46 13.42
1/20/2021 12:15:00 PM 0.74 33.332 0.08 6.61 64.85 13.45
1/20/2021 12:30:00 PM 0.75 33.35 0.08 6.62 62.05 13.46
1/20/2021 12:45:00 PM 0.76 33.368 0.08 6.62 63.75 13.48
1/20/2021 1:00:00 PM 0.77 33.386 0.08 6.63 52.44 13.5
1/20/2021 1:15:00 PM 0.78 33.404 0.08 6.63 61.81 13.51
1/20/2021 1:30:00 PM 0.79 33.422 0.08 6.63 45.01 13.55
1/20/2021 1:45:00 PM 0.8 33.44 0.08 6.64 56.36 13.57
1/20/2021 2:00:00 PM 0.81 33.458 0.08 6.65 53.28 13.6
1/20/2021 2:15:00 PM 0.82 33.476 0.08 6.65 59.94 13.61
1/20/2021 2:30:00 PM 0.84 33.512 0.08 6.66 52.35 13.62
1/20/2021 2:45:00 PM 0.84 33.512 0.08 6.66 61.74 13.62
1/20/2021 3:00:00 PM 0.84 33.512 0.08 6.66 47.18 13.64
1/20/2021 3:15:00 PM 0.83 33.494 0.08 6.66 55.21 13.65
1/20/2021 3:30:00 PM 0.83 33.494 0.08 6.66 62.43 13.65
1/20/2021 3:45:00 PM 0.82 33.476 0.08 6.67 48.45 13.66
1/20/2021 4:00:00 PM 0.82 33.476 0.08 6.67 50.38 13.67
1/20/2021 4:15:00 PM 0.81 33.458 0.08 6.68 55.78 13.69
1/20/2021 4:30:00 PM 0.8 33.44 0.08 6.68 45.59 13.69
1/20/2021 4:45:00 PM 0.78 33.404 0.081 6.68 56.7 13.7
1/20/2021 5:00:00 PM 0.77 33.386 0.08 6.68 52.94 13.7
1/20/2021 5:15:00 PM 0.75 33.35 0.08 6.68 61.24 13.71
1/20/2021 5:30:00 PM 0.73 33.314 0.079 6.68 43.61 13.73
1/20/2021 5:45:00 PM 0.71 33.278 0.079 6.69 62.61 13.73
1/20/2021 6:00:00 PM 0.7 33.26 0.08 6.69 47.24 13.74
1/20/2021 6:15:00 PM 0.68 33.224 0.079 6.68 42.78 13.74
1/20/2021 6:30:00 PM 0.65 33.17 0.08 6.67 43.16 13.73
1/20/2021 6:45:00 PM 0.63 33.134 0.08 6.67 58.99 13.72
1/20/2021 7:00:00 PM 0.6 33.08 0.08 6.67 60.38 13.71
1/20/2021 7:15:00 PM 0.56 33.008 0.08 6.67 43.21 13.7
1/20/2021 7:30:00 PM 0.53 32.954 0.08 6.67 59.69 13.69
1/20/2021 7:45:00 PM 0.5 32.9 0.08 6.66 46.05 13.69
1/20/2021 8:00:00 PM 0.48 32.864 0.08 6.66 43.7 13.67
1/20/2021 8:15:00 PM 0.47 32.846 0.08 6.65 59.41 13.66
1/20/2021 8:30:00 PM 0.46 32.828 0.08 6.65 61.7 13.65
1/20/2021 8:45:00 PM 0.45 32.81 0.08 6.65 43.07 13.64
1/20/2021 9:00:00 PM 0.44 32.792 0.08 6.64 56.89 13.62
1/20/2021 9:15:00 PM 0.43 32.774 0.08 6.64 44.7 13.6
1/20/2021 9:30:00 PM 0.42 32.756 0.08 6.63 55.97 13.59
1/20/2021 9:45:00 PM 0.42 32.756 0.08 6.63 43.31 13.57
1/20/2021 10:00:00 PM 0.42 32.756 0.08 6.63 44.24 13.57
1/20/2021 10:15:00 PM 0.41 32.738 0.08 6.63 43.85 13.56
1/20/2021 10:30:00 PM 0.41 32.738 0.08 6.63 57.56 13.54
1/20/2021 10:45:00 PM 0.41 32.738 0.081 6.62 44.9 13.53
1/20/2021 11:00:00 PM 0.41 32.738 0.082 6.63 63.65 13.52
1/20/2021 11:15:00 PM 0.4 32.72 0.08 6.62 44.72 13.51
1/20/2021 11:30:00 PM 0.4 32.72 0.08 6.62 45.33 13.5
1/20/2021 11:45:00 PM 0.4 32.72 0.08 6.61 45.31 13.49
1/21/2021 12:00:00 AM 0.4 32.72 0.08 6.61 44.97 13.48
1/21/2021 12:15:00 AM 0.39 32.702 0.08 6.61 44.4 13.47
1/21/2021 12:30:00 AM 0.39 32.702 0.08 6.61 44.32 13.45
1/21/2021 12:45:00 AM 0.38 32.684 0.081 6.61 44.68 13.44
1/21/2021 1:00:00 AM 0.37 32.666 0.081 6.6 45.24 13.42
1/21/2021 1:15:00 AM 0.37 32.666 0.081 6.59 44.21 13.41
1/21/2021 1:30:00 AM 0.36 32.648 0.081 6.59 45.18 13.4
1/21/2021 1:45:00 AM 0.35 32.63 0.081 6.59 43.98 13.39
1/21/2021 2:00:00 AM 0.35 32.63 0.081 6.58 44.08 13.38
1/21/2021 2:15:00 AM 0.34 32.612 0.081 6.58 44.28 13.36
1/21/2021 2:30:00 AM 0.34 32.612 0.081 6.58 44.56 13.36
1/21/2021 2:45:00 AM 0.33 32.594 0.081 6.57 44.43 13.35
1/21/2021 3:00:00 AM 0.33 32.594 0.081 6.57 44.45 13.34
1/21/2021 3:15:00 AM 0.32 32.576 0.081 6.57 44.89 13.33
1/21/2021 3:30:00 AM 0.32 32.576 0.081 6.57 44.62 13.32
1/21/2021 3:45:00 AM 0.32 32.576 0.081 6.59 45.29 13.32
1/21/2021 4:00:00 AM 0.31 32.558 0.081 6.57 66.5 13.31
1/21/2021 4:15:00 AM 0.31 32.558 0.083 6.57 56.64 13.31
1/21/2021 4:30:00 AM 0.31 32.558 0.081 6.56 98.19 13.3
1/21/2021 4:45:00 AM 0.3 32.54 0.081 6.57 46.58 13.29
1/21/2021 5:00:00 AM 0.3 32.54 0.081 6.56 87.15 13.28
1/21/2021 5:15:00 AM 0.29 32.522 0.082 6.58 46.85 13.27
1/21/2021 5:30:00 AM 0.29 32.522 0.082 6.56 90.61 13.28
1/21/2021 5:45:00 AM 0.29 32.522 0.081 6.55 77.03 13.27
1/21/2021 6:00:00 AM 0.28 32.504 0.082 6.56 71.76 13.27
1/21/2021 6:15:00 AM 0.28 32.504 0.081 6.55 46.64 13.26
1/21/2021 6:30:00 AM 0.28 32.504 0.081 6.55 44.71 13.25
1/21/2021 6:45:00 AM 0.27 32.486 0.081 6.55 45.56 13.26
1/21/2021 7:00:00 AM 0.27 32.486 0.081 6.55 45.88 13.25
1/21/2021 7:15:00 AM 0.27 32.486 0.082 6.54 46.01 13.25
1/21/2021 7:30:00 AM 0.27 32.486 0.082 6.55 46.01 13.24
1/21/2021 7:45:00 AM 0.27 32.486 0.082 6.55 46.79 13.24
1/21/2021 8:00:00 AM 0.27 32.486 0.082 6.55 46.68 13.23
1/21/2021 8:15:00 AM 0.27 32.486 0.082 6.54 46.27 13.23
1/21/2021 8:30:00 AM 0.27 32.486 0.082 6.55 46.35 13.23
1/21/2021 8:45:00 AM 0.27 32.486 0.082 6.54 48.34 13.22
1/21/2021 9:00:00 AM 0.27 32.486 0.081 6.55 45.41 13.22
1/21/2021 9:15:00 AM 0.28 32.504 0.082 6.54 46.13 13.22
1/21/2021 9:30:00 AM 0.28 32.504 0.082 6.55 46.7 13.22
1/21/2021 9:45:00 AM 0.29 32.522 0.082 6.54 44.58 13.22
1/21/2021 10:00:00 AM 0.3 32.54 0.082 6.54 44.53 13.21
1/21/2021 10:15:00 AM 0.31 32.558 0.082 6.55 43.91 13.21
1/21/2021 10:30:00 AM 0.32 32.576 0.082 6.55 43.78 13.21
1/21/2021 10:45:00 AM 0.33 32.594 0.082 6.55 43.92 13.22
1/21/2021 11:00:00 AM 0.34 32.612 0.082 6.54 43.82 13.22
1/21/2021 11:15:00 AM 0.35 32.63 0.082 6.55 44.3 13.24
1/21/2021 11:30:00 AM 0.37 32.666 0.082 6.55 43.69 13.25
1/21/2021 11:45:00 AM 0.4 32.72 0.082 6.55 43.57 13.27
1/21/2021 12:00:00 PM 0.43 32.774 0.082 6.56 43.24 13.29
1/21/2021 12:15:00 PM 0.46 32.828 0.082 6.56 43.64 13.31
1/21/2021 12:30:00 PM 0.49 32.882 0.082 6.56 43.38 13.33
1/21/2021 12:45:00 PM 0.52 32.936 0.082 6.56 43.84 13.35
1/21/2021 1:00:00 PM 0.55 32.99 0.082 6.56 43.89 13.36
1/21/2021 1:15:00 PM 0.58 33.044 0.082 6.56 43.62 13.37
1/21/2021 1:30:00 PM 0.62 33.116 0.081 6.57 43.5 13.4
1/21/2021 1:45:00 PM 0.66 33.188 0.081 6.57 43.43 13.4
1/21/2021 2:00:00 PM 0.69 33.242 0.081 6.57 43.27 13.4
1/21/2021 2:15:00 PM 0.73 33.314 0.081 6.57 43.14 13.43
1/21/2021 2:30:00 PM 0.76 33.368 0.081 6.57 42.92 13.45
1/21/2021 2:45:00 PM 0.79 33.422 0.081 6.58 43.41 13.46
1/21/2021 3:00:00 PM 0.83 33.494 0.081 6.58 43.45 13.47
1/21/2021 3:15:00 PM 0.86 33.548 0.081 6.58 43.67 13.48
1/21/2021 3:30:00 PM 0.89 33.602 0.081 6.58 43.75 13.49
1/21/2021 3:45:00 PM 0.92 33.656 0.081 6.58 43.87 13.49
1/21/2021 4:00:00 PM 0.94 33.692 0.081 6.58 43.74 13.49
1/21/2021 4:15:00 PM 0.96 33.728 0.081 6.58 43.95 13.48
1/21/2021 4:30:00 PM 0.99 33.782 0.081 6.59 43.93 13.49
1/21/2021 4:45:00 PM 1.01 33.818 0.081 6.59 43.92 13.51
1/21/2021 5:00:00 PM 1.02 33.836 0.081 6.59 43.38 13.51
1/21/2021 5:15:00 PM 1.04 33.872 0.081 6.59 43.58 13.49
1/21/2021 5:30:00 PM 1.04 33.872 0.081 6.59 43.83 13.49
1/21/2021 5:45:00 PM 1.05 33.89 0.081 6.58 43.54 13.49
1/21/2021 6:00:00 PM 1.05 33.89 0.081 6.59 43.17 13.49
1/21/2021 6:15:00 PM 1.05 33.89 0.081 6.59 43.69 13.49
1/21/2021 6:30:00 PM 1.05 33.89 0.081 6.58 43.82 13.47
1/21/2021 6:45:00 PM 1.04 33.872 0.081 6.59 44.01 13.48
1/21/2021 7:00:00 PM 1.04 33.872 0.081 6.58 44.37 13.47
1/21/2021 7:15:00 PM 1.02 33.836 0.081 6.58 44.12 13.46
1/21/2021 7:30:00 PM 1.01 33.818 0.081 6.59 44.68 13.46
1/21/2021 7:45:00 PM 0.99 33.782 0.081 6.59 44.48 13.45
1/21/2021 8:00:00 PM 0.98 33.764 0.081 6.58 44.62 13.43
1/21/2021 8:15:00 PM 0.96 33.728 0.081 6.58 44.54 13.42
1/21/2021 8:30:00 PM 0.94 33.692 0.081 6.58 44.6 13.4
1/21/2021 8:45:00 PM 0.92 33.656 0.081 6.58 44.83 13.39
1/21/2021 9:00:00 PM 0.91 33.638 0.081 6.58 44.4 13.37
1/21/2021 9:15:00 PM 0.89 33.602 0.081 6.58 43.75 13.36
1/21/2021 9:30:00 PM 0.89 33.602 0.081 6.58 43.78 13.34
1/21/2021 9:45:00 PM 0.88 33.584 0.081 6.59 44.32 13.33
1/21/2021 10:00:00 PM 0.87 33.566 0.081 6.59 44.05 13.32
1/21/2021 10:15:00 PM 0.87 33.566 0.081 6.58 44.41 13.32
1/21/2021 10:30:00 PM 0.87 33.566 0.081 6.58 45.2 13.29
1/21/2021 10:45:00 PM 0.87 33.566 0.081 6.58 44.96 13.28
1/21/2021 11:00:00 PM 0.87 33.566 0.081 6.58 44.88 13.27
1/21/2021 11:15:00 PM 0.87 33.566 0.08 6.58 44.84 13.25
1/21/2021 11:30:00 PM 0.87 33.566 0.08 6.58 44.54 13.25
1/21/2021 11:45:00 PM 0.87 33.566 0.08 6.58 45.09 13.23
1/22/2021 12:00:00 AM 0.87 33.566 0.08 6.57 45.25 13.22
1/22/2021 12:15:00 AM 0.86 33.548 0.08 6.57 45.75 13.2
1/22/2021 12:30:00 AM 0.86 33.548 0.08 6.57 45.92 13.19
1/22/2021 12:45:00 AM 0.86 33.548 0.08 6.57 45.96 13.17
1/22/2021 1:00:00 AM 0.85 33.53 0.08 6.57 45.43 13.16
1/22/2021 1:15:00 AM 0.84 33.512 0.08 6.56 45.35 13.15
1/22/2021 1:30:00 AM 0.83 33.494 0.08 6.56 45.42 13.13
1/22/2021 1:45:00 AM 0.83 33.494 0.08 6.56 45.96 13.12
1/22/2021 2:00:00 AM 0.81 33.458 0.081 6.56 45.66 13.11
1/22/2021 2:15:00 AM 0.8 33.44 0.081 6.56 46.39 13.1
1/22/2021 2:30:00 AM 0.78 33.404 0.081 6.56 46.09 13.09
1/22/2021 2:45:00 AM 0.76 33.368 0.081 6.56 46.82 13.08
1/22/2021 3:00:00 AM 0.75 33.35 0.081 6.56 45.67 13.08
1/22/2021 3:15:00 AM 0.74 33.332 0.081 6.56 45.63 13.07
1/22/2021 3:30:00 AM 0.73 33.314 0.081 6.56 46.15 13.07
1/22/2021 3:45:00 AM 0.72 33.296 0.081 6.55 46.7 13.05
1/22/2021 4:00:00 AM 0.7 33.26 0.081 6.55 46.55 13.05
1/22/2021 4:15:00 AM 0.69 33.242 0.081 6.55 46.42 13.04
1/22/2021 4:30:00 AM 0.68 33.224 0.081 6.55 46.45 13.04
1/22/2021 4:45:00 AM 0.67 33.206 0.081 6.55 46.89 13.03
1/22/2021 5:00:00 AM 0.67 33.206 0.081 6.55 47.59 13.03
1/22/2021 5:15:00 AM 0.65 33.17 0.081 6.55 47.27 13.01
1/22/2021 5:30:00 AM 0.65 33.17 0.081 6.54 47.81 13
1/22/2021 5:45:00 AM 0.64 33.152 0.081 6.55 48.1 13
1/22/2021 6:00:00 AM 0.63 33.134 0.081 6.55 47.98 13.01
1/22/2021 6:15:00 AM 0.62 33.116 0.081 6.55 48.09 13.01
1/22/2021 6:30:00 AM 0.61 33.098 0.081 6.55 48.28 13.02
1/22/2021 6:45:00 AM 0.61 33.098 0.081 6.56 48.73 13.01
1/22/2021 7:00:00 AM 0.6 33.08 0.081 6.56 48.43 13
1/22/2021 7:15:00 AM 0.6 33.08 0.082 6.55 48.42 12.99
1/22/2021 7:30:00 AM 0.59 33.062 0.082 6.55 47.42 12.99
1/22/2021 7:45:00 AM 0.59 33.062 0.082 6.55 47.65 13.01
1/22/2021 8:00:00 AM 0.59 33.062 0.082 6.56 47.14 13.02
1/22/2021 8:15:00 AM 0.59 33.062 0.082 6.56 47.7 13.03
1/22/2021 8:30:00 AM 0.59 33.062 0.082 6.56 48.72 13.03
1/22/2021 8:45:00 AM 0.59 33.062 0.082 6.56 47.29 13.03
1/22/2021 9:00:00 AM 0.59 33.062 0.082 6.56 47.09 13.05
1/22/2021 9:15:00 AM 0.61 33.098 0.082 6.56 46.52 13.06
1/22/2021 9:30:00 AM 0.63 33.134 0.081 6.56 48.22 13.08
1/22/2021 9:45:00 AM 0.65 33.17 0.082 6.56 47.58 13.09
1/22/2021 10:00:00 AM 0.67 33.206 0.082 6.56 47.24 13.09
1/22/2021 10:15:00 AM 0.69 33.242 0.082 6.57 47.03 13.1
1/22/2021 10:30:00 AM 0.71 33.278 0.082 6.57 46.67 13.13
1/22/2021 10:45:00 AM 0.73 33.314 0.081 6.57 47.03 13.14
1/22/2021 11:00:00 AM 0.75 33.35 0.081 6.57 46.71 13.16
1/22/2021 11:15:00 AM 0.76 33.368 0.082 6.58 46.69 13.18
1/22/2021 11:30:00 AM 0.78 33.404 0.081 6.59 46.47 13.22
1/22/2021 11:45:00 AM 0.81 33.458 0.081 6.6 46.82 13.27
1/22/2021 12:00:00 PM 0.85 33.53 0.081 6.6 46.62 13.29
1/22/2021 12:15:00 PM 0.88 33.584 0.081 6.6 46.74 13.33
1/22/2021 12:30:00 PM 0.93 33.674 0.081 6.61 46.83 13.36
1/22/2021 12:45:00 PM 0.97 33.746 0.081 6.61 46.53 13.38
1/22/2021 1:00:00 PM 1 33.8 0.081 6.62 46.71 13.4
1/22/2021 1:15:00 PM 1.04 33.872 0.081 6.62 46.69 13.43
1/22/2021 1:30:00 PM 1.08 33.944 0.081 6.62 47.02 13.45
1/22/2021 1:45:00 PM 1.11 33.998 0.081 6.62 47.57 13.46
1/22/2021 2:00:00 PM 1.14 34.052 0.081 6.63 48.47 13.47
1/22/2021 2:15:00 PM 1.16 34.088 0.081 6.63 48.47 13.48
1/22/2021 2:30:00 PM 1.18 34.124 0.081 6.63 49.81 13.5
1/22/2021 2:45:00 PM 1.2 34.16 0.081 6.64 49.29 13.52
1/22/2021 3:00:00 PM 1.22 34.196 0.081 6.64 48.81 13.53
1/22/2021 3:15:00 PM 1.23 34.214 0.081 6.64 47.83 13.53
1/22/2021 3:30:00 PM 1.25 34.25 0.081 6.64 47.77 13.54
1/22/2021 3:45:00 PM 1.25 34.25 0.081 6.64 47.83 13.55
1/22/2021 4:00:00 PM 1.25 34.25 0.081 6.65 48.37 13.56
1/22/2021 4:15:00 PM 1.25 34.25 0.081 6.65 47.28 13.56
1/22/2021 4:30:00 PM 1.24 34.232 0.08 6.65 47.58 13.56
1/22/2021 4:45:00 PM 1.23 34.214 0.081 6.65 47.35 13.56
1/22/2021 5:00:00 PM 1.22 34.196 0.081 6.65 47.52 13.56
1/22/2021 5:15:00 PM 1.2 34.16 0.08 6.65 47.74 13.57
1/22/2021 5:30:00 PM 1.19 34.142 0.081 6.65 48.07 13.58
1/22/2021 5:45:00 PM 1.18 34.124 0.081 6.66 48 13.58
1/22/2021 6:00:00 PM 1.16 34.088 0.08 6.66 47.76 13.58
1/22/2021 6:15:00 PM 1.14 34.052 0.08 6.66 47.84 13.57
1/22/2021 6:30:00 PM 1.11 33.998 0.08 6.66 47.77 13.57
1/22/2021 6:45:00 PM 1.08 33.944 0.08 6.65 47.39 13.56
1/22/2021 7:00:00 PM 1.06 33.908 0.08 6.66 47.28 13.56
1/22/2021 7:15:00 PM 1.03 33.854 0.08 6.65 47.05 13.55
1/22/2021 7:30:00 PM 1 33.8 0.08 6.65 46.43 13.54
1/22/2021 7:45:00 PM 0.97 33.746 0.08 6.65 47.3 13.53
1/22/2021 8:00:00 PM 0.94 33.692 0.08 6.66 47.14 13.52
1/22/2021 8:15:00 PM 0.92 33.656 0.08 6.66 47.59 13.51
1/22/2021 8:30:00 PM 0.89 33.602 0.08 6.65 48.02 13.51
1/22/2021 8:45:00 PM 0.86 33.548 0.08 6.65 47.72 13.5
1/22/2021 9:00:00 PM 0.83 33.494 0.08 6.65 47.42 13.5
1/22/2021 9:15:00 PM 0.8 33.44 0.08 6.65 47.37 13.48
1/22/2021 9:30:00 PM 0.77 33.386 0.08 6.65 47.06 13.48
1/22/2021 9:45:00 PM 0.73 33.314 0.08 6.65 47.05 13.48
1/22/2021 10:00:00 PM 0.71 33.278 0.08 6.65 47.7 13.47
1/22/2021 10:15:00 PM 0.68 33.224 0.08 6.65 47.27 13.46
1/22/2021 10:30:00 PM 0.65 33.17 0.08 6.65 47.38 13.46
1/22/2021 10:45:00 PM 0.62 33.116 0.08 6.65 47.84 13.44
1/22/2021 11:00:00 PM 0.59 33.062 0.08 6.64 48.13 13.44
1/22/2021 11:15:00 PM 0.55 32.99 0.081 6.64 48.13 13.43
1/22/2021 11:30:00 PM 0.52 32.936 0.081 6.65 47.83 13.42
1/22/2021 11:45:00 PM 0.49 32.882 0.081 6.65 47.87 13.42
1/23/2021 12:00:00 AM 0.45 32.81 0.081 6.65 48.02 13.42
1/23/2021 12:15:00 AM 0.41 32.738 0.081 6.65 47.81 13.41
1/23/2021 12:30:00 AM 0.38 32.684 0.081 6.65 48.51 13.4
1/23/2021 12:45:00 AM 0.33 32.594 0.081 6.64 47.98 13.39
1/23/2021 1:00:00 AM 0.3 32.54 0.081 6.64 47.65 13.39
1/23/2021 1:15:00 AM 0.26 32.468 0.081 6.64 48.13 13.39
1/23/2021 1:30:00 AM 0.22 32.396 0.081 6.63 48.22 13.38
1/23/2021 1:45:00 AM 0.19 32.342 0.081 6.63 48.44 13.38
1/23/2021 2:00:00 AM 0.16 32.288 0.081 6.64 49.03 13.39
1/23/2021 2:15:00 AM 0.12 32.216 0.081 6.63 48.28 13.39
1/23/2021 2:30:00 AM 0.09 32.162 0.081 6.63 47.74 13.39
1/23/2021 2:45:00 AM 0.06 32.108 0.081 6.63 48.29 13.38
1/23/2021 3:00:00 AM 0.04 32.072 0.081 6.63 47.98 13.38
1/23/2021 3:15:00 AM 0.02 32.036 0.081 6.63 48.39 13.37
1/23/2021 3:30:00 AM 0.01 32.018 0.081 6.64 48.7 13.38
1/23/2021 3:45:00 AM 0.01 32.018 0.081 6.64 99.18 13.37
1/23/2021 4:00:00 AM 0.01 32.018 0.081 6.63 87.25 13.36
1/23/2021 4:15:00 AM 0.02 32.036 0.081 6.64 76.94 13.35
1/23/2021 4:30:00 AM 0.02 32.036 0.081 6.63 57.11 13.35
1/23/2021 4:45:00 AM 0.03 32.054 0.081 6.63 53.86 13.35
1/23/2021 5:00:00 AM 0.03 32.054 0.081 6.63 77.23 13.36
1/23/2021 5:15:00 AM 0.03 32.054 0.081 6.63 99.31 13.37
1/23/2021 5:30:00 AM 0.03 32.054 0.081 6.63 97.32 13.37
1/23/2021 5:45:00 AM 0.03 32.054 0.081 6.63 104.61 13.37
1/23/2021 6:00:00 AM 0.03 32.054 0.081 6.63 102.22 13.37
1/23/2021 6:15:00 AM 0.03 32.054 0.081 6.62 53.37 13.38
1/23/2021 6:30:00 AM 0.03 32.054 0.081 6.61 93.26 13.37
1/23/2021 6:45:00 AM 0.03 32.054 0.081 6.6 114.5 13.35
1/23/2021 7:00:00 AM 0.02 32.036 0.082 6.58 82.34 13.36
1/23/2021 7:15:00 AM 0.02 32.036 0.082 6.57 72.83 13.39
1/23/2021 7:30:00 AM 0.01 32.018 0.082 6.57 119.97 13.41
1/23/2021 7:45:00 AM 0 32 0.082 6.56 75.44 13.43
1/23/2021 8:00:00 AM 0 32 0.081 6.56 202.54 13.44
1/23/2021 8:15:00 AM 0 32 0.081 6.56 171.47 13.44
1/23/2021 8:30:00 AM 0 32 0.081 6.56 205.96 13.44
1/23/2021 8:45:00 AM 0.01 32.018 0.081 6.56 103.74 13.44
1/23/2021 9:00:00 AM 0.02 32.036 0.081 6.56 146.94 13.44
1/23/2021 9:15:00 AM 0.03 32.054 0.081 6.57 86.93 13.45
1/23/2021 9:30:00 AM 0.04 32.072 0.081 6.56 224.41 13.45
1/23/2021 9:45:00 AM 0.05 32.09 0.081 6.57 209.62 13.47
1/23/2021 10:00:00 AM 0.07 32.126 0.081 6.57 210.21 13.47
1/23/2021 10:15:00 AM 0.09 32.162 0.081 6.57 127.4 13.47
1/23/2021 10:30:00 AM 0.1 32.18 0.081 6.58 152.5 13.48
1/23/2021 10:45:00 AM 0.12 32.216 0.081 6.58 227.77 13.5
1/23/2021 11:00:00 AM 0.14 32.252 0.081 6.58 144.44 13.51
1/23/2021 11:15:00 AM 0.16 32.288 0.081 6.59 205.64 13.53
1/23/2021 11:30:00 AM 0.19 32.342 0.081 6.58 162.89 13.55
1/23/2021 11:45:00 AM 0.22 32.396 0.081 6.59 178.47 13.57
1/23/2021 12:00:00 PM 0.24 32.432 0.081 6.59 206.56 13.58
1/23/2021 12:15:00 PM 0.26 32.468 0.081 6.59 197.19 13.61
1/23/2021 12:30:00 PM 0.28 32.504 0.081 6.6 166.96 13.62
1/23/2021 12:45:00 PM 0.3 32.54 0.081 6.6 171.97 13.65
1/23/2021 1:00:00 PM 0.33 32.594 0.081 6.6 202.9 13.67
1/23/2021 1:15:00 PM 0.36 32.648 0.08 6.61 211.74 13.68
1/23/2021 1:30:00 PM 0.38 32.684 0.081 6.61 210.62 13.69
1/23/2021 1:45:00 PM 0.41 32.738 0.08 6.61 134.3 13.7
1/23/2021 2:00:00 PM 0.45 32.81 0.08 6.61 117.9 13.71
1/23/2021 2:15:00 PM 0.48 32.864 0.08 6.61 144.31 13.73
1/23/2021 2:30:00 PM 0.51 32.918 0.08 6.61 181.58 13.73
1/23/2021 2:45:00 PM 0.53 32.954 0.08 6.61 235.12 13.71
1/23/2021 3:00:00 PM 0.56 33.008 0.08 6.61 195.52 13.71
1/23/2021 3:15:00 PM 0.57 33.026 0.08 6.61 144.38 13.71
1/23/2021 3:30:00 PM 0.59 33.062 0.08 6.61 210.82 13.73
1/23/2021 3:45:00 PM 0.6 33.08 0.08 6.61 177.14 13.76
1/23/2021 4:00:00 PM 0.6 33.08 0.08 6.62 130.18 13.79
1/23/2021 4:15:00 PM 0.6 33.08 0.08 6.63 137.38 13.8
1/23/2021 4:30:00 PM 0.6 33.08 0.08 6.63 241.35 13.81
1/23/2021 4:45:00 PM 0.6 33.08 0.08 6.63 204.35 13.82
1/23/2021 5:00:00 PM 0.6 33.08 0.08 6.63 114.69 13.83
1/23/2021 5:15:00 PM 0.59 33.062 0.08 6.63 222.54 13.83
1/23/2021 5:30:00 PM 0.59 33.062 0.08 6.63 79.51 13.83
1/23/2021 5:45:00 PM 0.58 33.044 0.08 6.63 213.96 13.84
1/23/2021 6:00:00 PM 0.57 33.026 0.08 6.64 97.77 13.85
1/23/2021 6:15:00 PM 0.56 33.008 0.08 6.64 105.68 13.86
1/23/2021 6:30:00 PM 0.55 32.99 0.08 6.64 104.27 13.86
1/23/2021 6:45:00 PM 0.54 32.972 0.08 6.64 119.8 13.87
1/23/2021 7:00:00 PM 0.52 32.936 0.08 6.65 150.5 13.87
1/23/2021 7:15:00 PM 0.5 32.9 0.08 6.64 156.94 13.87
1/23/2021 7:30:00 PM 0.48 32.864 0.08 6.64 165.95 13.87
1/23/2021 7:45:00 PM 0.46 32.828 0.08 6.64 227.11 13.85
1/23/2021 8:00:00 PM 0.43 32.774 0.08 6.64 133.76 13.84
1/23/2021 8:15:00 PM 0.41 32.738 0.08 6.64 96.86 13.84
1/23/2021 8:30:00 PM 0.39 32.702 0.08 6.64 95.98 13.82
1/23/2021 8:45:00 PM 0.37 32.666 0.08 6.64 112.94 13.81
1/23/2021 9:00:00 PM 0.35 32.63 0.08 6.64 137.26 13.8
1/23/2021 9:15:00 PM 0.33 32.594 0.08 6.64 126.56 13.78
1/23/2021 9:30:00 PM 0.32 32.576 0.08 6.64 118.82 13.77
1/23/2021 9:45:00 PM 0.31 32.558 0.08 6.64 144.97 13.76
1/23/2021 10:00:00 PM 0.31 32.558 0.08 6.64 306.48 13.75
1/23/2021 10:15:00 PM 0.3 32.54 0.08 6.64 296.09 13.74
1/23/2021 10:30:00 PM 0.29 32.522 0.08 6.63 146.39 13.73
1/23/2021 10:45:00 PM 0.28 32.504 0.08 6.63 167.76 13.73
1/23/2021 11:00:00 PM 0.27 32.486 0.08 6.63 126.06 13.72
1/23/2021 11:15:00 PM 0.25 32.45 0.08 6.63 103.28 13.7
1/23/2021 11:30:00 PM 0.24 32.432 0.08 6.63 138.09 13.7
1/23/2021 11:45:00 PM 0.23 32.414 0.08 6.63 156.58 13.68
1/24/2021 12:00:00 AM 0.22 32.396 0.081 6.63 69.75 13.67
1/24/2021 12:15:00 AM 0.21 32.378 0.081 6.63 75.01 13.66
1/24/2021 12:30:00 AM 0.2 32.36 0.081 6.63 112.64 13.65
1/24/2021 12:45:00 AM 0.18 32.324 0.081 6.62 131.83 13.64
1/24/2021 1:00:00 AM 0.17 32.306 0.081 6.62 143.6 13.64
1/24/2021 1:15:00 AM 0.16 32.288 0.081 6.62 70.97 13.63
1/24/2021 1:30:00 AM 0.15 32.27 0.081 6.62 95.17 13.62
1/24/2021 1:45:00 AM 0.14 32.252 0.081 6.62 92.2 13.61
1/24/2021 2:00:00 AM 0.13 32.234 0.081 6.62 103.9 13.6
1/24/2021 2:15:00 AM 0.12 32.216 0.081 6.61 132.62 13.6
1/24/2021 2:30:00 AM 0.11 32.198 0.081 6.61 330.77 13.58
1/24/2021 2:45:00 AM 0.11 32.198 0.081 6.61 89.95 13.57
1/24/2021 3:00:00 AM 0.1 32.18 0.081 6.61 124.78 13.56
1/24/2021 3:15:00 AM 0.1 32.18 0.081 6.61 75.26 13.54
1/24/2021 3:30:00 AM 0.09 32.162 0.081 6.6 99.44 13.52
1/24/2021 3:45:00 AM 0.09 32.162 0.081 6.6 104.07 13.5
1/24/2021 4:00:00 AM 0.09 32.162 0.082 6.6 56.78 13.48
1/24/2021 4:15:00 AM 0.09 32.162 0.081 6.59 154.66 13.47
1/24/2021 4:30:00 AM 0.09 32.162 0.082 6.59 73.74 13.46
1/24/2021 4:45:00 AM 0.09 32.162 0.082 6.59 107.94 13.44
1/24/2021 5:00:00 AM 0.09 32.162 0.082 6.59 143.71 13.43
1/24/2021 5:15:00 AM 0.09 32.162 0.082 6.59 133.05 13.42
1/24/2021 5:30:00 AM 0.09 32.162 0.082 6.58 101.08 13.41
1/24/2021 5:45:00 AM 0.09 32.162 0.082 6.58 86 13.41
1/24/2021 6:00:00 AM 0.09 32.162 0.082 6.58 53.29 13.41
1/24/2021 6:15:00 AM 0.08 32.144 0.082 6.58 55.84 13.41
1/24/2021 6:30:00 AM 0.08 32.144 0.082 6.58 54.45 13.41
1/24/2021 6:45:00 AM 0.07 32.126 0.082 6.58 63.8 13.41
1/24/2021 7:00:00 AM 0.07 32.126 0.082 6.58 88.85 13.41
1/24/2021 7:15:00 AM 0.07 32.126 0.082 6.58 60.81 13.41
1/24/2021 7:30:00 AM 0.06 32.108 0.082 6.58 59.66 13.4
1/24/2021 7:45:00 AM 0.06 32.108 0.082 6.57 59.15 13.4
1/24/2021 8:00:00 AM 0.06 32.108 0.082 6.58 283.12 13.39
1/24/2021 8:15:00 AM 0.06 32.108 0.082 6.58 59.77 13.39
1/24/2021 8:30:00 AM 0.06 32.108 0.083 6.58 96.58 13.39
1/24/2021 8:45:00 AM 0.06 32.108 0.083 6.58 54.61 13.39
1/24/2021 9:00:00 AM 0.06 32.108 0.083 6.58 60.78 13.39
1/24/2021 9:15:00 AM 0.07 32.126 0.083 6.58 57.04 13.4
1/24/2021 9:30:00 AM 0.07 32.126 0.083 6.58 64.14 13.41
1/24/2021 9:45:00 AM 0.09 32.162 0.083 6.58 66.18 13.42
1/24/2021 10:00:00 AM 0.11 32.198 0.083 6.58 121.89 13.43
1/24/2021 10:15:00 AM 0.13 32.234 0.083 6.58 75.62 13.44
1/24/2021 10:30:00 AM 0.15 32.27 0.083 6.57 55.09 13.45
1/24/2021 10:45:00 AM 0.18 32.324 0.083 6.57 109.93 13.46
1/24/2021 11:00:00 AM 0.2 32.36 0.083 6.58 152.77 13.47
1/24/2021 11:15:00 AM 0.23 32.414 0.083 6.57 128.83 13.47
1/24/2021 11:30:00 AM 0.26 32.468 0.083 6.58 83.79 13.49
1/24/2021 11:45:00 AM 0.29 32.522 0.084 6.58 137.16 13.53
1/24/2021 12:00:00 PM 0.32 32.576 0.084 6.58 223.8 13.57
1/24/2021 12:15:00 PM 0.36 32.648 0.084 6.58 86.1 13.61
1/24/2021 12:30:00 PM 0.39 32.702 0.084 6.59 88.21 13.64
1/24/2021 12:45:00 PM 0.43 32.774 0.084 6.59 129.03 13.68
1/24/2021 1:00:00 PM 0.46 32.828 0.084 6.59 205.2 13.71
1/24/2021 1:15:00 PM 0.49 32.882 0.084 6.59 70.9 13.72
1/24/2021 1:30:00 PM 0.53 32.954 0.084 6.6 76.7 13.78
1/24/2021 1:45:00 PM 0.55 32.99 0.084 6.6 79.19 13.81
1/24/2021 2:00:00 PM 0.58 33.044 0.084 6.61 61.28 13.82
1/24/2021 2:15:00 PM 0.61 33.098 0.084 6.6 57.03 13.85
1/24/2021 2:30:00 PM 0.63 33.134 0.084 6.61 74.24 13.86
1/24/2021 2:45:00 PM 0.65 33.17 0.084 6.61 59.92 13.87
1/24/2021 3:00:00 PM 0.68 33.224 0.084 6.61 70.51 13.88
1/24/2021 3:15:00 PM 0.7 33.26 0.084 6.62 106.46 13.89
1/24/2021 3:30:00 PM 0.71 33.278 0.084 6.62 205.31 13.89
1/24/2021 3:45:00 PM 0.73 33.314 0.084 6.62 258.7 13.9
1/24/2021 4:00:00 PM 0.75 33.35 0.083 6.62 252.96 13.91
1/24/2021 4:15:00 PM 0.77 33.386 0.083 6.62 77.49 13.91
1/24/2021 4:30:00 PM 0.79 33.422 0.083 6.62 56.25 13.9
1/24/2021 4:45:00 PM 0.81 33.458 0.083 6.63 94.27 13.91
1/24/2021 5:00:00 PM 0.83 33.494 0.083 6.63 98.71 13.91
1/24/2021 5:15:00 PM 0.84 33.512 0.083 6.63 123.91 13.9
1/24/2021 5:30:00 PM 0.84 33.512 0.083 6.62 56.19 13.89
1/24/2021 5:45:00 PM 0.84 33.512 0.083 6.63 59.67 13.89
1/24/2021 6:00:00 PM 0.84 33.512 0.083 6.63 62.1 13.89
1/24/2021 6:15:00 PM 0.83 33.494 0.083 6.63 51.55 13.88
1/24/2021 6:30:00 PM 0.82 33.476 0.083 6.63 113.42 13.89
1/24/2021 6:45:00 PM 0.81 33.458 0.083 6.63 51.57 13.88
1/24/2021 7:00:00 PM 0.79 33.422 0.083 6.63 59.7 13.88
1/24/2021 7:15:00 PM 0.77 33.386 0.083 6.63 52.52 13.87
1/24/2021 7:30:00 PM 0.75 33.35 0.083 6.63 53.77 13.87
1/24/2021 7:45:00 PM 0.73 33.314 0.083 6.62 54.12 13.86
1/24/2021 8:00:00 PM 0.71 33.278 0.083 6.63 54.68 13.85
1/24/2021 8:15:00 PM 0.68 33.224 0.083 6.63 57.83 13.83
1/24/2021 8:30:00 PM 0.66 33.188 0.083 6.63 57.7 13.82
1/24/2021 8:45:00 PM 0.64 33.152 0.083 6.62 61.56 13.8
1/24/2021 9:00:00 PM 0.61 33.098 0.083 6.62 75.77 13.79
1/24/2021 9:15:00 PM 0.59 33.062 0.083 6.62 56.4 13.77
1/24/2021 9:30:00 PM 0.57 33.026 0.083 6.62 176.78 13.74
1/24/2021 9:45:00 PM 0.55 32.99 0.083 6.62 56.18 13.73
1/24/2021 10:00:00 PM 0.53 32.954 0.083 6.62 60.1 13.71
1/24/2021 10:15:00 PM 0.52 32.936 0.083 6.62 63.3 13.7
1/24/2021 10:30:00 PM 0.51 32.918 0.083 6.62 61.77 13.68
1/24/2021 10:45:00 PM 0.5 32.9 0.083 6.62 57.62 13.67
1/24/2021 11:00:00 PM 0.49 32.882 0.083 6.62 73.47 13.66
1/24/2021 11:15:00 PM 0.49 32.882 0.083 6.61 58.17 13.65
1/24/2021 11:30:00 PM 0.48 32.864 0.083 6.61 60.14 13.64
1/24/2021 11:45:00 PM 0.47 32.846 0.083 6.62 58.96 13.62
1/25/2021 12:00:00 AM 0.47 32.846 0.083 6.61 57.98 13.62
1/25/2021 12:15:00 AM 0.46 32.828 0.083 6.61 58.35 13.6
1/25/2021 12:30:00 AM 0.46 32.828 0.083 6.62 62.04 13.6
1/25/2021 12:45:00 AM 0.46 32.828 0.083 6.61 89.93 13.58
1/25/2021 1:00:00 AM 0.45 32.81 0.083 6.61 188.09 13.57
1/25/2021 1:15:00 AM 0.44 32.792 0.083 6.61 54.38 13.55
1/25/2021 1:30:00 AM 0.43 32.774 0.083 6.61 116.86 13.54
1/25/2021 1:45:00 AM 0.43 32.774 0.083 6.6 54.11 13.53
1/25/2021 2:00:00 AM 0.42 32.756 0.083 6.6 66.46 13.51
1/25/2021 2:15:00 AM 0.41 32.738 0.083 6.6 55.01 13.5
1/25/2021 2:30:00 AM 0.4 32.72 0.083 6.6 55.71 13.49
1/25/2021 2:45:00 AM 0.39 32.702 0.083 6.6 54.81 13.47
1/25/2021 3:00:00 AM 0.38 32.684 0.083 6.6 82.75 13.45
1/25/2021 3:15:00 AM 0.37 32.666 0.083 6.6 181.43 13.45
1/25/2021 3:30:00 AM 0.36 32.648 0.083 6.59 52.89 13.43
1/25/2021 3:45:00 AM 0.36 32.648 0.082 6.59 55.44 13.42
1/25/2021 4:00:00 AM 0.35 32.63 0.083 6.59 52.97 13.41
1/25/2021 4:15:00 AM 0.34 32.612 0.083 6.59 58.58 13.39
1/25/2021 4:30:00 AM 0.33 32.594 0.082 6.58 53.82 13.38
1/25/2021 4:45:00 AM 0.33 32.594 0.083 6.58 52.66 13.37
1/25/2021 5:00:00 AM 0.32 32.576 0.083 6.58 52.79 13.36
1/25/2021 5:15:00 AM 0.31 32.558 0.083 6.58 52.53 13.35
1/25/2021 5:30:00 AM 0.3 32.54 0.083 6.58 52.5 13.34
1/25/2021 5:45:00 AM 0.3 32.54 0.083 6.58 53.12 13.33
1/25/2021 6:00:00 AM 0.29 32.522 0.083 6.58 55.47 13.33
1/25/2021 6:15:00 AM 0.28 32.504 0.083 6.58 98.54 13.33
1/25/2021 6:30:00 AM 0.28 32.504 0.083 6.57 56.24 13.32
1/25/2021 6:45:00 AM 0.27 32.486 0.083 6.57 54.59 13.32
1/25/2021 7:00:00 AM 0.27 32.486 0.083 6.57 55.52 13.31
1/25/2021 7:15:00 AM 0.26 32.468 0.083 6.57 55.29 13.31
1/25/2021 7:30:00 AM 0.26 32.468 0.083 6.57 57.02 13.3
1/25/2021 7:45:00 AM 0.26 32.468 0.083 6.57 54.38 13.3
1/25/2021 8:00:00 AM 0.26 32.468 0.083 6.57 78.31 13.31
1/25/2021 8:15:00 AM 0.25 32.45 0.083 6.57 54.89 13.31
1/25/2021 8:30:00 AM 0.25 32.45 0.083 6.57 54.06 13.31
1/25/2021 8:45:00 AM 0.25 32.45 0.083 6.56 53.62 13.31
1/25/2021 9:00:00 AM 0.25 32.45 0.083 6.56 56.61 13.31
1/25/2021 9:15:00 AM 0.25 32.45 0.083 6.56 54.12 13.31
1/25/2021 9:30:00 AM 0.26 32.468 0.083 6.56 55.31 13.33
1/25/2021 9:45:00 AM 0.26 32.468 0.084 6.56 54.64 13.35
1/25/2021 10:00:00 AM 0.28 32.504 0.084 6.56 54.01 13.36
1/25/2021 10:15:00 AM 0.29 32.522 0.084 6.56 99.52 13.37
1/25/2021 10:30:00 AM 0.32 32.576 0.084 6.56 54.87 13.37
1/25/2021 10:45:00 AM 0.34 32.612 0.084 6.56 53.81 13.39
1/25/2021 11:00:00 AM 0.36 32.648 0.084 6.57 53.75 13.4
1/25/2021 11:15:00 AM 0.38 32.684 0.084 6.57 53.53 13.4
1/25/2021 11:30:00 AM 0.41 32.738 0.084 6.57 54.96 13.42
1/25/2021 11:45:00 AM 0.43 32.774 0.084 6.57 54.51 13.44
1/25/2021 12:00:00 PM 0.46 32.828 0.084 6.58 55.83 13.47
1/25/2021 12:15:00 PM 0.49 32.882 0.084 6.58 54.79 13.5
1/25/2021 12:30:00 PM 0.52 32.936 0.084 6.58 55.5 13.52
1/25/2021 12:45:00 PM 0.55 32.99 0.085 6.58 55.92 13.55
1/25/2021 1:00:00 PM 0.59 33.062 0.084 6.58 55.22 13.57
1/25/2021 1:15:00 PM 0.62 33.116 0.085 6.59 55.96 13.59
1/25/2021 1:30:00 PM 0.66 33.188 0.085 6.59 53.72 13.61
1/25/2021 1:45:00 PM 0.7 33.26 0.085 6.59 57.17 13.63
1/25/2021 2:00:00 PM 0.73 33.314 0.085 6.59 53.79 13.65
1/25/2021 2:15:00 PM 0.77 33.386 0.085 6.59 55.16 13.67
1/25/2021 2:30:00 PM 0.8 33.44 0.085 6.59 54.07 13.67
1/25/2021 2:45:00 PM 0.83 33.494 0.085 6.6 54.72 13.68
1/25/2021 3:00:00 PM 0.87 33.566 0.085 6.6 55.47 13.69
1/25/2021 3:15:00 PM 0.9 33.62 0.085 6.6 55.96 13.7
1/25/2021 3:30:00 PM 0.92 33.656 0.085 6.6 55.3 13.7
1/25/2021 3:45:00 PM 0.95 33.71 0.084 6.6 55.96 13.71
1/25/2021 4:00:00 PM 0.97 33.746 0.085 6.6 54.95 13.72
1/25/2021 4:15:00 PM 1 33.8 0.085 6.6 56.05 13.73
1/25/2021 4:30:00 PM 1.02 33.836 0.084 6.6 54.62 13.73
1/25/2021 4:45:00 PM 1.03 33.854 0.084 6.6 56.41 13.74
1/25/2021 5:00:00 PM 1.04 33.872 0.085 6.6 54.49 13.73
1/25/2021 5:15:00 PM 1.05 33.89 0.085 6.6 54.23 13.73
1/25/2021 5:30:00 PM 1.06 33.908 0.084 6.6 55.6 13.73
1/25/2021 5:45:00 PM 1.06 33.908 0.085 6.6 54.05 13.73
1/25/2021 6:00:00 PM 1.05 33.89 0.085 6.59 53.64 13.72
1/25/2021 6:15:00 PM 1.04 33.872 0.084 6.59 55.34 13.72
1/25/2021 6:30:00 PM 1.03 33.854 0.084 6.59 54.7 13.71
1/25/2021 6:45:00 PM 1.02 33.836 0.084 6.59 55.05 13.7
1/25/2021 7:00:00 PM 1 33.8 0.084 6.59 55.05 13.7
1/25/2021 7:15:00 PM 0.98 33.764 0.084 6.59 54.58 13.69
1/25/2021 7:30:00 PM 0.96 33.728 0.084 6.59 54.14 13.68
1/25/2021 7:45:00 PM 0.94 33.692 0.084 6.59 55.04 13.67
1/25/2021 8:00:00 PM 0.91 33.638 0.084 6.6 54.74 13.65
1/25/2021 8:15:00 PM 0.89 33.602 0.084 6.59 53.14 13.63
1/25/2021 8:30:00 PM 0.87 33.566 0.084 6.59 49.48 13.61
1/25/2021 8:45:00 PM 0.84 33.512 0.084 6.59 49.48 13.59
1/25/2021 9:00:00 PM 0.82 33.476 0.084 6.58 49.79 13.57
1/25/2021 9:15:00 PM 0.8 33.44 0.084 6.59 49.23 13.54
1/25/2021 9:30:00 PM 0.78 33.404 0.084 6.59 50 13.51
1/25/2021 9:45:00 PM 0.75 33.35 0.084 6.59 49.24 13.5
1/25/2021 10:00:00 PM 0.74 33.332 0.084 6.59 49.64 13.47
1/25/2021 10:15:00 PM 0.72 33.296 0.084 6.59 48.8 13.45
1/25/2021 10:30:00 PM 0.7 33.26 0.084 6.59 49.18 13.44
1/25/2021 10:45:00 PM 0.69 33.242 0.084 6.59 49.25 13.41
1/25/2021 11:00:00 PM 0.68 33.224 0.084 6.59 50.29 13.4
1/25/2021 11:15:00 PM 0.66 33.188 0.084 6.59 49.87 13.4
1/25/2021 11:30:00 PM 0.65 33.17 0.084 6.59 50.46 13.38
1/25/2021 11:45:00 PM 0.64 33.152 0.084 6.58 49.71 13.37
1/26/2021 12:00:00 AM 0.63 33.134 0.083 6.58 49.55 13.36
1/26/2021 12:15:00 AM 0.63 33.134 0.084 6.58 49.73 13.36
1/26/2021 12:30:00 AM 0.62 33.116 0.084 6.58 50.18 13.34
1/26/2021 12:45:00 AM 0.61 33.098 0.083 6.58 49.82 13.33
1/26/2021 1:00:00 AM 0.6 33.08 0.084 6.58 49.04 13.32
1/26/2021 1:15:00 AM 0.59 33.062 0.083 6.58 49.72 13.31
1/26/2021 1:30:00 AM 0.59 33.062 0.083 6.58 50.35 13.29
1/26/2021 1:45:00 AM 0.58 33.044 0.084 6.58 49.81 13.28
1/26/2021 2:00:00 AM 0.57 33.026 0.083 6.58 49.7 13.26
1/26/2021 2:15:00 AM 0.56 33.008 0.083 6.58 50.19 13.24
1/26/2021 2:30:00 AM 0.56 33.008 0.083 6.58 49.4 13.24
1/26/2021 2:45:00 AM 0.55 32.99 0.083 6.58 49.06 13.23
1/26/2021 3:00:00 AM 0.54 32.972 0.083 6.57 48.78 13.19
1/26/2021 3:15:00 AM 0.53 32.954 0.083 6.57 48.94 13.2
1/26/2021 3:30:00 AM 0.52 32.936 0.083 6.57 50.47 13.18
1/26/2021 3:45:00 AM 0.51 32.918 0.083 6.57 49.17 13.18
1/26/2021 4:00:00 AM 0.5 32.9 0.083 6.57 49.19 13.13
1/26/2021 4:15:00 AM 0.49 32.882 0.083 6.57 48.74 13.11
1/26/2021 4:30:00 AM 0.49 32.882 0.083 6.57 48.95 13.11
1/26/2021 4:45:00 AM 0.48 32.864 0.083 6.57 48.96 12.98
1/26/2021 5:00:00 AM 0.47 32.846 0.083 6.57 49.16 12.95
1/26/2021 5:15:00 AM 0.46 32.828 0.084 6.57 49.07 12.86
1/26/2021 5:30:00 AM 0.45 32.81 0.083 6.57 49.14 13
1/26/2021 5:45:00 AM 0.45 32.81 0.084 6.57 49.32 12.9
1/26/2021 6:00:00 AM 0.44 32.792 0.084 6.56 49.2 13.02
1/26/2021 6:15:00 AM 0.43 32.774 0.084 6.56 48.81 13.03
1/26/2021 6:30:00 AM 0.42 32.756 0.084 6.56 49.1 13.03
1/26/2021 6:45:00 AM 0.42 32.756 0.084 6.56 48.62 13.04
1/26/2021 7:00:00 AM 0.41 32.738 0.084 6.56 49.58 13.04
1/26/2021 7:15:00 AM 0.4 32.72 0.084 6.56 48.51 13.03
1/26/2021 7:30:00 AM 0.4 32.72 0.084 6.56 47.99 13.02
1/26/2021 7:45:00 AM 0.39 32.702 0.084 6.56 48.24 13
1/26/2021 8:00:00 AM 0.39 32.702 0.084 6.56 48.66 12.98
1/26/2021 8:15:00 AM 0.38 32.684 0.084 6.56 49.31 12.97
1/26/2021 8:30:00 AM 0.38 32.684 0.084 6.56 49.01 12.99
1/26/2021 8:45:00 AM 0.37 32.666 0.084 6.56 49.46 13
1/26/2021 9:00:00 AM 0.37 32.666 0.084 6.56 49.54 12.98
1/26/2021 9:15:00 AM 0.37 32.666 0.084 6.56 49.53 12.96
1/26/2021 9:30:00 AM 0.37 32.666 0.084 6.56 49.29 12.98
1/26/2021 9:45:00 AM 0.37 32.666 0.084 6.56 49.11 12.94
1/26/2021 10:00:00 AM 0.37 32.666 0.084 6.56 49.04 12.85
1/26/2021 10:15:00 AM 0.37 32.666 0.084 6.56 50.12 12.78
1/26/2021 10:30:00 AM 0.37 32.666 0.084 6.56 48.65 12.73
1/26/2021 10:45:00 AM 0.37 32.666 0.084 6.55 48.61 12.66
1/26/2021 11:00:00 AM 0.36 32.648 0.084 6.55 48.03 12.72
1/26/2021 11:15:00 AM 0.36 32.648 0.084 6.55 47.69 12.88
1/26/2021 11:30:00 AM 0.36 32.648 0.084 6.56 47.59 12.72
1/26/2021 11:45:00 AM 0.35 32.63 0.084 6.55 47.56 12.99
1/26/2021 12:00:00 PM 0.34 32.612 0.085 6.56 48.09 13.02
1/26/2021 12:15:00 PM 0.34 32.612 0.084 6.56 48.19 13.05
1/26/2021 12:30:00 PM 0.34 32.612 0.084 6.56 48.67 13.07
1/26/2021 12:45:00 PM 0.34 32.612 0.084 6.56 48.59 13.08
1/26/2021 1:00:00 PM 0.34 32.612 0.084 6.56 48.78 13.09
1/26/2021 1:15:00 PM 0.34 32.612 0.084 6.57 48.44 13.1
1/26/2021 1:30:00 PM 0.34 32.612 0.084 6.57 47.84 13.13
1/26/2021 1:45:00 PM 0.34 32.612 0.084 6.57 47.55 13.13
1/26/2021 2:00:00 PM 0.34 32.612 0.084 6.57 46.94 13.15
1/26/2021 2:15:00 PM 0.34 32.612 0.084 6.57 47.04 13.15
1/26/2021 2:30:00 PM 0.34 32.612 0.084 6.57 46.83 13.14
1/26/2021 2:45:00 PM 0.34 32.612 0.084 6.57 45.98 13.15
1/26/2021 3:00:00 PM 0.34 32.612 0.084 6.57 45.97 13.16
1/26/2021 3:15:00 PM 0.34 32.612 0.084 6.56 46.2 13.12
1/26/2021 3:30:00 PM 0.33 32.594 0.084 6.55 46.21 13.16
1/26/2021 3:45:00 PM 0.33 32.594 0.084 6.56 45.7 13.18
1/26/2021 4:00:00 PM 0.33 32.594 0.084 6.56 46.33 13.23
1/26/2021 4:15:00 PM 0.33 32.594 0.084 6.56 46.13 13.25
1/26/2021 4:30:00 PM 0.33 32.594 0.084 6.54 45.78 13.12
1/26/2021 4:45:00 PM 0.33 32.594 0.084 6.49 46.2 12.91
1/26/2021 5:00:00 PM 0.33 32.594 0.084 6.49 45.97 12.98
1/26/2021 5:15:00 PM 0.32 32.576 0.084 6.54 46.57 13.25
1/26/2021 5:30:00 PM 0.32 32.576 0.084 6.48 46.28 13.14
1/26/2021 5:45:00 PM 0.32 32.576 0.084 6.54 46.33 13.27
1/26/2021 6:00:00 PM 0.31 32.558 0.084 6.56 46.31 13.3
1/26/2021 6:15:00 PM 0.31 32.558 0.084 6.52 45.87 13.26
1/26/2021 6:30:00 PM 0.31 32.558 0.083 6.5 45.86 13.17
1/26/2021 6:45:00 PM 0.31 32.558 0.083 6.48 45.66 13.05
1/26/2021 7:00:00 PM 0.3 32.54 0.083 6.48 45.43 13.14
1/26/2021 7:15:00 PM 0.3 32.54 0.083 6.47 45.22 13.03
1/26/2021 7:30:00 PM 0.3 32.54 0.083 6.46 44.97 13.04
1/26/2021 7:45:00 PM 0.29 32.522 0.083 6.46 45.16 13.02
1/26/2021 8:00:00 PM 0.29 32.522 0.083 6.45 44.88 12.94
1/26/2021 8:15:00 PM 0.28 32.504 0.083 6.46 44.53 12.99
1/26/2021 8:30:00 PM 0.28 32.504 0.083 6.46 44.15 13.01
1/26/2021 8:45:00 PM 0.28 32.504 0.083 6.46 44.14 12.92
1/26/2021 9:00:00 PM 0.27 32.486 0.083 6.46 44.54 12.84
1/26/2021 9:15:00 PM 0.27 32.486 0.083 6.48 44.27 13.03
1/26/2021 9:30:00 PM 0.26 32.468 0.083 6.45 43.73 12.99
1/26/2021 9:45:00 PM 0.26 32.468 0.083 6.44 44.02 12.87
1/26/2021 10:00:00 PM 0.26 32.468 0.083 6.43 43.52 12.85
1/26/2021 10:15:00 PM 0.25 32.45 0.083 6.44 43.4 12.87
1/26/2021 10:30:00 PM 0.25 32.45 0.083 6.44 42.81 12.84
1/26/2021 10:45:00 PM 0.25 32.45 0.083 6.45 43.15 12.85
1/26/2021 11:00:00 PM 0.24 32.432 0.083 6.45 43.21 12.9
1/26/2021 11:15:00 PM 0.24 32.432 0.083 6.46 43.15 12.89
1/26/2021 11:30:00 PM 0.24 32.432 0.083 6.46 43.32 12.89
1/26/2021 11:45:00 PM 0.24 32.432 0.083 6.46 42.76 12.89
1/27/2021 12:00:00 AM 0.24 32.432 0.083 6.46 43.58 12.87
1/27/2021 12:15:00 AM 0.24 32.432 0.083 6.46 43.79 12.76
1/27/2021 12:30:00 AM 0.24 32.432 0.083 6.46 44.17 12.76
1/27/2021 12:45:00 AM 0.23 32.414 0.083 6.44 44.33 12.78
1/27/2021 1:00:00 AM 0.23 32.414 0.083 6.45 44.8 12.84
1/27/2021 1:15:00 AM 0.23 32.414 0.083 6.44 45.11 12.82
1/27/2021 1:30:00 AM 0.23 32.414 0.083 6.44 44.37 12.74
1/27/2021 1:45:00 AM 0.23 32.414 0.083 6.43 44.2 12.74
1/27/2021 2:00:00 AM 0.23 32.414 0.083 6.43 44.08 12.79
1/27/2021 2:15:00 AM 0.23 32.414 0.083 6.43 43.82 12.8
1/27/2021 2:30:00 AM 0.23 32.414 0.083 6.42 43.01 12.76
1/27/2021 2:45:00 AM 0.23 32.414 0.083 6.43 43.94 12.73
1/27/2021 3:00:00 AM 0.23 32.414 0.083 6.42 43.89 12.78
1/27/2021 3:15:00 AM 0.24 32.432 0.083 6.42 43.73 12.75
1/27/2021 3:30:00 AM 0.24 32.432 0.083 6.43 43.67 12.74
1/27/2021 3:45:00 AM 0.24 32.432 0.083 6.41 43.7 12.51
1/27/2021 4:00:00 AM 0.25 32.45 0.083 6.42 43.59 12.58
1/27/2021 4:15:00 AM 0.25 32.45 0.083 6.42 43.85 12.62
1/27/2021 4:30:00 AM 0.25 32.45 0.083 6.43 43.85 12.54
1/27/2021 4:45:00 AM 0.25 32.45 0.083 6.43 44.45 12.53
1/27/2021 5:00:00 AM 0.25 32.45 0.083 6.43 44.11 12.55
1/27/2021 5:15:00 AM 0.26 32.468 0.083 6.43 44.57 12.55
1/27/2021 5:30:00 AM 0.26 32.468 0.083 6.43 44.6 12.55
1/27/2021 5:45:00 AM 0.26 32.468 0.083 6.42 44.66 12.48
1/27/2021 6:00:00 AM 0.26 32.468 0.083 6.43 44.56 12.61
1/27/2021 6:15:00 AM 0.26 32.468 0.083 6.42 44.84 12.71
1/27/2021 6:30:00 AM 0.27 32.486 0.083 6.41 45.05 12.47
1/27/2021 6:45:00 AM 0.27 32.486 0.083 6.42 44.8 12.64
1/27/2021 7:00:00 AM 0.27 32.486 0.083 6.41 44.79 12.5
1/27/2021 7:15:00 AM 0.27 32.486 0.083 6.41 44.47 12.42
1/27/2021 7:30:00 AM 0.27 32.486 0.083 6.41 44.62 12.38
1/27/2021 7:45:00 AM 0.27 32.486 0.083 6.42 44.81 12.4
1/27/2021 8:00:00 AM 0.27 32.486 0.083 6.42 44.8 12.47
1/27/2021 8:15:00 AM 0.28 32.504 0.083 6.42 44.45 12.47
1/27/2021 8:30:00 AM 0.28 32.504 0.083 6.43 44.27 12.55
1/27/2021 8:45:00 AM 0.28 32.504 0.083 6.42 44.36 12.5
1/27/2021 9:00:00 AM 0.28 32.504 0.083 6.43 44.54 12.63
1/27/2021 9:15:00 AM 0.28 32.504 0.083 6.42 44.72 12.61
1/27/2021 9:30:00 AM 0.28 32.504 0.083 6.42 45.18 12.45
1/27/2021 9:45:00 AM 0.28 32.504 0.083 6.43 44.64 12.34
1/27/2021 10:00:00 AM 0.28 32.504 0.083 6.42 44.94 12.46
1/27/2021 10:15:00 AM 0.29 32.522 0.083 6.43 44.4 12.59
1/27/2021 10:30:00 AM 0.29 32.522 0.083 6.42 45.16 12.4
1/27/2021 10:45:00 AM 0.29 32.522 0.083 6.42 44.48 12.57
1/27/2021 11:00:00 AM 0.29 32.522 0.083 6.41 44.31 12.41
1/27/2021 11:15:00 AM 0.29 32.522 0.083 6.42 44.49 12.48
1/27/2021 11:30:00 AM 0.29 32.522 0.083 6.42 44.49 12.5
1/27/2021 11:45:00 AM 0.29 32.522 0.083 6.42 44.5 12.36
1/27/2021 12:00:00 PM 0.3 32.54 0.083 6.42 44.31 12.46
1/27/2021 12:15:00 PM 0.3 32.54 0.083 6.43 44.46 12.6
1/27/2021 12:30:00 PM 0.3 32.54 0.083 6.42 44.52 12.45
1/27/2021 12:45:00 PM 0.31 32.558 0.083 6.42 44.53 12.51
1/27/2021 1:00:00 PM 0.31 32.558 0.083 6.42 45.07 12.71
1/27/2021 1:15:00 PM 0.31 32.558 0.083 6.43 44.99 12.68
1/27/2021 1:30:00 PM 0.32 32.576 0.083 6.43 45.19 12.65
1/27/2021 1:45:00 PM 0.32 32.576 0.083 6.41 45.39 12.45
1/27/2021 2:00:00 PM 0.33 32.594 0.083 6.41 44.69 12.57
1/27/2021 2:15:00 PM 0.33 32.594 0.083 6.41 44.72 12.64
1/27/2021 2:30:00 PM 0.33 32.594 0.083 6.42 45.04 12.75
1/27/2021 2:45:00 PM 0.34 32.612 0.083 6.41 44.85 12.76
1/27/2021 3:00:00 PM 0.34 32.612 0.083 6.41 44.76 12.67
1/27/2021 3:15:00 PM 0.35 32.63 0.083 6.4 45.03 12.83
1/27/2021 3:30:00 PM 0.35 32.63 0.083 6.42 44.81 12.7
1/27/2021 3:45:00 PM 0.36 32.648 0.083 6.42 44.43 12.69
1/27/2021 4:00:00 PM 0.36 32.648 0.083 6.42 44.49 12.9
1/27/2021 4:15:00 PM 0.37 32.666 0.083 6.4 44.32 12.69
1/27/2021 4:30:00 PM 0.37 32.666 0.083 6.42 44.71 12.78
1/27/2021 4:45:00 PM 0.37 32.666 0.083 6.43 44.64 12.72
1/27/2021 5:00:00 PM 0.37 32.666 0.083 6.42 44.61 12.88
1/27/2021 5:15:00 PM 0.38 32.684 0.083 6.42 44.87 12.71
1/27/2021 5:30:00 PM 0.38 32.684 0.083 6.44 44.79 12.95
1/27/2021 5:45:00 PM 0.38 32.684 0.083 6.44 44.86 12.79
1/27/2021 6:00:00 PM 0.38 32.684 0.083 6.46 44.77 13.07
1/27/2021 6:15:00 PM 0.38 32.684 0.083 6.44 44.84 12.8
1/27/2021 6:30:00 PM 0.38 32.684 0.083 6.44 44.81 12.8
1/27/2021 6:45:00 PM 0.38 32.684 0.083 6.43 45.1 12.92
1/27/2021 7:00:00 PM 0.38 32.684 0.083 6.44 44.92 12.72
1/27/2021 7:15:00 PM 0.38 32.684 0.083 6.44 44.67 12.95
1/27/2021 7:30:00 PM 0.38 32.684 0.083 6.44 44.71 12.97
1/27/2021 7:45:00 PM 0.38 32.684 0.083 6.43 44.61 12.83
1/27/2021 8:00:00 PM 0.38 32.684 0.083 6.44 44.79 12.79
1/27/2021 8:15:00 PM 0.38 32.684 0.082 6.43 44.69 12.7
1/27/2021 8:30:00 PM 0.38 32.684 0.083 6.44 45.01 12.95
1/27/2021 8:45:00 PM 0.37 32.666 0.083 6.43 44.92 12.87
1/27/2021 9:00:00 PM 0.37 32.666 0.083 6.43 45.14 12.82
1/27/2021 9:15:00 PM 0.37 32.666 0.083 6.43 45.25 12.89
1/27/2021 9:30:00 PM 0.37 32.666 0.083 6.43 45.04 12.91
1/27/2021 9:45:00 PM 0.36 32.648 0.083 6.44 45 13.08
1/27/2021 10:00:00 PM 0.36 32.648 0.083 6.44 44.67 12.96
1/27/2021 10:15:00 PM 0.36 32.648 0.083 6.44 45.13 13.02
1/27/2021 10:30:00 PM 0.35 32.63 0.083 6.44 45.11 12.97
1/27/2021 10:45:00 PM 0.35 32.63 0.083 6.45 45.27 12.96
1/27/2021 11:00:00 PM 0.35 32.63 0.083 6.43 45.15 12.79
1/27/2021 11:15:00 PM 0.34 32.612 0.083 6.43 44.95 12.97
1/27/2021 11:30:00 PM 0.34 32.612 0.083 6.44 44.58 12.95
1/27/2021 11:45:00 PM 0.34 32.612 0.083 6.46 44.37 13.09
1/28/2021 12:00:00 AM 0.34 32.612 0.083 6.43 44.3 13.05
1/28/2021 12:15:00 AM 0.33 32.594 0.083 6.43 44.65 13.01
1/28/2021 12:30:00 AM 0.33 32.594 0.083 6.43 44.35 13.02
1/28/2021 12:45:00 AM 0.33 32.594 0.083 6.45 44.1 12.97
1/28/2021 1:00:00 AM 0.33 32.594 0.083 6.47 44.63 13.07
1/28/2021 1:15:00 AM 0.32 32.576 0.082 6.47 44.55 13.08
1/28/2021 1:30:00 AM 0.32 32.576 0.083 6.48 44.47 13.07
1/28/2021 1:45:00 AM 0.32 32.576 0.083 6.44 44.25 12.99
1/28/2021 2:00:00 AM 0.31 32.558 0.083 6.44 44.22 12.86
1/28/2021 2:15:00 AM 0.31 32.558 0.083 6.44 44.02 12.93
1/28/2021 2:30:00 AM 0.3 32.54 0.083 6.45 44.4 12.91
1/28/2021 2:45:00 AM 0.3 32.54 0.083 6.43 44.11 12.83
1/28/2021 3:00:00 AM 0.29 32.522 0.083 6.42 44.14 12.7
1/28/2021 3:15:00 AM 0.29 32.522 0.083 6.43 43.98 12.87
1/28/2021 3:30:00 AM 0.28 32.504 0.083 6.42 43.69 12.71
1/28/2021 3:45:00 AM 0.28 32.504 0.083 6.43 43.55 12.87
1/28/2021 4:00:00 AM 0.27 32.486 0.083 6.43 43.83 12.85
1/28/2021 4:15:00 AM 0.27 32.486 0.083 6.42 43.79 12.58
1/28/2021 4:30:00 AM 0.27 32.486 0.083 6.42 44.42 12.71
1/28/2021 4:45:00 AM 0.26 32.468 0.083 6.42 44.26 12.78
1/28/2021 5:00:00 AM 0.26 32.468 0.083 6.41 44.16 12.64
1/28/2021 5:15:00 AM 0.26 32.468 0.083 6.41 44 12.67
1/28/2021 5:30:00 AM 0.25 32.45 0.083 6.41 43.73 12.65
1/28/2021 5:45:00 AM 0.25 32.45 0.083 6.41 44.41 12.7
1/28/2021 6:00:00 AM 0.25 32.45 0.083 6.42 43.65 12.86
1/28/2021 6:15:00 AM 0.25 32.45 0.083 6.41 43.43 12.35
1/28/2021 6:30:00 AM 0.24 32.432 0.083 6.42 43.7 12.66
1/28/2021 6:45:00 AM 0.24 32.432 0.083 6.41 43.28 12.46
1/28/2021 7:00:00 AM 0.24 32.432 0.083 6.41 43.17 12.49
1/28/2021 7:15:00 AM 0.24 32.432 0.083 6.41 43.15 12.52
1/28/2021 7:30:00 AM 0.24 32.432 0.083 6.41 43.16 12.39
1/28/2021 7:45:00 AM 0.24 32.432 0.084 6.42 42.87 12.49
1/28/2021 8:00:00 AM 0.24 32.432 0.084 6.41 43.19 12.22
1/28/2021 8:15:00 AM 0.23 32.414 0.084 6.4 43.04 12.38
1/28/2021 8:30:00 AM 0.23 32.414 0.084 6.39 42.7 12.16
1/28/2021 8:45:00 AM 0.23 32.414 0.084 6.41 42.2 12.41
1/28/2021 9:00:00 AM 0.23 32.414 0.084 6.4 42.48 12.41
1/28/2021 9:15:00 AM 0.23 32.414 0.084 6.41 42.15 12.3
1/28/2021 9:30:00 AM 0.23 32.414 0.083 6.42 42.06 12.25
1/28/2021 9:45:00 AM 0.23 32.414 0.083 6.4 41.95 11.99
1/28/2021 10:00:00 AM -99999.99 -179968 -99999.99 -99999.99 -99999.99 -99999.99
1/28/2021 10:15:00 AM 0.18 32.324 0.093 7.33 3.62 12.73
1/28/2021 10:30:00 AM 0.23 32.414 0.079 7.13 3.77 12.72
1/28/2021 10:45:00 AM 0.24 32.432 0.079 7.06 3.46 12.71
1/28/2021 11:00:00 AM 0.25 32.45 0.079 7.03 3.51 12.69
1/28/2021 11:15:00 AM 0.26 32.468 0.081 7.01 3.41 12.72
1/28/2021 11:30:00 AM 0.27 32.486 0.08 7 3.42 12.74
1/28/2021 11:45:00 AM 0.29 32.522 0.08 6.99 3.49 12.78
1/28/2021 12:00:00 PM 0.3 32.54 0.08 6.99 3.29 12.81
1/28/2021 12:15:00 PM 0.31 32.558 0.079 6.98 3.52 12.85
1/28/2021 12:30:00 PM 0.33 32.594 0.079 6.98 3.61 12.88
1/28/2021 12:45:00 PM 0.35 32.63 0.079 6.98 3.64 12.91
1/28/2021 1:00:00 PM 0.38 32.684 0.079 6.98 3.58 12.94
1/28/2021 1:15:00 PM 0.39 32.702 0.079 6.98 3.49 12.97
1/28/2021 1:30:00 PM 0.42 32.756 0.079 6.97 3.48 12.98
1/28/2021 1:45:00 PM 0.44 32.792 0.08 6.97 3.56 12.99
1/28/2021 2:00:00 PM 0.47 32.846 0.08 6.97 3.58 13
1/28/2021 2:15:00 PM 0.5 32.9 0.08 6.97 3.67 13.02
1/28/2021 2:30:00 PM 0.53 32.954 0.079 6.97 3.55 13.04
1/28/2021 2:45:00 PM 0.56 33.008 0.079 6.97 3.68 13.05
1/28/2021 3:00:00 PM 0.59 33.062 0.08 6.98 3.55 13.07
1/28/2021 3:15:00 PM 0.62 33.116 0.08 6.98 3.66 13.09
1/28/2021 3:30:00 PM 0.65 33.17 0.079 6.98 3.63 13.09
1/28/2021 3:45:00 PM 0.67 33.206 0.079 6.98 3.91 13.12
1/28/2021 4:00:00 PM 0.68 33.224 0.079 6.98 3.85 13.12
1/28/2021 4:15:00 PM 0.7 33.26 0.079 6.98 3.74 13.15
1/28/2021 4:30:00 PM 0.71 33.278 0.079 6.98 3.92 13.17
1/28/2021 4:45:00 PM 0.72 33.296 0.079 6.98 3.89 13.18
1/28/2021 5:00:00 PM 0.72 33.296 0.08 6.98 3.79 13.18
1/28/2021 5:15:00 PM 0.72 33.296 0.08 6.98 3.74 13.2
1/28/2021 5:30:00 PM 0.71 33.278 0.079 6.99 3.85 13.21
1/28/2021 5:45:00 PM 0.7 33.26 0.079 6.99 4.05 13.22
1/28/2021 6:00:00 PM 0.69 33.242 0.079 6.99 3.95 13.23
1/28/2021 6:15:00 PM 0.68 33.224 0.079 6.99 3.92 13.25
1/28/2021 6:30:00 PM 0.67 33.206 0.08 6.99 3.91 13.24
1/28/2021 6:45:00 PM 0.66 33.188 0.08 6.99 3.76 13.27
1/28/2021 7:00:00 PM 0.64 33.152 0.079 6.99 3.66 13.27
1/28/2021 7:15:00 PM 0.62 33.116 0.08 6.98 3.96 13.27
1/28/2021 7:30:00 PM 0.6 33.08 0.079 6.99 4.1 13.26
1/28/2021 7:45:00 PM 0.56 33.008 0.079 6.98 4.08 13.27
1/28/2021 8:00:00 PM 0.53 32.954 0.079 6.98 4.02 13.28
1/28/2021 8:15:00 PM 0.5 32.9 0.079 6.98 4.03 13.26
1/28/2021 8:30:00 PM 0.47 32.846 0.08 6.98 4.17 13.26
1/28/2021 8:45:00 PM 0.44 32.792 0.081 6.98 4.22 13.25
1/28/2021 9:00:00 PM 0.41 32.738 0.079 6.98 4.47 13.25
1/28/2021 9:15:00 PM 0.39 32.702 0.079 6.97 4.64 13.24
1/28/2021 9:30:00 PM 0.37 32.666 0.079 6.97 4.45 13.23
1/28/2021 9:45:00 PM 0.35 32.63 0.08 6.97 4.68 13.24
1/28/2021 10:00:00 PM 0.34 32.612 0.08 6.97 4.65 13.23
1/28/2021 10:15:00 PM 0.33 32.594 0.08 6.97 4.71 13.21
1/28/2021 10:30:00 PM 0.33 32.594 0.08 6.97 4.7 13.23
1/28/2021 10:45:00 PM 0.32 32.576 0.08 6.97 4.11 13.22
1/28/2021 11:00:00 PM 0.31 32.558 0.081 6.98 4.19 13.22
1/28/2021 11:15:00 PM 0.31 32.558 0.081 6.98 4.25 13.21
1/28/2021 11:30:00 PM 0.31 32.558 0.082 6.97 4.29 13.21
1/28/2021 11:45:00 PM 0.3 32.54 0.081 6.97 4.14 13.2
1/29/2021 12:00:00 AM 0.29 32.522 0.079 6.97 4.37 13.2
1/29/2021 12:15:00 AM 0.29 32.522 0.08 6.97 4.67 13.2
1/29/2021 12:30:00 AM 0.28 32.504 0.08 6.97 4.52 13.18
1/29/2021 12:45:00 AM 0.28 32.504 0.08 6.96 4.35 13.17
1/29/2021 1:00:00 AM 0.27 32.486 0.081 6.97 4.35 13.18
1/29/2021 1:15:00 AM 0.26 32.468 0.081 6.96 4.35 13.17
1/29/2021 1:30:00 AM 0.25 32.45 0.08 6.96 4.13 13.15
1/29/2021 1:45:00 AM 0.24 32.432 0.08 6.96 4.25 13.15
1/29/2021 2:00:00 AM 0.24 32.432 0.079 6.96 4.17 13.15
1/29/2021 2:15:00 AM 0.23 32.414 0.08 6.96 3.8 13.13
1/29/2021 2:30:00 AM 0.21 32.378 0.08 6.96 4.07 13.13
1/29/2021 2:45:00 AM 0.21 32.378 0.082 6.96 4.17 13.12
1/29/2021 3:00:00 AM 0.2 32.36 0.079 6.95 3.95 13.12
1/29/2021 3:15:00 AM 0.19 32.342 0.082 6.95 4.13 13.1
1/29/2021 3:30:00 AM 0.18 32.324 0.082 6.96 3.89 13.09
1/29/2021 3:45:00 AM 0.17 32.306 0.081 6.95 3.91 13.08
1/29/2021 4:00:00 AM 0.16 32.288 0.083 6.94 3.78 13.08
1/29/2021 4:15:00 AM 0.16 32.288 0.083 6.94 3.91 13.06
1/29/2021 4:30:00 AM 0.15 32.27 0.083 6.94 3.95 13.05
1/29/2021 4:45:00 AM 0.15 32.27 0.082 6.94 3.8 13.04
1/29/2021 5:00:00 AM 0.14 32.252 0.08 6.94 3.95 13.03
1/29/2021 5:15:00 AM 0.14 32.252 0.083 6.94 4.15 13.01
1/29/2021 5:30:00 AM 0.14 32.252 0.082 6.93 4.21 13
1/29/2021 5:45:00 AM 0.13 32.234 0.08 6.93 4.33 13
1/29/2021 6:00:00 AM 0.13 32.234 0.081 6.93 4.23 12.99
1/29/2021 6:15:00 AM 0.12 32.216 0.082 6.93 4.02 12.98
1/29/2021 6:30:00 AM 0.13 32.234 0.081 6.92 4.05 12.95
1/29/2021 6:45:00 AM 0.12 32.216 0.082 6.92 3.87 12.95
1/29/2021 7:00:00 AM 0.12 32.216 0.082 6.92 3.89 12.93
1/29/2021 7:15:00 AM 0.12 32.216 0.083 6.91 3.91 12.92
1/29/2021 7:30:00 AM 0.12 32.216 0.083 6.91 3.96 12.9
1/29/2021 7:45:00 AM 0.12 32.216 0.083 6.91 4.61 12.89
1/29/2021 8:00:00 AM 0.12 32.216 0.083 6.9 4 12.89
1/29/2021 8:15:00 AM 0.12 32.216 0.082 6.9 3.69 12.88
1/29/2021 8:30:00 AM 0.12 32.216 0.084 6.9 3.86 12.88
1/29/2021 8:45:00 AM 0.12 32.216 0.082 6.9 3.79 12.86
1/29/2021 9:00:00 AM 0.13 32.234 0.082 6.9 3.95 12.87
1/29/2021 9:15:00 AM 0.13 32.234 0.084 6.9 3.73 12.86
1/29/2021 9:30:00 AM 0.13 32.234 0.083 6.9 4.04 12.86
1/29/2021 9:45:00 AM 0.14 32.252 0.083 6.9 3.78 12.85
1/29/2021 10:00:00 AM 0.15 32.27 0.083 6.9 3.6 12.87
1/29/2021 10:15:00 AM 0.15 32.27 0.082 6.9 3.49 12.88
1/29/2021 10:30:00 AM 0.16 32.288 0.083 6.9 3.51 12.88
1/29/2021 10:45:00 AM 0.17 32.306 0.083 6.9 3.44 12.89
1/29/2021 11:00:00 AM 0.18 32.324 0.083 6.89 3.58 12.89
1/29/2021 11:15:00 AM 0.19 32.342 0.083 6.9 3.52 12.91
1/29/2021 11:30:00 AM 0.21 32.378 0.082 6.9 3.59 12.93
1/29/2021 11:45:00 AM 0.22 32.396 0.083 6.9 3.61 12.95
1/29/2021 12:00:00 PM 0.23 32.414 0.081 6.91 3.54 12.99
1/29/2021 12:15:00 PM 0.24 32.432 0.082 6.91 3.32 13.02
1/29/2021 12:30:00 PM 0.26 32.468 0.081 6.92 3.44 13.07
1/29/2021 12:45:00 PM 0.28 32.504 0.082 6.91 3.59 13.09
1/29/2021 1:00:00 PM 0.3 32.54 0.082 6.92 3.46 13.13
1/29/2021 1:15:00 PM 0.31 32.558 0.081 6.92 3.39 13.16
1/29/2021 1:30:00 PM 0.33 32.594 0.081 6.93 3.4 13.18
1/29/2021 1:45:00 PM 0.35 32.63 0.08 6.93 3.47 13.19
1/29/2021 2:00:00 PM 0.37 32.666 0.08 6.93 3.45 13.22
1/29/2021 2:15:00 PM 0.38 32.684 0.081 6.93 3.41 13.24
1/29/2021 2:30:00 PM 0.4 32.72 0.08 6.93 3.44 13.26
1/29/2021 2:45:00 PM 0.41 32.738 0.082 6.94 3.45 13.28
1/29/2021 3:00:00 PM 0.43 32.774 0.081 6.94 3.47 13.29
1/29/2021 3:15:00 PM 0.44 32.792 0.081 6.95 3.38 13.3
1/29/2021 3:30:00 PM 0.45 32.81 0.081 6.94 3.62 13.33
1/29/2021 3:45:00 PM 0.47 32.846 0.081 6.94 3.55 13.35
1/29/2021 4:00:00 PM 0.48 32.864 0.081 6.95 3.7 13.37
1/29/2021 4:15:00 PM 0.49 32.882 0.081 6.95 3.62 13.38
1/29/2021 4:30:00 PM 0.5 32.9 0.081 6.95 3.72 13.38
1/29/2021 4:45:00 PM 0.51 32.918 0.081 6.95 3.52 13.4
1/29/2021 5:00:00 PM 0.51 32.918 0.081 6.96 3.68 13.42
1/29/2021 5:15:00 PM 0.51 32.918 0.08 6.96 3.69 13.43
1/29/2021 5:30:00 PM 0.51 32.918 0.081 6.97 3.47 13.44
1/29/2021 5:45:00 PM 0.51 32.918 0.081 6.96 3.86 13.45
1/29/2021 6:00:00 PM 0.5 32.9 0.082 6.97 3.52 13.46
1/29/2021 6:15:00 PM 0.5 32.9 0.081 6.97 4.35 13.46
1/29/2021 6:30:00 PM 0.5 32.9 0.081 6.97 3.51 13.48
1/29/2021 6:45:00 PM 0.49 32.882 0.08 6.98 3.54 13.49
1/29/2021 7:00:00 PM 0.5 32.9 0.081 6.97 3.98 13.5
1/29/2021 7:15:00 PM 0.49 32.882 0.082 6.97 3.7 13.5
1/29/2021 7:30:00 PM 0.49 32.882 0.082 6.98 3.68 13.51
1/29/2021 7:45:00 PM 0.48 32.864 0.08 6.97 3.89 13.5
1/29/2021 8:00:00 PM 0.46 32.828 0.08 6.97 3.72 13.49
1/29/2021 8:15:00 PM 0.45 32.81 0.08 6.97 3.73 13.48
1/29/2021 8:30:00 PM 0.43 32.774 0.081 6.97 3.62 13.47
1/29/2021 8:45:00 PM 0.41 32.738 0.08 6.97 3.69 13.45
1/29/2021 9:00:00 PM 0.39 32.702 0.08 6.96 3.72 13.43
1/29/2021 9:15:00 PM 0.37 32.666 0.08 6.96 3.83 13.42
1/29/2021 9:30:00 PM 0.35 32.63 0.081 6.96 4.06 13.39
1/29/2021 9:45:00 PM 0.34 32.612 0.082 6.96 3.86 13.37
1/29/2021 10:00:00 PM 0.32 32.576 0.081 6.95 3.7 13.37
1/29/2021 10:15:00 PM 0.31 32.558 0.081 6.95 3.78 13.34
1/29/2021 10:30:00 PM 0.31 32.558 0.081 6.95 3.63 13.33
1/29/2021 10:45:00 PM 0.3 32.54 0.081 6.95 3.82 13.32
1/29/2021 11:00:00 PM 0.29 32.522 0.082 6.95 4.2 13.31
1/29/2021 11:15:00 PM 0.29 32.522 0.083 6.94 4.56 13.3
1/29/2021 11:30:00 PM 0.28 32.504 0.082 6.95 4.2 13.29
1/29/2021 11:45:00 PM 0.28 32.504 0.08 6.95 3.95 13.28
1/30/2021 12:00:00 AM 0.27 32.486 0.081 6.94 3.69 13.28
1/30/2021 12:15:00 AM 0.27 32.486 0.081 6.95 3.73 13.27
1/30/2021 12:30:00 AM 0.27 32.486 0.081 6.94 3.69 13.26
1/30/2021 12:45:00 AM 0.26 32.468 0.081 6.94 3.63 13.25
1/30/2021 1:00:00 AM 0.26 32.468 0.08 6.94 3.8 13.23
1/30/2021 1:15:00 AM 0.26 32.468 0.081 6.94 3.71 13.22
1/30/2021 1:30:00 AM 0.25 32.45 0.08 6.93 3.7 13.22
1/30/2021 1:45:00 AM 0.25 32.45 0.08 6.94 3.57 13.21
1/30/2021 2:00:00 AM 0.25 32.45 0.081 6.93 3.88 13.19
1/30/2021 2:15:00 AM 0.24 32.432 0.082 6.93 3.79 13.18
1/30/2021 2:30:00 AM 0.24 32.432 0.081 6.93 4.09 13.17
1/30/2021 2:45:00 AM 0.23 32.414 0.081 6.92 5.37 13.15
1/30/2021 3:00:00 AM 0.23 32.414 0.082 6.93 4.01 13.13
1/30/2021 3:15:00 AM 0.23 32.414 0.082 6.92 4.03 13.12
1/30/2021 3:30:00 AM 0.22 32.396 0.081 6.92 4.22 13.11
1/30/2021 3:45:00 AM 0.21 32.378 0.083 6.92 4.2 13.1
1/30/2021 4:00:00 AM 0.22 32.396 0.081 6.92 4.22 13.08
1/30/2021 4:15:00 AM 0.22 32.396 0.081 6.92 4.15 13.06
1/30/2021 4:30:00 AM 0.21 32.378 0.082 6.91 4.08 13.04
1/30/2021 4:45:00 AM 0.2 32.36 0.082 6.91 4.03 13.03
1/30/2021 5:00:00 AM 0.2 32.36 0.082 6.91 3.92 13
1/30/2021 5:15:00 AM 0.2 32.36 0.082 6.91 3.96 13
1/30/2021 5:30:00 AM 0.19 32.342 0.083 6.91 3.81 12.98
1/30/2021 5:45:00 AM 0.19 32.342 0.082 6.91 3.87 12.97
1/30/2021 6:00:00 AM 0.19 32.342 0.083 6.91 3.7 12.95
1/30/2021 6:15:00 AM 0.19 32.342 0.082 6.9 3.77 12.94
1/30/2021 6:30:00 AM 0.18 32.324 0.084 6.9 3.92 12.92
1/30/2021 6:45:00 AM 0.18 32.324 0.084 6.91 4.08 12.9
1/30/2021 7:00:00 AM 0.18 32.324 0.082 6.9 4.12 12.9
1/30/2021 7:15:00 AM 0.18 32.324 0.083 6.9 4.1 12.88
1/30/2021 7:30:00 AM 0.18 32.324 0.083 6.89 3.9 12.87
1/30/2021 7:45:00 AM 0.18 32.324 0.083 6.89 3.92 12.85
1/30/2021 8:00:00 AM 0.18 32.324 0.083 6.89 3.85 12.85
1/30/2021 8:15:00 AM 0.18 32.324 0.082 6.89 3.72 12.84
1/30/2021 8:30:00 AM 0.18 32.324 0.082 6.89 3.59 12.83
1/30/2021 8:45:00 AM 0.18 32.324 0.083 6.89 3.73 12.82
1/30/2021 9:00:00 AM 0.18 32.324 0.085 6.89 3.87 12.81
1/30/2021 9:15:00 AM 0.18 32.324 0.082 6.89 3.92 12.81
1/30/2021 9:30:00 AM 0.19 32.342 0.083 6.89 3.65 12.81
1/30/2021 9:45:00 AM 0.2 32.36 0.082 6.88 3.68 12.81
1/30/2021 10:00:00 AM 0.21 32.378 0.082 6.88 3.65 12.81
1/30/2021 10:15:00 AM 0.22 32.396 0.082 6.88 3.6 12.8
1/30/2021 10:30:00 AM 0.22 32.396 0.082 6.88 3.46 12.8
1/30/2021 10:45:00 AM 0.24 32.432 0.082 6.89 3.56 12.8
1/30/2021 11:00:00 AM 0.25 32.45 0.082 6.89 3.64 12.81
1/30/2021 11:15:00 AM 0.26 32.468 0.082 6.89 3.44 12.81
1/30/2021 11:30:00 AM 0.27 32.486 0.081 6.89 3.49 12.82
1/30/2021 11:45:00 AM 0.28 32.504 0.082 6.89 3.55 12.85
1/30/2021 12:00:00 PM 0.29 32.522 0.081 6.89 3.49 12.86
1/30/2021 12:15:00 PM 0.31 32.558 0.083 6.89 3.54 12.89
1/30/2021 12:30:00 PM 0.32 32.576 0.082 6.89 3.62 12.91
1/30/2021 12:45:00 PM 0.35 32.63 0.081 6.89 3.61 12.94
1/30/2021 1:00:00 PM 0.35 32.63 0.08 6.9 3.45 12.97
1/30/2021 1:15:00 PM 0.37 32.666 0.079 6.89 3.45 12.98
1/30/2021 1:30:00 PM 0.39 32.702 0.081 6.9 3.62 13.01
1/30/2021 1:45:00 PM 0.41 32.738 0.082 6.9 3.55 13.03
1/30/2021 2:00:00 PM 0.42 32.756 0.08 6.9 3.49 13.05
1/30/2021 2:15:00 PM 0.44 32.792 0.081 6.91 3.48 13.06
1/30/2021 2:30:00 PM 0.46 32.828 0.082 6.91 3.48 13.09
1/30/2021 2:45:00 PM 0.46 32.828 0.081 6.91 3.49 13.1
1/30/2021 3:00:00 PM 0.49 32.882 0.082 6.91 3.56 13.12
1/30/2021 3:15:00 PM 0.51 32.918 0.081 6.92 3.93 13.15
1/30/2021 3:30:00 PM 0.52 32.936 0.082 6.92 3.61 13.16
1/30/2021 3:45:00 PM 0.53 32.954 0.082 6.92 3.54 13.17
1/30/2021 4:00:00 PM 0.55 32.99 0.083 6.92 3.47 13.19
1/30/2021 4:15:00 PM 0.56 33.008 0.081 6.93 3.46 13.2
1/30/2021 4:30:00 PM 0.57 33.026 0.081 6.93 3.58 13.2
1/30/2021 4:45:00 PM 0.58 33.044 0.081 6.93 3.56 13.22
1/30/2021 5:00:00 PM 0.59 33.062 0.082 6.93 3.54 13.2
1/30/2021 5:15:00 PM 0.59 33.062 0.082 6.93 3.58 13.23
1/30/2021 5:30:00 PM 0.59 33.062 0.081 6.93 3.57 13.25
1/30/2021 5:45:00 PM 0.59 33.062 0.081 6.93 3.67 13.24
1/30/2021 6:00:00 PM 0.58 33.044 0.083 6.93 3.55 13.25
1/30/2021 6:15:00 PM 0.57 33.026 0.082 6.93 3.74 13.25
1/30/2021 6:30:00 PM 0.56 33.008 0.08 6.94 3.44 13.25
1/30/2021 6:45:00 PM 0.54 32.972 0.081 6.93 3.69 13.26
1/30/2021 7:00:00 PM 0.53 32.954 0.082 6.93 3.53 13.25
1/30/2021 7:15:00 PM 0.51 32.918 0.084 6.93 3.79 13.25
1/30/2021 7:30:00 PM 0.5 32.9 0.081 6.93 3.74 13.25
1/30/2021 7:45:00 PM 0.47 32.846 0.082 6.93 3.91 13.24
1/30/2021 8:00:00 PM 0.45 32.81 0.081 6.93 3.72 13.24
1/30/2021 8:15:00 PM 0.43 32.774 0.079 6.93 3.84 13.23
1/30/2021 8:30:00 PM 0.41 32.738 0.08 6.93 3.63 13.23
1/30/2021 8:45:00 PM 0.39 32.702 0.081 6.93 3.82 13.21
1/30/2021 9:00:00 PM 0.37 32.666 0.082 6.93 3.77 13.2
1/30/2021 9:15:00 PM 0.36 32.648 0.08 6.92 3.75 13.18
1/30/2021 9:30:00 PM 0.35 32.63 0.08 6.92 3.8 13.16
1/30/2021 9:45:00 PM 0.33 32.594 0.084 6.92 3.57 13.15
1/30/2021 10:00:00 PM 0.32 32.576 0.081 6.92 3.7 13.14
1/30/2021 10:15:00 PM 0.31 32.558 0.084 6.92 3.62 13.13
1/30/2021 10:30:00 PM 0.31 32.558 0.082 6.93 3.78 13.13
1/30/2021 10:45:00 PM 0.3 32.54 0.082 6.92 3.96 13.13
1/30/2021 11:00:00 PM 0.3 32.54 0.08 6.92 4.09 13.13
1/30/2021 11:15:00 PM 0.29 32.522 0.081 6.92 3.55 13.12
1/30/2021 11:30:00 PM 0.29 32.522 0.082 6.92 3.78 13.12
1/30/2021 11:45:00 PM 0.29 32.522 0.082 6.92 3.53 13.11
1/31/2021 12:00:00 AM 0.29 32.522 0.082 6.92 3.8 13.11
1/31/2021 12:15:00 AM 0.29 32.522 0.083 6.92 3.76 13.09
1/31/2021 12:30:00 AM 0.28 32.504 0.081 6.92 3.82 13.1
1/31/2021 12:45:00 AM 0.28 32.504 0.081 6.91 3.97 13.09
1/31/2021 1:00:00 AM 0.28 32.504 0.082 6.91 4.24 13.07
1/31/2021 1:15:00 AM 0.27 32.486 0.08 6.91 4.27 13.07
1/31/2021 1:30:00 AM 0.27 32.486 0.083 6.91 3.9 13.06
1/31/2021 1:45:00 AM 0.27 32.486 0.081 6.91 3.87 13.05
1/31/2021 2:00:00 AM 0.27 32.486 0.08 6.91 3.87 13.04
1/31/2021 2:15:00 AM 0.26 32.468 0.083 6.91 3.95 13.03
1/31/2021 2:30:00 AM 0.26 32.468 0.081 6.9 4.18 13.02
1/31/2021 2:45:00 AM 0.26 32.468 0.082 6.9 3.99 13.02
1/31/2021 3:00:00 AM 0.25 32.45 0.082 6.9 5.04 13
1/31/2021 3:15:00 AM 0.25 32.45 0.08 6.9 3.95 12.99
1/31/2021 3:30:00 AM 0.24 32.432 0.083 6.9 3.92 12.98
1/31/2021 3:45:00 AM 0.24 32.432 0.08 6.9 3.84 12.97
1/31/2021 4:00:00 AM 0.23 32.414 0.083 6.9 3.95 12.96
1/31/2021 4:15:00 AM 0.23 32.414 0.081 6.89 3.9 12.95
1/31/2021 4:30:00 AM 0.22 32.396 0.083 6.89 3.98 12.93
1/31/2021 4:45:00 AM 0.22 32.396 0.084 6.89 3.96 12.93
1/31/2021 5:00:00 AM 0.22 32.396 0.083 6.88 3.93 12.91
1/31/2021 5:15:00 AM 0.21 32.378 0.083 6.89 4.2 12.9
1/31/2021 5:30:00 AM 0.21 32.378 0.084 6.89 4.14 12.88
1/31/2021 5:45:00 AM 0.2 32.36 0.082 6.88 4.14 12.87
1/31/2021 6:00:00 AM 0.2 32.36 0.083 6.88 4.43 12.87
1/31/2021 6:15:00 AM 0.2 32.36 0.083 6.87 4.23 12.86
1/31/2021 6:30:00 AM 0.2 32.36 0.083 6.88 4.07 12.84
1/31/2021 6:45:00 AM 0.2 32.36 0.082 6.88 4 12.85
1/31/2021 7:00:00 AM 0.19 32.342 0.084 6.88 3.98 12.83
1/31/2021 7:15:00 AM 0.19 32.342 0.082 6.88 3.85 12.83
1/31/2021 7:30:00 AM 0.19 32.342 0.085 6.88 3.88 12.82
1/31/2021 7:45:00 AM 0.19 32.342 0.085 6.87 3.89 12.81
1/31/2021 8:00:00 AM 0.19 32.342 0.085 6.87 3.71 12.81
1/31/2021 8:15:00 AM 0.19 32.342 0.082 6.88 3.59 12.8
1/31/2021 8:30:00 AM 0.19 32.342 0.084 6.87 3.72 12.8
1/31/2021 8:45:00 AM 0.19 32.342 0.084 6.87 3.79 12.79
1/31/2021 9:00:00 AM 0.19 32.342 0.083 6.88 3.83 12.78
1/31/2021 9:15:00 AM 0.19 32.342 0.083 6.87 3.63 12.78
1/31/2021 9:30:00 AM 0.2 32.36 0.084 6.87 3.75 12.77
1/31/2021 9:45:00 AM 0.2 32.36 0.083 6.86 4.04 12.77
1/31/2021 10:00:00 AM 0.2 32.36 0.084 6.86 4.13 12.76
1/31/2021 10:15:00 AM 0.21 32.378 0.084 6.86 4 12.75
1/31/2021 10:30:00 AM 0.21 32.378 0.084 6.87 3.82 12.76
1/31/2021 10:45:00 AM 0.22 32.396 0.082 6.86 3.7 12.76
1/31/2021 11:00:00 AM 0.22 32.396 0.084 6.87 3.62 12.77
1/31/2021 11:15:00 AM 0.23 32.414 0.084 6.87 3.56 12.77
1/31/2021 11:30:00 AM 0.23 32.414 0.082 6.87 3.71 12.79
1/31/2021 11:45:00 AM 0.23 32.414 0.083 6.87 3.59 12.79
1/31/2021 12:00:00 PM 0.24 32.432 0.083 6.87 3.6 12.81
1/31/2021 12:15:00 PM 0.25 32.45 0.084 6.87 3.75 12.84
1/31/2021 12:30:00 PM 0.26 32.468 0.081 6.88 3.76 12.88
1/31/2021 12:45:00 PM 0.27 32.486 0.083 6.88 3.6 12.91
1/31/2021 1:00:00 PM 0.29 32.522 0.083 6.88 3.63 12.94
1/31/2021 1:15:00 PM 0.3 32.54 0.083 6.88 3.67 12.97
1/31/2021 1:30:00 PM 0.31 32.558 0.082 6.88 4.09 12.99
1/31/2021 1:45:00 PM 0.33 32.594 0.082 6.89 3.64 13.01
1/31/2021 2:00:00 PM 0.34 32.612 0.081 6.89 3.39 13.04
1/31/2021 2:15:00 PM 0.34 32.612 0.083 6.89 3.57 13.06
1/31/2021 2:30:00 PM 0.35 32.63 0.081 6.9 3.51 13.07
1/31/2021 2:45:00 PM 0.36 32.648 0.081 6.89 3.58 13.09
1/31/2021 3:00:00 PM 0.36 32.648 0.08 6.89 3.83 13.11
1/31/2021 3:15:00 PM 0.36 32.648 0.083 6.9 3.53 13.12
1/31/2021 3:30:00 PM 0.37 32.666 0.082 6.9 3.53 13.14
1/31/2021 3:45:00 PM 0.37 32.666 0.083 6.9 3.49 13.16
1/31/2021 4:00:00 PM 0.38 32.684 0.08 6.91 3.62 13.17
1/31/2021 4:15:00 PM 0.38 32.684 0.081 6.91 3.55 13.19
1/31/2021 4:30:00 PM 0.39 32.702 0.083 6.91 3.51 13.21
1/31/2021 4:45:00 PM 0.39 32.702 0.083 6.91 3.47 13.21
1/31/2021 5:00:00 PM 0.4 32.72 0.081 6.91 3.52 13.22
1/31/2021 5:15:00 PM 0.4 32.72 0.081 6.91 3.47 13.22
1/31/2021 5:30:00 PM 0.39 32.702 0.082 6.91 3.66 13.22
1/31/2021 5:45:00 PM 0.39 32.702 0.082 6.91 3.56 13.21
1/31/2021 6:00:00 PM 0.39 32.702 0.082 6.91 3.74 13.18
1/31/2021 6:15:00 PM 0.37 32.666 0.081 6.92 3.63 13.19
1/31/2021 6:30:00 PM 0.36 32.648 0.082 6.91 3.79 13.18
1/31/2021 6:45:00 PM 0.35 32.63 0.081 6.91 4.1 13.18
1/31/2021 7:00:00 PM 0.35 32.63 0.081 6.91 3.91 13.15
1/31/2021 7:15:00 PM 0.33 32.594 0.084 6.91 3.86 13.15
1/31/2021 7:30:00 PM 0.32 32.576 0.081 6.91 3.83 13.14
1/31/2021 7:45:00 PM 0.32 32.576 0.082 6.91 4.05 13.12
1/31/2021 8:00:00 PM 0.3 32.54 0.084 6.91 3.75 13.11
1/31/2021 8:15:00 PM 0.3 32.54 0.083 6.91 3.82 13.1
1/31/2021 8:30:00 PM 0.29 32.522 0.083 6.91 3.76 13.08
1/31/2021 8:45:00 PM 0.28 32.504 0.082 6.9 3.93 13.06
1/31/2021 9:00:00 PM 0.27 32.486 0.083 6.9 3.81 13.04
1/31/2021 9:15:00 PM 0.27 32.486 0.083 6.9 4.11 13.02
1/31/2021 9:30:00 PM 0.26 32.468 0.083 6.9 3.78 13.02
1/31/2021 9:45:00 PM 0.26 32.468 0.084 6.9 3.74 13
1/31/2021 10:00:00 PM 0.25 32.45 0.082 6.9 3.78 12.99
1/31/2021 10:15:00 PM 0.24 32.432 0.081 6.9 3.55 12.98
1/31/2021 10:30:00 PM 0.24 32.432 0.082 6.9 3.73 12.97
1/31/2021 10:45:00 PM 0.24 32.432 0.082 6.89 3.58 12.96
1/31/2021 11:00:00 PM 0.23 32.414 0.084 6.9 3.54 12.95
1/31/2021 11:15:00 PM 0.23 32.414 0.082 6.9 3.56 12.95
1/31/2021 11:30:00 PM 0.23 32.414 0.082 6.89 3.71 12.94
1/31/2021 11:45:00 PM 0.23 32.414 0.083 6.9 3.58 12.93
2/1/2021 12:00:00 AM 0.23 32.414 0.083 6.89 3.58 12.91
2/1/2021 12:15:00 AM 0.22 32.396 0.083 6.89 3.69 12.9
2/1/2021 12:30:00 AM 0.22 32.396 0.082 6.89 3.8 12.89
2/1/2021 12:45:00 AM 0.22 32.396 0.083 6.89 3.65 12.88
2/1/2021 1:00:00 AM 0.22 32.396 0.082 6.89 3.64 12.87
2/1/2021 1:15:00 AM 0.21 32.378 0.082 6.89 3.88 12.86
2/1/2021 1:30:00 AM 0.21 32.378 0.083 6.89 3.68 12.84
2/1/2021 1:45:00 AM 0.21 32.378 0.083 6.88 3.72 12.84
2/1/2021 2:00:00 AM 0.21 32.378 0.083 6.89 3.72 12.82
2/1/2021 2:15:00 AM 0.2 32.36 0.081 6.88 3.61 12.81
2/1/2021 2:30:00 AM 0.2 32.36 0.082 6.89 3.71 12.8
2/1/2021 2:45:00 AM 0.2 32.36 0.082 6.88 3.67 12.77
2/1/2021 3:00:00 AM 0.2 32.36 0.083 6.88 3.89 12.77
2/1/2021 3:15:00 AM 0.2 32.36 0.082 6.88 4.2 12.75
2/1/2021 3:30:00 AM 0.19 32.342 0.083 6.88 3.99 12.73
2/1/2021 3:45:00 AM 0.19 32.342 0.084 6.87 3.83 12.71
2/1/2021 4:00:00 AM 0.19 32.342 0.084 6.87 3.82 12.7
2/1/2021 4:15:00 AM 0.18 32.324 0.083 6.88 3.9 12.7
2/1/2021 4:30:00 AM 0.18 32.324 0.083 6.87 4.03 12.67
2/1/2021 4:45:00 AM 0.18 32.324 0.084 6.87 4 12.66
2/1/2021 5:00:00 AM 0.18 32.324 0.084 6.87 3.97 12.64
2/1/2021 5:15:00 AM 0.18 32.324 0.084 6.87 3.68 12.63
2/1/2021 5:30:00 AM 0.18 32.324 0.085 6.87 3.83 12.61
2/1/2021 5:45:00 AM 0.17 32.306 0.084 6.87 3.82 12.6
2/1/2021 6:00:00 AM 0.17 32.306 0.084 6.86 3.97 12.58
2/1/2021 6:15:00 AM 0.17 32.306 0.083 6.86 3.81 12.57
2/1/2021 6:30:00 AM 0.17 32.306 0.085 6.86 3.9 12.55
2/1/2021 6:45:00 AM 0.17 32.306 0.082 6.86 3.83 12.55
2/1/2021 7:00:00 AM 0.16 32.288 0.082 6.86 3.81 12.53
2/1/2021 7:15:00 AM 0.16 32.288 0.082 6.86 4.4 12.52
2/1/2021 7:30:00 AM 0.16 32.288 0.084 6.86 4.49 12.52
2/1/2021 7:45:00 AM 0.16 32.288 0.082 6.86 4.17 12.51
2/1/2021 8:00:00 AM 0.16 32.288 0.084 6.85 4.13 12.5
2/1/2021 8:15:00 AM 0.16 32.288 0.083 6.85 3.84 12.49
2/1/2021 8:30:00 AM 0.15 32.27 0.082 6.86 3.91 12.48
2/1/2021 8:45:00 AM 0.15 32.27 0.084 6.85 3.87 12.47
2/1/2021 9:00:00 AM 0.15 32.27 0.084 6.85 3.8 12.46
2/1/2021 9:15:00 AM 0.15 32.27 0.084 6.85 3.65 12.46
2/1/2021 9:30:00 AM 0.15 32.27 0.084 6.85 3.67 12.45
2/1/2021 9:45:00 AM 0.15 32.27 0.083 6.85 3.52 12.44
2/1/2021 10:00:00 AM 0.15 32.27 0.084 6.85 3.48 12.43
2/1/2021 10:15:00 AM 0.15 32.27 0.083 6.85 3.61 12.43
2/1/2021 10:30:00 AM 0.14 32.252 0.084 6.85 3.68 12.41
2/1/2021 10:45:00 AM 0.15 32.27 0.081 6.85 3.46 12.4
2/1/2021 11:00:00 AM 0.15 32.27 0.083 6.85 3.55 12.39
2/1/2021 11:15:00 AM 0.15 32.27 0.084 6.85 3.58 12.4
2/1/2021 11:30:00 AM 0.14 32.252 0.085 6.85 3.55 12.4
2/1/2021 11:45:00 AM 0.15 32.27 0.083 6.85 3.57 12.39
2/1/2021 12:00:00 PM 0.14 32.252 0.084 6.85 3.69 12.39
2/1/2021 12:15:00 PM 0.14 32.252 0.084 6.85 3.77 12.4
2/1/2021 12:30:00 PM 0.14 32.252 0.084 6.85 3.82 12.4
2/1/2021 12:45:00 PM 0.15 32.27 0.083 6.85 3.85 12.39
2/1/2021 1:00:00 PM 0.15 32.27 0.083 6.85 3.59 12.4
2/1/2021 1:15:00 PM 0.15 32.27 0.082 6.85 3.6 12.43
2/1/2021 1:30:00 PM 0.15 32.27 0.082 6.85 3.41 12.44
2/1/2021 1:45:00 PM 0.15 32.27 0.085 6.86 3.52 12.46
2/1/2021 2:00:00 PM 0.15 32.27 0.084 6.86 3.51 12.46
2/1/2021 2:15:00 PM 0.15 32.27 0.085 6.85 3.58 12.47
2/1/2021 2:30:00 PM 0.15 32.27 0.084 6.85 3.8 12.48
2/1/2021 2:45:00 PM 0.16 32.288 0.083 6.86 3.65 12.48
2/1/2021 3:00:00 PM 0.16 32.288 0.083 6.86 3.73 12.49
2/1/2021 3:15:00 PM 0.16 32.288 0.084 6.86 3.55 12.49
2/1/2021 3:30:00 PM 0.16 32.288 0.083 6.86 3.77 12.5
2/1/2021 3:45:00 PM 0.16 32.288 0.085 6.86 3.55 12.51
2/1/2021 4:00:00 PM 0.16 32.288 0.084 6.86 3.43 12.51
2/1/2021 4:15:00 PM 0.16 32.288 0.083 6.86 3.87 12.51
2/1/2021 4:30:00 PM 0.16 32.288 0.083 6.87 3.7 12.53
2/1/2021 4:45:00 PM 0.16 32.288 0.084 6.86 3.87 12.53
2/1/2021 5:00:00 PM 0.16 32.288 0.081 6.87 3.76 12.52
2/1/2021 5:15:00 PM 0.16 32.288 0.083 6.86 3.64 12.53
2/1/2021 5:30:00 PM 0.16 32.288 0.084 6.86 3.78 12.53
2/1/2021 5:45:00 PM 0.16 32.288 0.083 6.86 3.54 12.52
2/1/2021 6:00:00 PM 0.16 32.288 0.083 6.86 3.89 12.54
2/1/2021 6:15:00 PM 0.16 32.288 0.083 6.87 3.64 12.54
2/1/2021 6:30:00 PM 0.16 32.288 0.084 6.87 3.63 12.54
2/1/2021 6:45:00 PM 0.16 32.288 0.083 6.86 3.77 12.54
2/1/2021 7:00:00 PM 0.16 32.288 0.083 6.87 3.78 12.53
2/1/2021 7:15:00 PM 0.16 32.288 0.084 6.86 3.8 12.53
2/1/2021 7:30:00 PM 0.16 32.288 0.084 6.87 3.76 12.53
2/1/2021 7:45:00 PM 0.16 32.288 0.084 6.87 3.9 12.53
2/1/2021 8:00:00 PM 0.15 32.27 0.084 6.87 3.92 12.54
2/1/2021 8:15:00 PM 0.16 32.288 0.083 6.86 4.24 12.53
2/1/2021 8:30:00 PM 0.15 32.27 0.083 6.87 4.38 12.53
2/1/2021 8:45:00 PM 0.15 32.27 0.085 6.87 4.08 12.53
2/1/2021 9:00:00 PM 0.15 32.27 0.084 6.86 4.28 12.5
2/1/2021 9:15:00 PM 0.15 32.27 0.084 6.87 4.07 12.52
2/1/2021 9:30:00 PM 0.15 32.27 0.083 6.87 3.99 12.51
2/1/2021 9:45:00 PM 0.15 32.27 0.083 6.86 4.39 12.5
2/1/2021 10:00:00 PM 0.15 32.27 0.083 6.87 4.61 12.49
2/1/2021 10:15:00 PM 0.15 32.27 0.083 6.86 4.24 12.49
2/1/2021 10:30:00 PM 0.15 32.27 0.083 6.86 4.18 12.47
2/1/2021 10:45:00 PM 0.15 32.27 0.083 6.86 3.9 12.49
2/1/2021 11:00:00 PM 0.15 32.27 0.084 6.87 3.95 12.49
2/1/2021 11:15:00 PM 0.14 32.252 0.085 6.86 3.99 12.48
2/1/2021 11:30:00 PM 0.14 32.252 0.083 6.86 3.89 12.47
2/1/2021 11:45:00 PM 0.14 32.252 0.083 6.86 4.17 12.47
2/2/2021 12:00:00 AM 0.14 32.252 0.083 6.86 4.17 12.47
2/2/2021 12:15:00 AM 0.14 32.252 0.084 6.86 3.79 12.47
2/2/2021 12:30:00 AM 0.14 32.252 0.083 6.86 3.98 12.47
2/2/2021 12:45:00 AM 0.14 32.252 0.084 6.86 3.78 12.46
2/2/2021 1:00:00 AM 0.14 32.252 0.084 6.86 3.84 12.45
2/2/2021 1:15:00 AM 0.14 32.252 0.083 6.86 3.9 12.45
2/2/2021 1:30:00 AM 0.14 32.252 0.084 6.86 3.73 12.43
2/2/2021 1:45:00 AM 0.14 32.252 0.083 6.86 3.91 12.43
2/2/2021 2:00:00 AM 0.14 32.252 0.081 6.86 3.7 12.42
2/2/2021 2:15:00 AM 0.14 32.252 0.082 6.86 3.72 12.41
2/2/2021 2:30:00 AM 0.14 32.252 0.084 6.86 3.7 12.4
2/2/2021 2:45:00 AM 0.14 32.252 0.083 6.85 3.67 12.38
2/2/2021 3:00:00 AM 0.13 32.234 0.085 6.86 3.85 12.37
2/2/2021 3:15:00 AM 0.13 32.234 0.083 6.85 4 12.36
2/2/2021 3:30:00 AM 0.13 32.234 0.084 6.85 3.97 12.34
2/2/2021 3:45:00 AM 0.13 32.234 0.084 6.85 4.03 12.34
2/2/2021 4:00:00 AM 0.13 32.234 0.085 6.85 3.96 12.34
2/2/2021 4:15:00 AM 0.13 32.234 0.084 6.85 3.84 12.33
2/2/2021 4:30:00 AM 0.13 32.234 0.086 6.85 4.07 12.31
2/2/2021 4:45:00 AM 0.13 32.234 0.084 6.85 3.68 12.3
2/2/2021 5:00:00 AM 0.13 32.234 0.083 6.85 3.84 12.28
2/2/2021 5:15:00 AM 0.13 32.234 0.084 6.84 3.82 12.27
2/2/2021 5:30:00 AM 0.13 32.234 0.084 6.84 3.73 12.26
2/2/2021 5:45:00 AM 0.13 32.234 0.082 6.84 3.82 12.25
2/2/2021 6:00:00 AM 0.13 32.234 0.085 6.84 3.94 12.24
2/2/2021 6:15:00 AM 0.13 32.234 0.083 6.84 4.15 12.23
2/2/2021 6:30:00 AM 0.13 32.234 0.082 6.84 3.77 12.23
2/2/2021 6:45:00 AM 0.13 32.234 0.083 6.84 3.83 12.24
2/2/2021 7:00:00 AM 0.13 32.234 0.082 6.84 3.66 12.24
2/2/2021 7:15:00 AM 0.13 32.234 0.084 6.84 3.69 12.22
2/2/2021 7:30:00 AM 0.13 32.234 0.084 6.84 3.73 12.23
2/2/2021 7:45:00 AM 0.13 32.234 0.085 6.84 3.64 12.23
2/2/2021 8:00:00 AM 0.13 32.234 0.083 6.84 3.66 12.23
2/2/2021 8:15:00 AM 0.13 32.234 0.084 6.84 3.75 12.21
2/2/2021 8:30:00 AM 0.13 32.234 0.084 6.84 3.85 12.21
2/2/2021 8:45:00 AM 0.13 32.234 0.083 6.84 4.11 12.21
2/2/2021 9:00:00 AM 0.13 32.234 0.084 6.84 4.15 12.21
2/2/2021 9:15:00 AM 0.13 32.234 0.083 6.84 3.99 12.2
2/2/2021 9:30:00 AM 0.13 32.234 0.083 6.84 3.8 12.21
2/2/2021 9:45:00 AM 0.13 32.234 0.083 6.84 3.61 12.21
2/2/2021 10:00:00 AM 0.13 32.234 0.082 6.84 3.95 12.21
2/2/2021 10:15:00 AM 0.13 32.234 0.084 6.84 3.97 12.21
2/2/2021 10:30:00 AM 0.13 32.234 0.084 6.83 3.98 12.2
2/2/2021 10:45:00 AM 0.13 32.234 0.083 6.83 4 12.19
2/2/2021 11:00:00 AM 0.13 32.234 0.084 6.84 3.92 12.2
2/2/2021 11:15:00 AM 0.13 32.234 0.084 6.84 3.68 12.21
2/2/2021 11:30:00 AM 0.13 32.234 0.083 6.84 3.58 12.2
2/2/2021 11:45:00 AM 0.13 32.234 0.083 6.84 3.6 12.21
2/2/2021 12:00:00 PM 0.12 32.216 0.083 6.84 3.84 12.21
2/2/2021 12:15:00 PM 0.12 32.216 0.083 6.83 3.92 12.22
2/2/2021 12:30:00 PM 0.12 32.216 0.084 6.84 3.85 12.22
2/2/2021 12:45:00 PM 0.12 32.216 0.082 6.84 3.86 12.22
2/2/2021 1:00:00 PM 0.13 32.234 0.083 6.84 3.91 12.25
2/2/2021 1:15:00 PM 0.13 32.234 0.084 6.84 3.94 12.25
2/2/2021 1:30:00 PM 0.13 32.234 0.084 6.84 3.74 12.27
2/2/2021 1:45:00 PM 0.13 32.234 0.084 6.84 3.73 12.28
2/2/2021 2:00:00 PM 0.13 32.234 0.083 6.84 3.67 12.29
2/2/2021 2:15:00 PM 0.13 32.234 0.083 6.84 3.66 12.28
2/2/2021 2:30:00 PM 0.13 32.234 0.084 6.84 3.62 12.29
2/2/2021 2:45:00 PM 0.13 32.234 0.083 6.84 3.85 12.29
2/2/2021 3:00:00 PM 0.13 32.234 0.083 6.85 3.79 12.3
2/2/2021 3:15:00 PM 0.14 32.252 0.082 6.85 3.88 12.31
2/2/2021 3:30:00 PM 0.14 32.252 0.083 6.85 3.87 12.33
2/2/2021 3:45:00 PM 0.14 32.252 0.084 6.85 4.01 12.33
2/2/2021 4:00:00 PM 0.14 32.252 0.084 6.85 3.83 12.33
2/2/2021 4:15:00 PM 0.15 32.27 0.082 6.85 3.91 12.34
2/2/2021 4:30:00 PM 0.15 32.27 0.083 6.85 3.9 12.35
2/2/2021 4:45:00 PM 0.15 32.27 0.083 6.85 3.78 12.37
2/2/2021 5:00:00 PM 0.15 32.27 0.084 6.85 3.73 12.36
2/2/2021 5:15:00 PM 0.16 32.288 0.082 6.85 3.91 12.39
2/2/2021 5:30:00 PM 0.16 32.288 0.082 6.86 3.65 12.39
2/2/2021 5:45:00 PM 0.16 32.288 0.083 6.86 3.67 12.39
2/2/2021 6:00:00 PM 0.16 32.288 0.083 6.86 3.75 12.41
2/2/2021 6:15:00 PM 0.16 32.288 0.083 6.86 3.7 12.41
2/2/2021 6:30:00 PM 0.16 32.288 0.084 6.86 3.68 12.41
2/2/2021 6:45:00 PM 0.16 32.288 0.084 6.86 3.73 12.42
2/2/2021 7:00:00 PM 0.15 32.27 0.083 6.86 3.84 12.42
2/2/2021 7:15:00 PM 0.15 32.27 0.083 6.86 4.15 12.43
2/2/2021 7:30:00 PM 0.15 32.27 0.083 6.86 4 12.44
2/2/2021 7:45:00 PM 0.15 32.27 0.084 6.86 3.88 12.43
2/2/2021 8:00:00 PM 0.15 32.27 0.083 6.86 3.9 12.43
2/2/2021 8:15:00 PM 0.15 32.27 0.083 6.86 3.8 12.42
2/2/2021 8:30:00 PM 0.15 32.27 0.083 6.87 3.86 12.44
2/2/2021 8:45:00 PM 0.15 32.27 0.083 6.86 3.9 12.42
2/2/2021 9:00:00 PM 0.15 32.27 0.083 6.86 3.83 12.43
2/2/2021 9:15:00 PM 0.15 32.27 0.083 6.86 3.85 12.41
2/2/2021 9:30:00 PM 0.15 32.27 0.084 6.86 3.84 12.42
2/2/2021 9:45:00 PM 0.15 32.27 0.083 6.86 3.93 12.42
2/2/2021 10:00:00 PM 0.15 32.27 0.084 6.86 3.9 12.41
2/2/2021 10:15:00 PM 0.15 32.27 0.083 6.86 3.88 12.41
2/2/2021 10:30:00 PM 0.15 32.27 0.082 6.86 3.75 12.41
2/2/2021 10:45:00 PM 0.15 32.27 0.084 6.86 3.8 12.4
2/2/2021 11:00:00 PM 0.15 32.27 0.083 6.86 3.79 12.41
2/2/2021 11:15:00 PM 0.15 32.27 0.082 6.86 3.89 12.41
2/2/2021 11:30:00 PM 0.15 32.27 0.084 6.86 3.9 12.39
2/2/2021 11:45:00 PM 0.15 32.27 0.083 6.86 3.82 12.4
2/3/2021 12:00:00 AM 0.15 32.27 0.084 6.86 3.75 12.39
2/3/2021 12:15:00 AM 0.15 32.27 0.082 6.86 3.74 12.38
2/3/2021 12:30:00 AM 0.15 32.27 0.083 6.86 3.79 12.38
2/3/2021 12:45:00 AM 0.15 32.27 0.084 6.86 3.83 12.36
2/3/2021 1:00:00 AM 0.15 32.27 0.084 6.86 3.94 12.37
2/3/2021 1:15:00 AM 0.15 32.27 0.083 6.86 3.85 12.35
2/3/2021 1:30:00 AM 0.15 32.27 0.083 6.86 4.12 12.35
2/3/2021 1:45:00 AM 0.15 32.27 0.083 6.86 3.72 12.33
2/3/2021 2:00:00 AM 0.15 32.27 0.083 6.85 3.95 12.32
2/3/2021 2:15:00 AM 0.15 32.27 0.084 6.86 3.76 12.31
2/3/2021 2:30:00 AM 0.15 32.27 0.084 6.85 3.81 12.31
2/3/2021 2:45:00 AM 0.15 32.27 0.084 6.85 3.97 12.3
2/3/2021 3:00:00 AM 0.15 32.27 0.084 6.85 3.75 12.29
2/3/2021 3:15:00 AM 0.14 32.252 0.083 6.85 3.9 12.29
2/3/2021 3:30:00 AM 0.14 32.252 0.083 6.85 3.77 12.27
2/3/2021 3:45:00 AM 0.14 32.252 0.082 6.85 3.78 12.26
2/3/2021 4:00:00 AM 0.14 32.252 0.084 6.85 3.77 12.26
2/3/2021 4:15:00 AM 0.14 32.252 0.084 6.85 3.74 12.25
2/3/2021 4:30:00 AM 0.14 32.252 0.084 6.85 4.04 12.24
2/3/2021 4:45:00 AM 0.14 32.252 0.083 6.84 3.93 12.23
2/3/2021 5:00:00 AM 0.14 32.252 0.084 6.84 3.91 12.22
2/3/2021 5:15:00 AM 0.14 32.252 0.083 6.84 3.97 12.22
2/3/2021 5:30:00 AM 0.14 32.252 0.084 6.84 3.86 12.22
2/3/2021 5:45:00 AM 0.14 32.252 0.083 6.84 3.79 12.22
2/3/2021 6:00:00 AM 0.14 32.252 0.083 6.84 3.73 12.22
2/3/2021 6:15:00 AM 0.14 32.252 0.084 6.84 3.86 12.22
2/3/2021 6:30:00 AM 0.14 32.252 0.083 6.84 3.81 12.21
2/3/2021 6:45:00 AM 0.14 32.252 0.083 6.84 3.78 12.21
2/3/2021 7:00:00 AM 0.14 32.252 0.083 6.84 3.77 12.21
2/3/2021 7:15:00 AM 0.14 32.252 0.084 6.84 3.81 12.2
2/3/2021 7:30:00 AM 0.14 32.252 0.084 6.84 3.76 12.19
2/3/2021 7:45:00 AM 0.14 32.252 0.083 6.84 3.96 12.2
2/3/2021 8:00:00 AM 0.14 32.252 0.084 6.84 3.92 12.19
2/3/2021 8:15:00 AM 0.14 32.252 0.083 6.84 3.83 12.19
2/3/2021 8:30:00 AM 0.14 32.252 0.082 6.84 3.81 12.18
2/3/2021 8:45:00 AM 0.14 32.252 0.083 6.84 3.75 12.19
2/3/2021 9:00:00 AM 0.14 32.252 0.083 6.84 3.85 12.2
2/3/2021 9:15:00 AM 0.14 32.252 0.084 6.84 3.75 12.19
2/3/2021 9:30:00 AM 0.14 32.252 0.083 6.84 3.85 12.19
2/3/2021 9:45:00 AM 0.14 32.252 0.082 6.84 3.76 12.19
2/3/2021 10:00:00 AM 0.14 32.252 0.083 6.84 3.72 12.2
2/3/2021 10:15:00 AM 0.14 32.252 0.083 6.84 3.81 12.18
2/3/2021 10:30:00 AM 0.14 32.252 0.082 6.84 3.96 12.2
2/3/2021 10:45:00 AM 0.14 32.252 0.084 6.84 4.16 12.19
2/3/2021 11:00:00 AM 0.14 32.252 0.084 6.83 4.05 12.18
2/3/2021 11:15:00 AM 0.14 32.252 0.084 6.84 3.77 12.2
2/3/2021 11:30:00 AM 0.14 32.252 0.082 6.84 3.77 12.2
2/3/2021 11:45:00 AM 0.14 32.252 0.083 6.84 3.76 12.22
2/3/2021 12:00:00 PM 0.15 32.27 0.084 6.84 3.97 12.24
2/3/2021 12:15:00 PM 0.15 32.27 0.083 6.84 4.49 12.25
2/3/2021 12:30:00 PM 0.15 32.27 0.084 6.84 3.99 12.26
2/3/2021 12:45:00 PM 0.15 32.27 0.084 6.85 3.8 12.29
2/3/2021 1:00:00 PM 0.16 32.288 0.084 6.85 4.02 12.31
2/3/2021 1:15:00 PM 0.16 32.288 0.083 6.85 3.93 12.31
2/3/2021 1:30:00 PM 0.16 32.288 0.083 6.85 3.88 12.34
2/3/2021 1:45:00 PM 0.17 32.306 0.083 6.85 3.74 12.35
2/3/2021 2:00:00 PM 0.17 32.306 0.083 6.85 3.8 12.35
2/3/2021 2:15:00 PM 0.17 32.306 0.084 6.85 3.89 12.37
2/3/2021 2:30:00 PM 0.18 32.324 0.083 6.85 4.1 12.39
2/3/2021 2:45:00 PM 0.19 32.342 0.084 6.86 4.1 12.41
2/3/2021 3:00:00 PM 0.19 32.342 0.084 6.86 3.98 12.41
2/3/2021 3:15:00 PM 0.19 32.342 0.084 6.85 4.06 12.4
2/3/2021 3:30:00 PM 0.2 32.36 0.084 6.85 4.17 12.4
2/3/2021 3:45:00 PM 0.2 32.36 0.083 6.86 4.11 12.43
2/3/2021 4:00:00 PM 0.21 32.378 0.083 6.86 4.03 12.48
2/3/2021 4:15:00 PM 0.21 32.378 0.083 6.87 4 12.49
2/3/2021 4:30:00 PM 0.21 32.378 0.082 6.86 3.82 12.48
2/3/2021 4:45:00 PM 0.22 32.396 0.083 6.87 3.72 12.46
2/3/2021 5:00:00 PM 0.22 32.396 0.082 6.87 3.85 12.49
2/3/2021 5:15:00 PM 0.22 32.396 0.084 6.87 3.8 12.51
2/3/2021 5:30:00 PM 0.22 32.396 0.083 6.87 3.68 12.53
2/3/2021 5:45:00 PM 0.22 32.396 0.083 6.88 3.8 12.52
2/3/2021 6:00:00 PM 0.22 32.396 0.083 6.88 3.88 12.55
2/3/2021 6:15:00 PM 0.21 32.378 0.082 6.87 3.83 12.56
2/3/2021 6:30:00 PM 0.21 32.378 0.084 6.87 3.97 12.55
2/3/2021 6:45:00 PM 0.21 32.378 0.083 6.87 4.06 12.56
2/3/2021 7:00:00 PM 0.21 32.378 0.083 6.88 4.24 12.57
2/3/2021 7:15:00 PM 0.21 32.378 0.083 6.87 4.52 12.57
2/3/2021 7:30:00 PM 0.2 32.36 0.082 6.88 4.35 12.6
2/3/2021 7:45:00 PM 0.2 32.36 0.083 6.87 4.31 12.58
2/3/2021 8:00:00 PM 0.2 32.36 0.083 6.88 4.25 12.59
2/3/2021 8:15:00 PM 0.2 32.36 0.083 6.88 4.21 12.58
2/3/2021 8:30:00 PM 0.19 32.342 0.083 6.88 4.08 12.58
2/3/2021 8:45:00 PM 0.2 32.36 0.082 6.88 4.08 12.57
2/3/2021 9:00:00 PM 0.19 32.342 0.083 6.88 4.07 12.59
2/3/2021 9:15:00 PM 0.19 32.342 0.083 6.88 4 12.58
2/3/2021 9:30:00 PM 0.19 32.342 0.082 6.88 4.02 12.58
2/3/2021 9:45:00 PM 0.19 32.342 0.084 6.87 3.92 12.58
2/3/2021 10:00:00 PM 0.19 32.342 0.083 6.88 3.84 12.56
2/3/2021 10:15:00 PM 0.19 32.342 0.083 6.87 3.86 12.55
2/3/2021 10:30:00 PM 0.19 32.342 0.083 6.88 3.97 12.56
2/3/2021 10:45:00 PM 0.19 32.342 0.083 6.87 3.86 12.55
2/3/2021 11:00:00 PM 0.19 32.342 0.082 6.87 3.89 12.55
2/3/2021 11:15:00 PM 0.19 32.342 0.084 6.87 3.84 12.53
2/3/2021 11:30:00 PM 0.19 32.342 0.083 6.88 3.77 12.53
2/3/2021 11:45:00 PM 0.19 32.342 0.084 6.87 3.76 12.54
2/4/2021 12:00:00 AM 0.19 32.342 0.084 6.88 3.78 12.53
2/4/2021 12:15:00 AM 0.19 32.342 0.083 6.88 3.74 12.52
2/4/2021 12:30:00 AM 0.18 32.324 0.084 6.87 3.63 12.5
2/4/2021 12:45:00 AM 0.18 32.324 0.083 6.87 3.89 12.5
2/4/2021 1:00:00 AM 0.18 32.324 0.083 6.87 3.68 12.5
2/4/2021 1:15:00 AM 0.18 32.324 0.084 6.87 3.77 12.49
2/4/2021 1:30:00 AM 0.18 32.324 0.084 6.87 3.75 12.48
2/4/2021 1:45:00 AM 0.18 32.324 0.083 6.86 3.81 12.46
2/4/2021 2:00:00 AM 0.17 32.306 0.083 6.87 3.85 12.46
2/4/2021 2:15:00 AM 0.17 32.306 0.083 6.86 3.86 12.45
2/4/2021 2:30:00 AM 0.17 32.306 0.083 6.87 3.8 12.43
2/4/2021 2:45:00 AM 0.16 32.288 0.084 6.87 3.88 12.43
2/4/2021 3:00:00 AM 0.16 32.288 0.083 6.86 3.79 12.42
2/4/2021 3:15:00 AM 0.16 32.288 0.083 6.86 3.86 12.41
2/4/2021 3:30:00 AM 0.16 32.288 0.084 6.86 3.8 12.41
2/4/2021 3:45:00 AM 0.16 32.288 0.084 6.86 3.9 12.39
2/4/2021 4:00:00 AM 0.16 32.288 0.084 6.86 3.85 12.39
2/4/2021 4:15:00 AM 0.16 32.288 0.084 6.86 3.8 12.38
2/4/2021 4:30:00 AM 0.16 32.288 0.083 6.86 3.84 12.36
2/4/2021 4:45:00 AM 0.15 32.27 0.083 6.86 3.94 12.36
2/4/2021 5:00:00 AM 0.15 32.27 0.082 6.85 4.01 12.36
2/4/2021 5:15:00 AM 0.15 32.27 0.085 6.85 3.8 12.34
2/4/2021 5:30:00 AM 0.15 32.27 0.083 6.86 3.93 12.34
2/4/2021 5:45:00 AM 0.15 32.27 0.083 6.85 3.84 12.33
2/4/2021 6:00:00 AM 0.16 32.288 0.083 6.85 3.81 12.32
2/4/2021 6:15:00 AM 0.15 32.27 0.084 6.85 3.85 12.32
2/4/2021 6:30:00 AM 0.16 32.288 0.084 6.85 3.76 12.3
2/4/2021 6:45:00 AM 0.15 32.27 0.082 6.85 3.81 12.3
2/4/2021 7:00:00 AM 0.15 32.27 0.084 6.84 3.74 12.31
2/4/2021 7:15:00 AM 0.15 32.27 0.083 6.85 3.92 12.3
2/4/2021 7:30:00 AM 0.15 32.27 0.083 6.85 3.75 12.3
2/4/2021 7:45:00 AM 0.15 32.27 0.083 6.85 3.93 12.3
2/4/2021 8:00:00 AM 0.15 32.27 0.083 6.84 3.88 12.29
2/4/2021 8:15:00 AM 0.16 32.288 0.084 6.84 3.81 12.28
2/4/2021 8:30:00 AM 0.15 32.27 0.083 6.85 3.8 12.29
2/4/2021 8:45:00 AM 0.16 32.288 0.084 6.84 3.91 12.28
2/4/2021 9:00:00 AM 0.16 32.288 0.084 6.84 3.73 12.3
2/4/2021 9:15:00 AM 0.16 32.288 0.084 6.85 3.68 12.29
2/4/2021 9:30:00 AM 0.16 32.288 0.083 6.84 3.8 12.29
2/4/2021 9:45:00 AM 0.16 32.288 0.085 6.84 3.73 12.3
2/4/2021 10:00:00 AM 0.17 32.306 0.084 6.84 3.73 12.29
2/4/2021 10:15:00 AM 0.17 32.306 0.086 6.85 3.62 12.3
2/4/2021 10:30:00 AM 0.18 32.324 0.085 6.85 3.62 12.29
2/4/2021 10:45:00 AM 0.19 32.342 0.084 6.85 3.84 12.3
2/4/2021 11:00:00 AM 0.19 32.342 0.083 6.85 3.98 12.3
2/4/2021 11:15:00 AM 0.19 32.342 0.084 6.85 3.96 12.32
2/4/2021 11:30:00 AM 0.2 32.36 0.084 6.85 3.92 12.33
2/4/2021 11:45:00 AM 0.21 32.378 0.084 6.85 3.8 12.35
2/4/2021 12:00:00 PM 0.21 32.378 0.084 6.85 3.88 12.37
2/4/2021 12:15:00 PM 0.22 32.396 0.084 6.85 4.02 12.39
2/4/2021 12:30:00 PM 0.22 32.396 0.083 6.85 4.04 12.4
2/4/2021 12:45:00 PM 0.23 32.414 0.084 6.85 4.21 12.45
2/4/2021 1:00:00 PM 0.24 32.432 0.084 6.86 4.08 12.45
2/4/2021 1:15:00 PM 0.25 32.45 0.083 6.87 3.89 12.49
2/4/2021 1:30:00 PM 0.26 32.468 0.081 6.86 4.07 12.5
2/4/2021 1:45:00 PM 0.27 32.486 0.082 6.87 4.01 12.51
2/4/2021 2:00:00 PM 0.28 32.504 0.082 6.87 3.84 12.52
2/4/2021 2:15:00 PM 0.3 32.54 0.081 6.86 3.99 12.53
2/4/2021 2:30:00 PM 0.31 32.558 0.082 6.87 4.01 12.54
2/4/2021 2:45:00 PM 0.32 32.576 0.084 6.87 3.72 12.56
2/4/2021 3:00:00 PM 0.34 32.612 0.082 6.87 4.01 12.59
2/4/2021 3:15:00 PM 0.35 32.63 0.081 6.88 3.8 12.6
2/4/2021 3:30:00 PM 0.37 32.666 0.082 6.87 4.01 12.6
2/4/2021 3:45:00 PM 0.38 32.684 0.082 6.87 3.8 12.61
2/4/2021 4:00:00 PM 0.39 32.702 0.082 6.88 3.79 12.64
2/4/2021 4:15:00 PM 0.4 32.72 0.082 6.88 3.98 12.64
2/4/2021 4:30:00 PM 0.41 32.738 0.082 6.88 3.86 12.65
2/4/2021 4:45:00 PM 0.42 32.756 0.081 6.88 3.73 12.67
2/4/2021 5:00:00 PM 0.42 32.756 0.081 6.88 3.76 12.7
2/4/2021 5:15:00 PM 0.42 32.756 0.083 6.89 3.9 12.71
2/4/2021 5:30:00 PM 0.42 32.756 0.081 6.89 3.86 12.72
2/4/2021 5:45:00 PM 0.42 32.756 0.081 6.89 3.85 12.75
2/4/2021 6:00:00 PM 0.41 32.738 0.083 6.89 4.02 12.77
2/4/2021 6:15:00 PM 0.41 32.738 0.083 6.89 3.95 12.79
2/4/2021 6:30:00 PM 0.4 32.72 0.081 6.9 4.2 12.8
2/4/2021 6:45:00 PM 0.39 32.702 0.082 6.9 4.16 12.8
2/4/2021 7:00:00 PM 0.38 32.684 0.081 6.89 4.19 12.8
2/4/2021 7:15:00 PM 0.37 32.666 0.081 6.9 4.32 12.81
2/4/2021 7:30:00 PM 0.36 32.648 0.081 6.9 4.21 12.81
2/4/2021 7:45:00 PM 0.35 32.63 0.081 6.9 4.23 12.81
2/4/2021 8:00:00 PM 0.34 32.612 0.082 6.9 3.92 12.81
2/4/2021 8:15:00 PM 0.33 32.594 0.082 6.9 4.19 12.81
2/4/2021 8:30:00 PM 0.33 32.594 0.083 6.89 4.23 12.77
2/4/2021 8:45:00 PM 0.32 32.576 0.082 6.89 4 12.76
2/4/2021 9:00:00 PM 0.31 32.558 0.083 6.89 3.96 12.76
2/4/2021 9:15:00 PM 0.31 32.558 0.083 6.89 4.06 12.76
2/4/2021 9:30:00 PM 0.31 32.558 0.082 6.89 3.91 12.73
2/4/2021 9:45:00 PM 0.31 32.558 0.083 6.89 4.24 12.73
2/4/2021 10:00:00 PM 0.31 32.558 0.082 6.89 4.18 12.72
2/4/2021 10:15:00 PM 0.31 32.558 0.082 6.89 4.22 12.7
2/4/2021 10:30:00 PM 0.3 32.54 0.082 6.88 4.13 12.7
2/4/2021 10:45:00 PM 0.3 32.54 0.082 6.88 4.4 12.69
2/4/2021 11:00:00 PM 0.3 32.54 0.082 6.88 4.31 12.7
2/4/2021 11:15:00 PM 0.3 32.54 0.082 6.88 4.2 12.68
2/4/2021 11:30:00 PM 0.3 32.54 0.084 6.88 4.42 12.66
2/4/2021 11:45:00 PM 0.3 32.54 0.083 6.88 4.22 12.67
2/5/2021 12:00:00 AM 0.29 32.522 0.082 6.87 4.21 12.63
2/5/2021 12:15:00 AM 0.29 32.522 0.083 6.88 4.14 12.64
2/5/2021 12:30:00 AM 0.29 32.522 0.082 6.88 4.11 12.61
2/5/2021 12:45:00 AM 0.28 32.504 0.083 6.87 3.97 12.61
2/5/2021 1:00:00 AM 0.27 32.486 0.082 6.88 4.03 12.61
2/5/2021 1:15:00 AM 0.27 32.486 0.084 6.87 4.13 12.58
2/5/2021 1:30:00 AM 0.26 32.468 0.081 6.87 3.95 12.57
2/5/2021 1:45:00 AM 0.25 32.45 0.083 6.87 3.92 12.56
2/5/2021 2:00:00 AM 0.25 32.45 0.082 6.87 3.99 12.54
2/5/2021 2:15:00 AM 0.24 32.432 0.083 6.87 4.05 12.52
2/5/2021 2:30:00 AM 0.23 32.414 0.083 6.86 3.9 12.51
2/5/2021 2:45:00 AM 0.23 32.414 0.083 6.86 3.95 12.5
2/5/2021 3:00:00 AM 0.22 32.396 0.083 6.86 4.04 12.48
2/5/2021 3:15:00 AM 0.21 32.378 0.083 6.86 4.06 12.48
2/5/2021 3:30:00 AM 0.21 32.378 0.082 6.86 3.92 12.45
2/5/2021 3:45:00 AM 0.21 32.378 0.084 6.86 4.05 12.46
2/5/2021 4:00:00 AM 0.2 32.36 0.083 6.85 3.95 12.44
2/5/2021 4:15:00 AM 0.2 32.36 0.083 6.85 4 12.44
2/5/2021 4:30:00 AM 0.2 32.36 0.083 6.85 3.92 12.41
2/5/2021 4:45:00 AM 0.19 32.342 0.084 6.85 3.85 12.39
2/5/2021 5:00:00 AM 0.19 32.342 0.083 6.85 3.99 12.4
2/5/2021 5:15:00 AM 0.19 32.342 0.084 6.85 4.13 12.39
2/5/2021 5:30:00 AM 0.19 32.342 0.083 6.85 4.06 12.39
2/5/2021 5:45:00 AM 0.19 32.342 0.082 6.85 4.21 12.38
2/5/2021 6:00:00 AM 0.19 32.342 0.083 6.85 4.11 12.36
2/5/2021 6:15:00 AM 0.19 32.342 0.083 6.85 3.93 12.37
2/5/2021 6:30:00 AM 0.18 32.324 0.083 6.84 4.14 12.35
2/5/2021 6:45:00 AM 0.18 32.324 0.082 6.84 3.92 12.35
2/5/2021 7:00:00 AM 0.18 32.324 0.083 6.85 4.08 12.34
2/5/2021 7:15:00 AM 0.19 32.342 0.081 6.84 4.05 12.33
2/5/2021 7:30:00 AM 0.18 32.324 0.084 6.84 4.07 12.33
2/5/2021 7:45:00 AM 0.18 32.324 0.083 6.84 3.93 12.32
2/5/2021 8:00:00 AM 0.18 32.324 0.083 6.84 3.88 12.32
2/5/2021 8:15:00 AM 0.18 32.324 0.083 6.84 3.79 12.3
2/5/2021 8:30:00 AM 0.18 32.324 0.082 6.84 3.93 12.3
2/5/2021 8:45:00 AM 0.17 32.306 0.083 6.84 3.89 12.3
2/5/2021 9:00:00 AM 0.17 32.306 0.082 6.84 3.79 12.3
2/5/2021 9:15:00 AM 0.17 32.306 0.082 6.84 3.91 12.3
2/5/2021 9:30:00 AM 0.18 32.324 0.084 6.84 3.97 12.29
2/5/2021 9:45:00 AM 0.17 32.306 0.084 6.84